Provisional Data: Sugar Run near Sugar Run, PA


Please select a monitoring station.
Please select start date.
Please select start date.

Toggle Unit: C/F Toggle Unit: C/F
Sample Time Temperature (C) Temperature (F) Specific Conductivity (mS/cm) pH   Turbidity (NTU+) DO (mg/L)
12/23/2022 12:00:00 AM 0.12 32.216 0.111 7.38 59.25 13.91
12/23/2022 12:15:00 AM 0.13 32.234 0.11 7.37 87.49 13.91
12/23/2022 12:30:00 AM 0.14 32.252 0.108 7.37 73.61 13.91
12/23/2022 12:45:00 AM 0.16 32.288 0.107 7.36 68.09 13.9
12/23/2022 1:00:00 AM 0.18 32.324 0.106 7.35 118.14 13.89
12/23/2022 1:15:00 AM 0.2 32.36 0.105 7.34 119.6 13.88
12/23/2022 1:30:00 AM 0.21 32.378 0.105 7.33 69.22 13.89
12/23/2022 1:45:00 AM 0.24 32.432 0.106 7.31 71.89 13.86
12/23/2022 2:00:00 AM 0.24 32.432 0.107 7.3 188.56 13.86
12/23/2022 2:15:00 AM 0.25 32.45 0.107 7.28 62.68 13.87
12/23/2022 2:30:00 AM 0.25 32.45 0.106 7.26 69.5 13.81
12/23/2022 2:45:00 AM 0.26 32.468 0.106 7.25 67.88 13.79
12/23/2022 3:00:00 AM 0.25 32.45 0.106 7.23 67.12 13.78
12/23/2022 3:15:00 AM 0.23 32.414 0.105 7.21 67.99 13.77
12/23/2022 3:30:00 AM 0.23 32.414 0.107 7.18 67.19 13.75
12/23/2022 3:45:00 AM 0.21 32.378 0.108 7.18 61.2 13.73
12/23/2022 4:00:00 AM 0.2 32.36 0.11 7.17 68.11 13.72
12/23/2022 4:15:00 AM 0.21 32.378 0.109 7.16 86.97 13.7
12/23/2022 4:30:00 AM 0.2 32.36 0.106 7.16 78.41 13.69
12/23/2022 4:45:00 AM 0.19 32.342 0.102 7.14 87.58 13.68
12/23/2022 5:00:00 AM 0.19 32.342 0.099 7.13 97.8 13.68
12/23/2022 5:15:00 AM 0.19 32.342 0.1 7.12 104.91 13.68
12/23/2022 5:30:00 AM 0.18 32.324 0.099 7.11 116.8 13.67
12/23/2022 5:45:00 AM 0.2 32.36 0.096 7.1 123.31 13.67
12/23/2022 6:00:00 AM 0.2 32.36 0.092 7.09 137.05 13.66
12/23/2022 6:15:00 AM 0.21 32.378 0.087 7.08 146.23 13.67
12/23/2022 6:30:00 AM 0.22 32.396 0.083 7.08 156.27 13.67
12/23/2022 6:45:00 AM 0.21 32.378 0.08 7.08 161.95 13.67
12/23/2022 7:00:00 AM 0.22 32.396 0.078 7.04 161.22 13.67
12/23/2022 7:15:00 AM 0.22 32.396 0.076 7.03 161.11 13.66
12/23/2022 7:30:00 AM 0.22 32.396 0.075 7.02 161.68 13.66
12/23/2022 7:45:00 AM 0.23 32.414 0.074 7 156.05 13.65
12/23/2022 8:00:00 AM 0.25 32.45 0.074 6.98 157.92 13.64
12/23/2022 8:15:00 AM 0.25 32.45 0.075 6.98 149.06 13.63
12/23/2022 8:30:00 AM 0.26 32.468 0.076 6.97 144.39 13.62
12/23/2022 8:45:00 AM 0.28 32.504 0.075 6.97 131.48 13.61
12/23/2022 9:00:00 AM 0.32 32.576 0.075 6.97 121.53 13.59
12/23/2022 9:15:00 AM 0.34 32.612 0.074 6.96 119.48 13.58
12/23/2022 9:30:00 AM 0.37 32.666 0.073 6.97 113.85 13.57
12/23/2022 9:45:00 AM 0.4 32.72 0.073 6.96 109.31 13.55
12/23/2022 10:00:00 AM 0.43 32.774 0.073 6.95 106.28 13.54
12/23/2022 10:15:00 AM 0.45 32.81 0.073 6.96 106.42 13.52
12/23/2022 10:30:00 AM 0.49 32.882 0.073 6.96 104.04 13.51
12/23/2022 10:45:00 AM 0.53 32.954 0.073 6.95 96.91 13.49
12/23/2022 11:00:00 AM 0.55 32.99 0.073 6.95 94.38 13.48
12/23/2022 11:15:00 AM 0.58 33.044 0.073 6.95 90.12 13.47
12/23/2022 11:30:00 AM 0.6 33.08 0.073 6.95 87.29 13.46
12/23/2022 11:45:00 AM 0.63 33.134 0.073 6.95 84.32 13.45
12/23/2022 12:00:00 PM 0.66 33.188 0.073 6.94 92.58 13.44
12/23/2022 12:15:00 PM 0.68 33.224 0.073 6.94 80.14 13.43
12/23/2022 12:30:00 PM 0.7 33.26 0.073 6.93 76.61 13.43
12/23/2022 12:45:00 PM 0.71 33.278 0.072 6.94 75.68 13.42
12/23/2022 1:00:00 PM 0.72 33.296 0.072 6.94 75.1 13.42
12/23/2022 1:15:00 PM 0.72 33.296 0.072 6.94 74.85 13.42
12/23/2022 1:30:00 PM 0.73 33.314 0.072 6.94 73.95 13.43
12/23/2022 1:45:00 PM 0.73 33.314 0.071 6.95 74.36 13.43
12/23/2022 2:00:00 PM 0.74 33.332 0.071 6.95 75.93 13.43
12/23/2022 2:15:00 PM 0.74 33.332 0.071 6.95 76.64 13.45
12/23/2022 2:30:00 PM 0.68 33.224 0.071 6.95 78.18 13.45
12/23/2022 2:45:00 PM 0.69 33.242 0.07 6.95 76.74 13.46
12/23/2022 3:00:00 PM 0.69 33.242 0.07 6.96 75.83 13.47
12/23/2022 3:15:00 PM 0.67 33.206 0.07 6.96 75.87 13.49
12/23/2022 3:30:00 PM 0.64 33.152 0.07 6.96 76.44 13.5
12/23/2022 3:45:00 PM 0.61 33.098 0.07 6.95 75.28 13.51
12/23/2022 4:00:00 PM 0.58 33.044 0.069 6.95 72.67 13.53
12/23/2022 4:15:00 PM 0.55 32.99 0.069 6.96 69.15 13.54
12/23/2022 4:30:00 PM 0.51 32.918 0.07 6.96 66.19 13.56
12/23/2022 4:45:00 PM 0.47 32.846 0.07 6.96 63.59 13.57
12/23/2022 5:00:00 PM 0.43 32.774 0.07 6.95 60.59 13.59
12/23/2022 5:15:00 PM 0.37 32.666 0.07 6.96 59 13.61
12/23/2022 5:30:00 PM 0.32 32.576 0.07 6.96 54.59 13.63
12/23/2022 5:45:00 PM 0.27 32.486 0.07 6.97 55.25 13.65
12/23/2022 6:00:00 PM 0.21 32.378 0.07 6.97 52.27 13.68
12/23/2022 6:15:00 PM 0.17 32.306 0.07 6.97 46.11 13.7
12/23/2022 6:30:00 PM 0.12 32.216 0.07 6.96 47.57 13.72
12/23/2022 6:45:00 PM 0.06 32.108 0.071 6.97 47.98 13.74
12/23/2022 7:00:00 PM 0.02 32.036 0.071 6.97 46.89 13.76
12/23/2022 7:15:00 PM -0.02 31.964 0.071 6.99 45.3 13.78
12/23/2022 7:30:00 PM -0.07 31.874 0.071 6.98 43.81 13.81
12/23/2022 7:45:00 PM -0.06 31.892 0.071 6.98 42.76 13.83
12/23/2022 8:00:00 PM -0.06 31.892 0.066 7.01 46.89 13.85
12/23/2022 8:15:00 PM -0.06 31.892 0.065 7.02 99.1 13.87
12/23/2022 8:30:00 PM -0.06 31.892 0.065 7.02 106.98 13.89
12/23/2022 8:45:00 PM -0.06 31.892 0.065 7.02 132.4 13.91
12/23/2022 9:00:00 PM -0.06 31.892 0.066 7.02 118.73 13.93
12/23/2022 9:15:00 PM -0.06 31.892 0.066 7.03 111.3 13.95
12/23/2022 9:30:00 PM -0.06 31.892 0.066 7.03 117.27 13.95
12/23/2022 9:45:00 PM -0.06 31.892 0.066 7.04 117.17 13.96
12/23/2022 10:00:00 PM -0.06 31.892 0.066 7.04 118.92 13.95
12/23/2022 10:15:00 PM -0.06 31.892 0.064 7.04 120.69 13.96
12/23/2022 10:30:00 PM -0.06 31.892 0.064 7.05 126.94 13.96
12/23/2022 10:45:00 PM -0.06 31.892 0.065 7.05 131.27 13.97
12/23/2022 11:00:00 PM -0.06 31.892 0.065 7.05 138.51 13.97
12/23/2022 11:15:00 PM -0.06 31.892 0.065 7.05 142.93 13.99
12/23/2022 11:30:00 PM -0.06 31.892 0.066 7.04 149.95 14
12/23/2022 11:45:00 PM -0.06 31.892 0.066 7.05 153.29 13.99
12/24/2022 12:00:00 AM -0.06 31.892 0.066 7.05 155.92 14
12/24/2022 12:15:00 AM -0.06 31.892 0.066 7.06 160.63 14
12/24/2022 12:30:00 AM -0.06 31.892 0.067 7.05 164.71 14.01
12/24/2022 12:45:00 AM -0.06 31.892 0.067 7.05 170.37 14.02
12/24/2022 1:00:00 AM -0.06 31.892 0.068 7.06 176.03 14.02
12/24/2022 1:15:00 AM -0.06 31.892 0.068 7.06 176.95 14.02
12/24/2022 1:30:00 AM -0.06 31.892 0.068 7.06 180.55 14.02
12/24/2022 1:45:00 AM -0.06 31.892 0.069 7.07 182.53 14.03
12/24/2022 2:00:00 AM -0.06 31.892 0.069 7.07 188.06 14.04
12/24/2022 2:15:00 AM -0.06 31.892 0.069 7.08 190.63 14.04
12/24/2022 2:30:00 AM -0.06 31.892 0.069 7.08 190.7 14.04
12/24/2022 2:45:00 AM -0.06 31.892 0.07 7.08 190.35 14.04
12/24/2022 3:00:00 AM -0.06 31.892 0.07 7.09 188.08 14.06
12/24/2022 3:15:00 AM -0.06 31.892 0.07 7.09 188.92 14.07
12/24/2022 3:30:00 AM -0.06 31.892 0.07 7.09 189.91 14.09
12/24/2022 3:45:00 AM -0.06 31.892 0.071 7.09 192.22 14.09
12/24/2022 4:00:00 AM -0.06 31.892 0.071 7.1 193.86 14.09
12/24/2022 4:15:00 AM -0.06 31.892 0.072 7.1 194.38 14.12
12/24/2022 4:30:00 AM -0.06 31.892 0.072 7.1 196.5 14.11
12/24/2022 4:45:00 AM -0.06 31.892 0.072 7.1 197.95 14.11
12/24/2022 5:00:00 AM -0.06 31.892 0.072 7.1 197.85 14.12
12/24/2022 5:15:00 AM -0.06 31.892 0.073 7.1 198.73 14.11
12/24/2022 5:30:00 AM -0.06 31.892 0.073 7.1 199.59 14.1
12/24/2022 5:45:00 AM -0.06 31.892 0.073 7.1 199.21 14.12
12/24/2022 6:00:00 AM -0.06 31.892 0.073 7.1 200.01 14.13
12/24/2022 6:15:00 AM -0.06 31.892 0.073 7.11 201.16 14.12
12/24/2022 6:30:00 AM -0.06 31.892 0.073 7.11 203.53 14.11
12/24/2022 6:45:00 AM -0.06 31.892 0.073 7.11 205.14 14.11
12/24/2022 7:00:00 AM -0.06 31.892 0.074 7.11 206.82 14.11
12/24/2022 7:15:00 AM -0.06 31.892 0.074 7.11 208.33 14.12
12/24/2022 7:30:00 AM -0.06 31.892 0.074 7.11 192.82 14.14
12/24/2022 7:45:00 AM -0.06 31.892 0.074 7.12 192.83 14.13
12/24/2022 8:00:00 AM -0.06 31.892 0.074 7.12 197.06 14.12
12/24/2022 8:15:00 AM -0.06 31.892 0.074 7.12 197.68 14.12
12/24/2022 8:30:00 AM -0.06 31.892 0.074 7.12 197.88 14.12
12/24/2022 8:45:00 AM -0.06 31.892 0.075 7.12 197.93 14.11
12/24/2022 9:00:00 AM -0.06 31.892 0.075 7.13 196.15 14.11
12/24/2022 9:15:00 AM -0.06 31.892 0.075 7.13 195.14 14.11
12/24/2022 9:30:00 AM -0.06 31.892 0.075 7.14 196.94 14.12
12/24/2022 9:45:00 AM -0.06 31.892 0.075 7.14 196.92 14.13
12/24/2022 10:00:00 AM -0.06 31.892 0.075 7.14 197.76 14.12
12/24/2022 10:15:00 AM -0.06 31.892 0.075 7.14 201.11 14.13
12/24/2022 10:30:00 AM -0.06 31.892 0.075 7.14 200.97 14.14
12/24/2022 10:45:00 AM -0.06 31.892 0.075 7.14 203.27 14.14
12/24/2022 11:00:00 AM -0.06 31.892 0.076 7.14 203.86 14.15
12/24/2022 11:15:00 AM -0.06 31.892 0.076 7.15 202.72 14.15
12/24/2022 11:30:00 AM -0.06 31.892 0.076 7.15 200.45 14.16
12/24/2022 11:45:00 AM -0.06 31.892 0.076 7.15 199.7 14.16
12/24/2022 12:00:00 PM -0.06 31.892 0.076 7.16 199.52 14.15
12/24/2022 12:15:00 PM -0.06 31.892 0.076 7.15 194.04 14.16
12/24/2022 12:30:00 PM -0.06 31.892 0.076 7.15 191.34 14.16
12/24/2022 12:45:00 PM -0.06 31.892 0.076 7.16 190.29 14.15
12/24/2022 1:00:00 PM -0.06 31.892 0.076 7.16 194.72 14.16
12/24/2022 1:15:00 PM -0.06 31.892 0.076 7.16 191.12 14.15
12/24/2022 1:30:00 PM -0.06 31.892 0.076 7.16 189.53 14.15
12/24/2022 1:45:00 PM -0.06 31.892 0.076 7.16 174.6 14.17
12/24/2022 2:00:00 PM -0.06 31.892 0.076 7.16 180.62 14.18
12/24/2022 2:15:00 PM -0.06 31.892 0.077 7.16 175.01 14.17
12/24/2022 2:30:00 PM -0.06 31.892 0.077 7.16 174.48 14.17
12/24/2022 2:45:00 PM -0.06 31.892 0.077 7.16 169.61 14.17
12/24/2022 3:00:00 PM -0.06 31.892 0.077 7.16 168.78 14.17
12/24/2022 3:15:00 PM -0.06 31.892 0.077 7.16 168.21 14.18
12/24/2022 3:30:00 PM -0.06 31.892 0.077 7.16 164.58 14.2
12/24/2022 3:45:00 PM -0.06 31.892 0.078 7.15 162.34 14.2
12/24/2022 4:00:00 PM -0.06 31.892 0.078 7.16 156.19 14.18
12/24/2022 4:15:00 PM -0.06 31.892 0.078 7.16 145.49 14.18
12/24/2022 4:30:00 PM -0.06 31.892 0.078 7.16 136.47 14.17
12/24/2022 4:45:00 PM -0.06 31.892 0.078 7.16 136.14 14.16
12/24/2022 5:00:00 PM -0.06 31.892 0.078 7.15 133.6 14.15
12/24/2022 5:15:00 PM -0.06 31.892 0.078 7.15 134.82 14.14
12/24/2022 5:30:00 PM -0.06 31.892 0.078 7.15 130.64 14.14
12/24/2022 5:45:00 PM -0.06 31.892 0.079 7.16 128.3 14.15
12/24/2022 6:00:00 PM -0.06 31.892 0.079 7.16 125.4 14.16
12/24/2022 6:15:00 PM -0.06 31.892 0.079 7.16 116.09 14.04
12/24/2022 6:30:00 PM -0.06 31.892 0.079 7.16 110.79 14.13
12/24/2022 6:45:00 PM -0.06 31.892 0.079 7.16 103.2 14.16
12/24/2022 7:00:00 PM -0.06 31.892 0.079 7.16 99.83 14.16
12/24/2022 7:15:00 PM -0.06 31.892 0.079 7.16 96.13 14.16
12/24/2022 7:30:00 PM -0.06 31.892 0.08 7.16 92.42 14.17
12/24/2022 7:45:00 PM -0.06 31.892 0.08 7.17 90.53 14.16
12/24/2022 8:00:00 PM -0.06 31.892 0.08 7.17 84.22 14.17
12/24/2022 8:15:00 PM -0.06 31.892 0.08 7.17 76.74 14.18
12/24/2022 8:30:00 PM -0.06 31.892 0.08 7.17 73.67 14.18
12/24/2022 8:45:00 PM -0.06 31.892 0.081 7.17 71.79 14.17
12/24/2022 9:00:00 PM -0.06 31.892 0.081 7.17 55.27 14.18
12/24/2022 9:15:00 PM -0.06 31.892 0.081 7.17 51.61 14.19
12/24/2022 9:30:00 PM -0.06 31.892 0.081 7.17 50.56 14.19
12/24/2022 9:45:00 PM -0.06 31.892 0.081 7.17 46.11 14.19
12/24/2022 10:00:00 PM -0.06 31.892 0.081 7.18 40.35 14.19
12/24/2022 10:15:00 PM -0.06 31.892 0.081 7.17 39.58 14.2
12/24/2022 10:30:00 PM -0.06 31.892 0.081 7.18 33.68 14.19
12/24/2022 10:45:00 PM -0.06 31.892 0.082 7.18 32.55 14.19
12/24/2022 11:00:00 PM -0.06 31.892 0.082 7.18 32.08 14.18
12/24/2022 11:15:00 PM -0.06 31.892 0.082 7.18 30.89 14.18
12/24/2022 11:30:00 PM -0.06 31.892 0.082 7.18 22.71 14.18
12/24/2022 11:45:00 PM -0.06 31.892 0.082 7.18 22.23 14.2
12/25/2022 12:00:00 AM -0.06 31.892 0.082 7.18 22.44 14.18
12/25/2022 12:15:00 AM -0.06 31.892 0.081 7.18 23.48 14.18
12/25/2022 12:30:00 AM -0.06 31.892 0.081 7.18 20.42 14.18
12/25/2022 12:45:00 AM -0.06 31.892 0.081 7.18 16.53 14.19
12/25/2022 1:00:00 AM -0.06 31.892 0.081 7.19 18.45 14.17
12/25/2022 1:15:00 AM -0.06 31.892 0.081 7.18 17.45 14.17
12/25/2022 1:30:00 AM -0.06 31.892 0.081 7.19 17.96 14.17
12/25/2022 1:45:00 AM -0.06 31.892 0.081 7.18 19.45 14.18
12/25/2022 2:00:00 AM -0.06 31.892 0.08 7.18 20.33 14.19
12/25/2022 2:15:00 AM -0.06 31.892 0.08 7.18 17.5 14.19
12/25/2022 2:30:00 AM -0.06 31.892 0.08 7.18 20.57 14.18
12/25/2022 2:45:00 AM -0.06 31.892 0.078 7.18 17.36 14.2
12/25/2022 3:00:00 AM -0.06 31.892 0.077 7.17 15.42 14.19
12/25/2022 3:15:00 AM -0.06 31.892 0.076 7.17 12.35 14.18
12/25/2022 3:30:00 AM -0.06 31.892 0.076 7.18 12.48 14.18
12/25/2022 3:45:00 AM -0.06 31.892 0.077 7.18 12.86 14.17
12/25/2022 4:00:00 AM -0.06 31.892 0.078 7.18 13.34 14.17
12/25/2022 4:15:00 AM -0.06 31.892 0.079 7.18 13.18 14.18
12/25/2022 4:30:00 AM -0.06 31.892 0.081 7.18 15.12 14.18
12/25/2022 4:45:00 AM -0.06 31.892 0.082 7.19 12.5 14.16
12/25/2022 5:00:00 AM -0.06 31.892 0.084 7.18 11.65 14.16
12/25/2022 5:15:00 AM -0.06 31.892 0.084 7.18 12.86 14.15
12/25/2022 5:30:00 AM -0.06 31.892 0.084 7.19 12.03 14.14
12/25/2022 5:45:00 AM -0.06 31.892 0.083 7.19 11.33 14.15
12/25/2022 6:00:00 AM -0.06 31.892 0.083 7.19 11.49 14.15
12/25/2022 6:15:00 AM -0.06 31.892 0.083 7.19 12.68 14.15
12/25/2022 6:30:00 AM -0.06 31.892 0.083 7.19 12.54 14.16
12/25/2022 6:45:00 AM -0.06 31.892 0.084 7.19 12.04 14.15
12/25/2022 7:00:00 AM -0.06 31.892 0.084 7.19 11.42 14.16
12/25/2022 7:15:00 AM -0.06 31.892 0.084 7.19 11.9 14.15
12/25/2022 7:30:00 AM -0.06 31.892 0.081 7.19 12.22 14.15
12/25/2022 7:45:00 AM -0.06 31.892 0.08 7.19 11.97 14.16
12/25/2022 8:00:00 AM -0.06 31.892 0.081 7.19 11.61 14.17
12/25/2022 8:15:00 AM -0.06 31.892 0.081 7.19 11.17 14.18
12/25/2022 8:30:00 AM -0.06 31.892 0.081 7.19 11.19 14.19
12/25/2022 8:45:00 AM -0.06 31.892 0.083 7.19 11.37 14.22
12/25/2022 9:00:00 AM -0.06 31.892 0.084 7.2 11 14.22
12/25/2022 9:15:00 AM -0.06 31.892 0.085 7.2 11.13 14.22
12/25/2022 9:30:00 AM -0.06 31.892 0.085 7.2 11.69 14.22
12/25/2022 9:45:00 AM -0.06 31.892 0.086 7.2 11.09 14.21
12/25/2022 10:00:00 AM -0.06 31.892 0.086 7.2 10.94 14.23
12/25/2022 10:15:00 AM -0.06 31.892 0.087 7.21 11.3 14.22
12/25/2022 10:30:00 AM -0.06 31.892 0.087 7.21 11.9 14.22
12/25/2022 10:45:00 AM -0.05 31.91 0.087 7.21 11.44 14.23
12/25/2022 11:00:00 AM -0.06 31.892 0.088 7.21 12.32 14.23
12/25/2022 11:15:00 AM -0.05 31.91 0.088 7.21 10.77 14.24
12/25/2022 11:30:00 AM -0.05 31.91 0.089 7.21 11.64 14.24
12/25/2022 11:45:00 AM -0.04 31.928 0.089 7.21 11.06 14.25
12/25/2022 12:00:00 PM -0.05 31.91 0.09 7.22 10.66 14.25
12/25/2022 12:15:00 PM -0.05 31.91 0.089 7.22 11.38 14.26
12/25/2022 12:30:00 PM -0.06 31.892 0.09 7.22 10.27 14.24
12/25/2022 12:45:00 PM -0.05 31.91 0.09 7.22 10.65 14.23
12/25/2022 1:00:00 PM -0.05 31.91 0.09 7.22 10.41 14.21
12/25/2022 1:15:00 PM -0.05 31.91 0.09 7.22 10.97 14.22
12/25/2022 1:30:00 PM -0.05 31.91 0.09 7.22 10.59 14.22
12/25/2022 1:45:00 PM -0.05 31.91 0.09 7.22 10.61 14.22
12/25/2022 2:00:00 PM -0.05 31.91 0.089 7.22 11.03 14.21
12/25/2022 2:15:00 PM -0.06 31.892 0.089 7.22 10.66 14.2
12/25/2022 2:30:00 PM -0.06 31.892 0.09 7.22 10.38 14.2
12/25/2022 2:45:00 PM -0.06 31.892 0.089 7.22 22.97 14.21
12/25/2022 3:00:00 PM -0.06 31.892 0.09 7.22 12.6 14.19
12/25/2022 3:15:00 PM -0.06 31.892 0.09 7.22 14.48 14.2
12/25/2022 3:30:00 PM -0.06 31.892 0.09 7.22 143.21 14.18
12/25/2022 3:45:00 PM -0.06 31.892 0.09 7.22 10.49 14.17
12/25/2022 4:00:00 PM -0.06 31.892 0.09 7.22 9.53 14.16
12/25/2022 4:15:00 PM -0.06 31.892 0.091 7.21 9.77 14.15
12/25/2022 4:30:00 PM -0.06 31.892 0.091 7.21 10.36 14.14
12/25/2022 4:45:00 PM -0.06 31.892 0.091 7.21 10.53 14.14
12/25/2022 5:00:00 PM -0.05 31.91 0.091 7.21 10.27 14.15
12/25/2022 5:15:00 PM -0.06 31.892 0.091 7.21 10.43 14.15
12/25/2022 5:30:00 PM -0.06 31.892 0.091 7.21 10.99 14.14
12/25/2022 5:45:00 PM -0.05 31.91 0.091 7.21 10.52 14.14
12/25/2022 6:00:00 PM -0.05 31.91 0.091 7.2 10.21 14.14
12/25/2022 6:15:00 PM -0.06 31.892 0.091 7.2 9.45 14.15
12/25/2022 6:30:00 PM -0.06 31.892 0.091 7.2 10.23 14.17
12/25/2022 6:45:00 PM -0.06 31.892 0.091 7.21 10.3 14.16
12/25/2022 7:00:00 PM -0.06 31.892 0.092 7.2 10.32 14.16
12/25/2022 7:15:00 PM -0.05 31.91 0.092 7.21 11.08 14.16
12/25/2022 7:30:00 PM -0.05 31.91 0.092 7.21 10.87 14.19
12/25/2022 7:45:00 PM -0.05 31.91 0.092 7.21 11.32 14.19
12/25/2022 8:00:00 PM -0.05 31.91 0.092 7.21 10.3 14.18
12/25/2022 8:15:00 PM -0.05 31.91 0.092 7.21 11.22 14.19
12/25/2022 8:30:00 PM -0.05 31.91 0.092 7.21 10.21 14.2
12/25/2022 8:45:00 PM -0.05 31.91 0.087 7.21 10.71 14.19
12/25/2022 9:00:00 PM -0.05 31.91 0.092 7.21 10.87 14.19
12/25/2022 9:15:00 PM -0.05 31.91 0.092 7.21 10.8 14.19
12/25/2022 9:30:00 PM -0.05 31.91 0.092 7.21 11.01 14.2
12/25/2022 9:45:00 PM -0.05 31.91 0.092 7.21 10.48 14.2
12/25/2022 10:00:00 PM -0.05 31.91 0.092 7.22 10.91 14.2
12/25/2022 10:15:00 PM -0.05 31.91 0.092 7.21 10.66 14.2
12/25/2022 10:30:00 PM -0.05 31.91 0.092 7.22 10.7 14.21
12/25/2022 10:45:00 PM -0.05 31.91 0.093 7.22 10.75 14.22
12/25/2022 11:00:00 PM -0.05 31.91 0.092 7.22 10.29 14.21
12/25/2022 11:15:00 PM -0.05 31.91 0.093 7.22 10.95 14.22
12/25/2022 11:30:00 PM -0.05 31.91 0.093 7.22 10.99 14.23
12/25/2022 11:45:00 PM -0.05 31.91 0.093 7.23 10.87 14.23
12/26/2022 12:00:00 AM -0.05 31.91 0.093 7.23 10.27 14.22
12/26/2022 12:15:00 AM -0.05 31.91 0.093 7.23 11 14.23
12/26/2022 12:30:00 AM -0.04 31.928 0.093 7.23 10.33 14.24
12/26/2022 12:45:00 AM -0.04 31.928 0.093 7.23 10.41 14.23
12/26/2022 1:00:00 AM -0.05 31.91 0.093 7.23 11.37 14.23
12/26/2022 1:15:00 AM -0.04 31.928 0.093 7.23 10.45 14.23
12/26/2022 1:30:00 AM -0.04 31.928 0.093 7.23 10.84 14.24
12/26/2022 1:45:00 AM -0.04 31.928 0.093 7.22 10.41 14.24
12/26/2022 2:00:00 AM -0.04 31.928 0.093 7.22 10.51 14.23
12/26/2022 2:15:00 AM -0.04 31.928 0.094 7.22 10.48 14.24
12/26/2022 2:30:00 AM -0.04 31.928 0.094 7.23 10.41 14.24
12/26/2022 2:45:00 AM -0.04 31.928 0.094 7.23 10.61 14.24
12/26/2022 3:00:00 AM -0.04 31.928 0.094 7.22 10.71 14.24
12/26/2022 3:15:00 AM -0.04 31.928 0.094 7.22 10.49 14.24
12/26/2022 3:30:00 AM -0.04 31.928 0.094 7.23 10.73 14.25
12/26/2022 3:45:00 AM -0.04 31.928 0.094 7.23 10.51 14.25
12/26/2022 4:00:00 AM -0.04 31.928 0.094 7.23 11.13 14.24
12/26/2022 4:15:00 AM -0.04 31.928 0.094 7.23 10.33 14.24
12/26/2022 4:30:00 AM -0.04 31.928 0.094 7.23 11.11 14.25
12/26/2022 4:45:00 AM -0.04 31.928 0.094 7.23 10.41 14.25
12/26/2022 5:00:00 AM -0.04 31.928 0.094 7.23 9.79 14.24
12/26/2022 5:15:00 AM -0.04 31.928 0.094 7.23 11.32 14.25
12/26/2022 5:30:00 AM -0.04 31.928 0.094 7.23 10.08 14.25
12/26/2022 5:45:00 AM -0.04 31.928 0.094 7.23 11.33 14.24
12/26/2022 6:00:00 AM -0.04 31.928 0.094 7.23 10.72 14.24
12/26/2022 6:15:00 AM -0.04 31.928 0.094 7.23 10.02 14.25
12/26/2022 6:30:00 AM -0.04 31.928 0.094 7.23 10.61 14.24
12/26/2022 6:45:00 AM -0.03 31.946 0.094 7.23 11.68 14.25
12/26/2022 7:00:00 AM -0.03 31.946 0.094 7.23 11.16 14.24
12/26/2022 7:15:00 AM -0.03 31.946 0.094 7.22 11.02 14.25
12/26/2022 7:30:00 AM -0.03 31.946 0.094 7.23 10.91 14.24
12/26/2022 7:45:00 AM -0.03 31.946 0.094 7.23 11.28 14.25
12/26/2022 8:00:00 AM -0.04 31.928 0.094 7.23 10.82 14.25
12/26/2022 8:15:00 AM -0.03 31.946 0.094 7.23 11.44 14.26
12/26/2022 8:30:00 AM -0.03 31.946 0.094 7.23 11.38 14.27
12/26/2022 8:45:00 AM -0.03 31.946 0.094 7.23 11.73 14.28
12/26/2022 9:00:00 AM -0.03 31.946 0.094 7.23 11.4 14.3
12/26/2022 9:15:00 AM -0.03 31.946 0.094 7.23 11.16 14.31
12/26/2022 9:30:00 AM -0.03 31.946 0.094 7.24 10.97 14.32
12/26/2022 9:45:00 AM -0.03 31.946 0.094 7.23 11.19 14.33
12/26/2022 10:00:00 AM -0.03 31.946 0.094 7.23 11.43 14.34
12/26/2022 10:15:00 AM -0.03 31.946 0.094 7.23 11.79 14.34
12/26/2022 10:30:00 AM -0.03 31.946 0.094 7.24 11.8 14.34
12/26/2022 10:45:00 AM -0.03 31.946 0.094 7.24 11.65 14.34
12/26/2022 11:00:00 AM -0.03 31.946 0.094 7.24 11.99 14.34
12/26/2022 11:15:00 AM -0.03 31.946 0.094 7.24 12.29 14.35
12/26/2022 11:30:00 AM -0.03 31.946 0.094 7.25 12.33 14.35
12/26/2022 11:45:00 AM -0.03 31.946 0.094 7.24 11.12 14.34
12/26/2022 12:00:00 PM -0.03 31.946 0.094 7.25 12.2 14.34
12/26/2022 12:15:00 PM -0.03 31.946 0.094 7.24 12.39 14.33
12/26/2022 12:30:00 PM -0.02 31.964 0.094 7.25 11.83 14.34
12/26/2022 12:45:00 PM -0.03 31.946 0.094 7.25 11.89 14.33
12/26/2022 1:00:00 PM -0.03 31.946 0.095 7.24 11.32 14.33
12/26/2022 1:15:00 PM -0.03 31.946 0.095 7.25 12.47 14.32
12/26/2022 1:30:00 PM -0.03 31.946 0.095 7.24 13.17 14.31
12/26/2022 1:45:00 PM -0.03 31.946 0.095 7.25 12.24 14.3
12/26/2022 2:00:00 PM -0.03 31.946 0.095 7.24 12.24 14.3
12/26/2022 2:15:00 PM -0.03 31.946 0.095 7.24 11.5 14.3
12/26/2022 2:30:00 PM -0.03 31.946 0.095 7.24 12.03 14.29
12/26/2022 2:45:00 PM -0.03 31.946 0.095 7.24 12.36 14.29
12/26/2022 3:00:00 PM -0.03 31.946 0.095 7.24 11.58 14.28
12/26/2022 3:15:00 PM -0.03 31.946 0.095 7.24 11.81 14.28
12/26/2022 3:30:00 PM -0.03 31.946 0.095 7.24 11.25 14.27
12/26/2022 3:45:00 PM -0.03 31.946 0.095 7.24 10.82 14.27
12/26/2022 4:00:00 PM -0.03 31.946 0.095 7.24 10.88 14.26
12/26/2022 4:15:00 PM -0.03 31.946 0.095 7.24 11.65 14.26
12/26/2022 4:30:00 PM -0.03 31.946 0.095 7.23 11.22 14.25
12/26/2022 4:45:00 PM -0.03 31.946 0.095 7.23 10.9 14.23
12/26/2022 5:00:00 PM -0.03 31.946 0.095 7.23 11.18 14.23
12/26/2022 5:15:00 PM -0.03 31.946 0.095 7.23 10.34 14.23
12/26/2022 5:30:00 PM -0.03 31.946 0.095 7.23 11.9 14.22
12/26/2022 5:45:00 PM -0.03 31.946 0.095 7.22 11.4 14.21
12/26/2022 6:00:00 PM -0.03 31.946 0.095 7.22 10.52 14.21
12/26/2022 6:15:00 PM -0.03 31.946 0.095 7.23 10.7 14.21
12/26/2022 6:30:00 PM -0.03 31.946 0.095 7.22 10.95 14.21
12/26/2022 6:45:00 PM -0.03 31.946 0.095 7.22 11.06 14.21
12/26/2022 7:00:00 PM -0.03 31.946 0.096 7.22 10.84 14.21
12/26/2022 7:15:00 PM -0.03 31.946 0.096 7.22 10.56 14.21
12/26/2022 7:30:00 PM -0.02 31.964 0.096 7.22 9.88 14.21
12/26/2022 7:45:00 PM -0.02 31.964 0.096 7.22 10.54 14.22
12/26/2022 8:00:00 PM -0.02 31.964 0.096 7.22 10.59 14.22
12/26/2022 8:15:00 PM -0.02 31.964 0.096 7.22 10.79 14.22
12/26/2022 8:30:00 PM -0.02 31.964 0.096 7.23 10.59 14.22
12/26/2022 8:45:00 PM -0.02 31.964 0.096 7.22 10.18 14.23
12/26/2022 9:00:00 PM -0.02 31.964 0.096 7.23 10.95 14.23
12/26/2022 9:15:00 PM -0.03 31.946 0.096 7.23 10.8 14.23
12/26/2022 9:30:00 PM -0.02 31.964 0.096 7.23 10.98 14.23
12/26/2022 9:45:00 PM -0.02 31.964 0.096 7.23 11.81 14.23
12/26/2022 10:00:00 PM -0.02 31.964 0.096 7.23 10.55 14.23
12/26/2022 10:15:00 PM -0.02 31.964 0.096 7.23 10.24 14.24
12/26/2022 10:30:00 PM -0.02 31.964 0.096 7.23 10.76 14.24
12/26/2022 10:45:00 PM -0.02 31.964 0.097 7.23 11.07 14.24
12/26/2022 11:00:00 PM -0.02 31.964 0.097 7.23 11.41 14.24
12/26/2022 11:15:00 PM -0.02 31.964 0.097 7.23 10.16 14.25
12/26/2022 11:30:00 PM -0.02 31.964 0.097 7.23 10.74 14.24
12/26/2022 11:45:00 PM -0.02 31.964 0.097 7.23 10.17 14.25
12/27/2022 12:00:00 AM -0.02 31.964 0.097 7.23 10.53 14.24
12/27/2022 12:15:00 AM -0.02 31.964 0.097 7.23 10.51 14.25
12/27/2022 12:30:00 AM -0.02 31.964 0.097 7.23 10.61 14.24
12/27/2022 12:45:00 AM -0.02 31.964 0.097 7.23 10.33 14.24
12/27/2022 1:00:00 AM -0.02 31.964 0.097 7.23 10.89 14.24
12/27/2022 1:15:00 AM -0.02 31.964 0.097 7.23 10.52 14.23
12/27/2022 1:30:00 AM -0.02 31.964 0.097 7.23 10.1 14.23
12/27/2022 1:45:00 AM -0.02 31.964 0.097 7.24 9.66 14.23
12/27/2022 2:00:00 AM -0.02 31.964 0.097 7.24 9.23 14.23
12/27/2022 2:15:00 AM -0.02 31.964 0.097 7.23 10.25 14.23
12/27/2022 2:30:00 AM -0.02 31.964 0.097 7.24 9.86 14.23
12/27/2022 2:45:00 AM -0.02 31.964 0.097 7.24 10.04 14.23
12/27/2022 3:00:00 AM -0.02 31.964 0.097 7.23 9.67 14.23
12/27/2022 3:15:00 AM -0.02 31.964 0.097 7.23 9.81 14.23
12/27/2022 3:30:00 AM -0.02 31.964 0.098 7.24 9.69 14.23
12/27/2022 3:45:00 AM -0.02 31.964 0.098 7.24 10.19 14.22
12/27/2022 4:00:00 AM -0.02 31.964 0.098 7.23 9.66 14.23
12/27/2022 4:15:00 AM -0.02 31.964 0.098 7.23 10.62 14.22
12/27/2022 4:30:00 AM -0.02 31.964 0.098 7.23 9.46 14.22
12/27/2022 4:45:00 AM -0.02 31.964 0.098 7.24 8.82 14.22
12/27/2022 5:00:00 AM -0.02 31.964 0.098 7.24 10.08 14.22
12/27/2022 5:15:00 AM -0.02 31.964 0.098 7.23 10.63 14.23
12/27/2022 5:30:00 AM -0.02 31.964 0.098 7.23 10.23 14.23
12/27/2022 5:45:00 AM -0.02 31.964 0.098 7.24 9.52 14.23
12/27/2022 6:00:00 AM -0.02 31.964 0.098 7.23 10.15 14.23
12/27/2022 6:15:00 AM -0.02 31.964 0.098 7.24 9.86 14.22
12/27/2022 6:30:00 AM -0.02 31.964 0.098 7.23 10.42 14.22
12/27/2022 6:45:00 AM -0.02 31.964 0.098 7.23 10.04 14.23
12/27/2022 7:00:00 AM -0.02 31.964 0.098 7.23 9.55 14.22
12/27/2022 7:15:00 AM -0.02 31.964 0.098 7.23 10.01 14.22
12/27/2022 7:30:00 AM -0.02 31.964 0.098 7.23 10.11 14.22
12/27/2022 7:45:00 AM -0.02 31.964 0.098 7.23 9.63 14.22
12/27/2022 8:00:00 AM -0.02 31.964 0.098 7.23 10.77 14.23
12/27/2022 8:15:00 AM -0.01 31.982 0.098 7.23 10.4 14.23
12/27/2022 8:30:00 AM -0.01 31.982 0.098 7.23 10.86 14.23
12/27/2022 8:45:00 AM -0.01 31.982 0.098 7.23 9.98 14.24
12/27/2022 9:00:00 AM -0.01 31.982 0.098 7.23 10.35 14.25
12/27/2022 9:15:00 AM -0.01 31.982 0.098 7.24 10.38 14.25
12/27/2022 9:30:00 AM -0.01 31.982 0.098 7.23 10.2 14.26
12/27/2022 9:45:00 AM -0.01 31.982 0.098 7.24 9.5 14.27
12/27/2022 10:00:00 AM -0.01 31.982 0.098 7.24 10.42 14.28
12/27/2022 10:15:00 AM -0.01 31.982 0.098 7.24 10.43 14.29
12/27/2022 10:30:00 AM -0.01 31.982 0.098 7.24 10.03 14.3
12/27/2022 10:45:00 AM -0.01 31.982 0.098 7.24 9.97 14.3
12/27/2022 11:00:00 AM -0.01 31.982 0.098 7.24 10.69 14.3
12/27/2022 11:15:00 AM -0.01 31.982 0.098 7.25 10.06 14.31
12/27/2022 11:30:00 AM -0.01 31.982 0.098 7.25 10.92 14.31
12/27/2022 11:45:00 AM -0.01 31.982 0.098 7.25 9.89 14.32
12/27/2022 12:00:00 PM -0.01 31.982 0.098 7.25 10.71 14.32
12/27/2022 12:15:00 PM -0.01 31.982 0.098 7.25 10.18 14.31
12/27/2022 12:30:00 PM -0.01 31.982 0.098 7.25 10.09 14.3
12/27/2022 12:45:00 PM -0.01 31.982 0.098 7.25 9.82 14.3
12/27/2022 1:00:00 PM -0.01 31.982 0.098 7.25 9.44 14.32
12/27/2022 1:15:00 PM -0.01 31.982 0.098 7.25 9.9 14.31
12/27/2022 1:30:00 PM -0.01 31.982 0.098 7.25 10.56 14.32
12/27/2022 1:45:00 PM -0.01 31.982 0.098 7.26 10.35 14.31
12/27/2022 2:00:00 PM 0 32 0.098 7.25 9.64 14.31
12/27/2022 2:15:00 PM -0.01 31.982 0.098 7.25 9.74 14.3
12/27/2022 2:30:00 PM -0.01 31.982 0.098 7.26 10.53 14.31
12/27/2022 2:45:00 PM -0.01 31.982 0.098 7.25 11.03 14.3
12/27/2022 3:00:00 PM -0.01 31.982 0.098 7.25 11.08 14.31
12/27/2022 3:15:00 PM -0.01 31.982 0.098 7.26 10.09 14.29
12/27/2022 3:30:00 PM -0.01 31.982 0.098 7.25 10.62 14.28
12/27/2022 3:45:00 PM -0.01 31.982 0.098 7.26 10.2 14.28
12/27/2022 4:00:00 PM -0.01 31.982 0.098 7.25 10.18 14.27
12/27/2022 4:15:00 PM -0.01 31.982 0.098 7.25 10.92 14.25
12/27/2022 4:30:00 PM -0.01 31.982 0.098 7.25 10.46 14.24
12/27/2022 4:45:00 PM -0.01 31.982 0.098 7.24 10.21 14.23
12/27/2022 5:00:00 PM -0.01 31.982 0.098 7.25 10.82 14.22
12/27/2022 5:15:00 PM -0.01 31.982 0.098 7.24 10.33 14.22
12/27/2022 5:30:00 PM -0.01 31.982 0.098 7.24 10.98 14.21
12/27/2022 5:45:00 PM -0.01 31.982 0.098 7.24 11.55 14.21
12/27/2022 6:00:00 PM -0.01 31.982 0.098 7.24 10.63 14.21
12/27/2022 6:15:00 PM -0.01 31.982 0.098 7.24 10.09 14.21
12/27/2022 6:30:00 PM -0.01 31.982 0.098 7.24 10.11 14.2
12/27/2022 6:45:00 PM -0.01 31.982 0.098 7.24 9.8 14.21
12/27/2022 7:00:00 PM -0.01 31.982 0.098 7.23 10.98 14.21
12/27/2022 7:15:00 PM -0.01 31.982 0.098 7.24 10.49 14.21
12/27/2022 7:30:00 PM -0.01 31.982 0.098 7.24 11.42 14.21
12/27/2022 7:45:00 PM -0.01 31.982 0.098 7.24 9.93 14.21
12/27/2022 8:00:00 PM -0.01 31.982 0.098 7.23 10.62 14.22
12/27/2022 8:15:00 PM -0.01 31.982 0.098 7.23 11.42 14.22
12/27/2022 8:30:00 PM -0.01 31.982 0.098 7.23 11.55 14.22
12/27/2022 8:45:00 PM -0.01 31.982 0.098 7.24 10.68 14.22
12/27/2022 9:00:00 PM -0.01 31.982 0.098 7.24 10.92 14.21
12/27/2022 9:15:00 PM -0.01 31.982 0.098 7.24 10.17 14.22
12/27/2022 9:30:00 PM -0.01 31.982 0.098 7.24 9.99 14.22
12/27/2022 9:45:00 PM -0.01 31.982 0.098 7.24 11.43 14.2
12/27/2022 10:00:00 PM -0.01 31.982 0.098 7.24 11.17 14.21
12/27/2022 10:15:00 PM -0.01 31.982 0.098 7.24 11.14 14.22
12/27/2022 10:30:00 PM -0.01 31.982 0.099 7.24 10.82 14.22
12/27/2022 10:45:00 PM -0.01 31.982 0.099 7.24 11.16 14.24
12/27/2022 11:00:00 PM -0.01 31.982 0.099 7.24 10.69 14.22
12/27/2022 11:15:00 PM -0.01 31.982 0.099 7.24 11.27 14.23
12/27/2022 11:30:00 PM -0.01 31.982 0.099 7.24 10.45 14.22
12/27/2022 11:45:00 PM -0.01 31.982 0.099 7.23 11.15 14.23
12/28/2022 12:00:00 AM -0.01 31.982 0.099 7.24 11.11 14.22
12/28/2022 12:15:00 AM -0.01 31.982 0.099 7.24 11.88 14.22
12/28/2022 12:30:00 AM -0.01 31.982 0.099 7.24 11.12 14.22
12/28/2022 12:45:00 AM -0.01 31.982 0.099 7.24 11.45 14.22
12/28/2022 1:00:00 AM -0.01 31.982 0.099 7.24 11.72 14.21
12/28/2022 1:15:00 AM -0.01 31.982 0.098 7.24 11.25 14.22
12/28/2022 1:30:00 AM -0.01 31.982 0.099 7.24 11.99 14.21
12/28/2022 1:45:00 AM -0.01 31.982 0.098 7.23 10.78 14.22
12/28/2022 2:00:00 AM -0.01 31.982 0.099 7.24 11.02 14.22
12/28/2022 2:15:00 AM -0.01 31.982 0.098 7.24 11.18 14.21
12/28/2022 2:30:00 AM -0.01 31.982 0.098 7.24 11.3 14.17
12/28/2022 2:45:00 AM -0.01 31.982 0.098 7.24 11.02 14.21
12/28/2022 3:00:00 AM -0.01 31.982 0.099 7.24 10.05 14.21
12/28/2022 3:15:00 AM -0.01 31.982 0.099 7.24 10.74 14.21
12/28/2022 3:30:00 AM -0.01 31.982 0.099 7.24 10.51 14.21
12/28/2022 3:45:00 AM -0.01 31.982 0.099 7.25 11.36 14.19
12/28/2022 4:00:00 AM -0.01 31.982 0.099 7.24 10.23 14.21
12/28/2022 4:15:00 AM -0.01 31.982 0.099 7.24 11.14 14.21
12/28/2022 4:30:00 AM -0.01 31.982 0.099 7.24 11.06 14.2
12/28/2022 4:45:00 AM -0.01 31.982 0.099 7.24 10.99 14.2
12/28/2022 5:00:00 AM -0.01 31.982 0.099 7.24 10.99 14.21
12/28/2022 5:15:00 AM -0.01 31.982 0.099 7.24 10.95 14.19
12/28/2022 5:30:00 AM -0.01 31.982 0.099 7.24 10.74 14.2
12/28/2022 5:45:00 AM -0.01 31.982 0.099 7.24 11.1 14.21
12/28/2022 6:00:00 AM -0.01 31.982 0.099 7.24 11.52 14.21
12/28/2022 6:15:00 AM -0.01 31.982 0.099 7.24 10.89 14.21
12/28/2022 6:30:00 AM -0.01 31.982 0.099 7.24 11.44 14.2
12/28/2022 6:45:00 AM -0.01 31.982 0.099 7.24 10.52 14.2
12/28/2022 7:00:00 AM -0.01 31.982 0.099 7.24 10.77 14.21
12/28/2022 7:15:00 AM -0.01 31.982 0.099 7.24 11.1 14.2
12/28/2022 7:30:00 AM -0.01 31.982 0.099 7.24 11.32 14.2
12/28/2022 7:45:00 AM -0.01 31.982 0.099 7.24 11.12 14.21
12/28/2022 8:00:00 AM -0.01 31.982 0.099 7.24 11.21 14.21
12/28/2022 8:15:00 AM -0.01 31.982 0.099 7.23 11.1 14.22
12/28/2022 8:30:00 AM -0.01 31.982 0.099 7.24 11.53 14.22
12/28/2022 8:45:00 AM -0.01 31.982 0.099 7.24 11.39 14.23
12/28/2022 9:00:00 AM -0.01 31.982 0.099 7.24 11.15 14.25
12/28/2022 9:15:00 AM -0.01 31.982 0.099 7.24 10.43 14.25
12/28/2022 9:30:00 AM 0 32 0.099 7.24 11.27 14.27
12/28/2022 9:45:00 AM 0 32 0.099 7.24 10.98 14.27
12/28/2022 10:00:00 AM 0 32 0.099 7.25 10.57 14.28
12/28/2022 10:15:00 AM 0 32 0.099 7.25 11.43 14.27
12/28/2022 10:30:00 AM 0.01 32.018 0.098 7.26 11.43 14.28
12/28/2022 10:45:00 AM 0.01 32.018 0.098 7.26 11.59 14.29
12/28/2022 11:00:00 AM 0.01 32.018 0.098 7.26 11.16 14.29
12/28/2022 11:15:00 AM 0.01 32.018 0.098 7.26 12.05 14.29
12/28/2022 11:30:00 AM 0.01 32.018 0.098 7.26 12.2 14.29
12/28/2022 11:45:00 AM 0.01 32.018 0.098 7.26 11.63 14.3
12/28/2022 12:00:00 PM 0.01 32.018 0.098 7.27 11.02 14.29
12/28/2022 12:15:00 PM 0.01 32.018 0.098 7.27 11.4 14.28
12/28/2022 12:30:00 PM 0.02 32.036 0.098 7.27 11.72 14.27
12/28/2022 12:45:00 PM 0.01 32.018 0.098 7.27 11.72 14.28
12/28/2022 1:00:00 PM 0.01 32.018 0.098 7.27 11.82 14.28
12/28/2022 1:15:00 PM 0.01 32.018 0.098 7.27 12.12 14.27
12/28/2022 1:30:00 PM 0 32 0.098 7.28 12.96 14.26
12/28/2022 1:45:00 PM 0 32 0.098 7.28 12.02 14.26
12/28/2022 2:00:00 PM 0 32 0.098 7.28 11.76 14.27
12/28/2022 2:15:00 PM 0 32 0.098 7.28 11.13 14.27
12/28/2022 2:30:00 PM 0 32 0.098 7.28 12.52 14.26
12/28/2022 2:45:00 PM 0 32 0.098 7.27 12.32 14.26
12/28/2022 3:00:00 PM 0.01 32.018 0.098 7.28 11.64 14.25
12/28/2022 3:15:00 PM 0 32 0.098 7.27 11.76 14.26
12/28/2022 3:30:00 PM 0 32 0.098 7.28 11.57 14.25
12/28/2022 3:45:00 PM 0 32 0.098 7.27 12.56 14.25
12/28/2022 4:00:00 PM -0.01 31.982 0.098 7.27 12.59 14.24
12/28/2022 4:15:00 PM -0.01 31.982 0.098 7.27 11.65 14.22
12/28/2022 4:30:00 PM -0.01 31.982 0.098 7.27 11.46 14.21
12/28/2022 4:45:00 PM -0.01 31.982 0.098 7.27 11.74 14.2
12/28/2022 5:00:00 PM -0.01 31.982 0.098 7.26 11.07 14.18
12/28/2022 5:15:00 PM -0.01 31.982 0.098 7.26 12.51 14.19
12/28/2022 5:30:00 PM -0.01 31.982 0.098 7.26 11.65 14.18
12/28/2022 5:45:00 PM -0.01 31.982 0.098 7.26 12.16 14.17
12/28/2022 6:00:00 PM -0.01 31.982 0.098 7.26 11.35 14.17
12/28/2022 6:15:00 PM -0.01 31.982 0.098 7.25 11.67 14.17
12/28/2022 6:30:00 PM -0.01 31.982 0.098 7.25 11.58 14.17
12/28/2022 6:45:00 PM -0.01 31.982 0.098 7.25 11.97 14.17
12/28/2022 7:00:00 PM -0.01 31.982 0.098 7.25 12.4 14.17
12/28/2022 7:15:00 PM -0.01 31.982 0.098 7.25 11.15 14.17
12/28/2022 7:30:00 PM -0.01 31.982 0.098 7.25 11.53 14.17
12/28/2022 7:45:00 PM -0.01 31.982 0.098 7.25 11.86 14.17
12/28/2022 8:00:00 PM -0.01 31.982 0.098 7.25 11.74 14.18
12/28/2022 8:15:00 PM -0.01 31.982 0.098 7.25 12.03 14.18
12/28/2022 8:30:00 PM -0.01 31.982 0.098 7.25 12 14.18
12/28/2022 8:45:00 PM -0.01 31.982 0.098 7.25 11.08 14.18
12/28/2022 9:00:00 PM -0.01 31.982 0.098 7.25 12.69 14.18
12/28/2022 9:15:00 PM -0.02 31.964 0.098 7.25 10.79 14.18
12/28/2022 9:30:00 PM -0.02 31.964 0.098 7.25 12.09 14.18
12/28/2022 9:45:00 PM -0.02 31.964 0.098 7.25 12.13 14.2
12/28/2022 10:00:00 PM -0.02 31.964 0.098 7.26 11.81 14.18
12/28/2022 10:15:00 PM -0.02 31.964 0.098 7.25 12.31 14.2
12/28/2022 10:30:00 PM -0.02 31.964 0.098 7.25 12.3 14.2
12/28/2022 10:45:00 PM -0.02 31.964 0.098 7.26 12.04 14.2
12/28/2022 11:00:00 PM -0.02 31.964 0.098 7.25 11.34 14.2
12/28/2022 11:15:00 PM -0.02 31.964 0.098 7.25 11.64 14.21
12/28/2022 11:30:00 PM -0.02 31.964 0.098 7.25 11.9 14.21
12/28/2022 11:45:00 PM -0.02 31.964 0.098 7.25 11.86 14.21
12/29/2022 12:00:00 AM -0.02 31.964 0.098 7.25 11.53 14.21
12/29/2022 12:15:00 AM -0.02 31.964 0.098 7.25 13.26 14.22
12/29/2022 12:30:00 AM -0.02 31.964 0.098 7.26 11.45 14.21
12/29/2022 12:45:00 AM -0.02 31.964 0.098 7.26 11.61 14.22
12/29/2022 1:00:00 AM -0.02 31.964 0.098 7.26 11.16 14.22
12/29/2022 1:15:00 AM -0.02 31.964 0.098 7.26 11.02 14.22
12/29/2022 1:30:00 AM -0.02 31.964 0.098 7.26 11.26 14.21
12/29/2022 1:45:00 AM -0.02 31.964 0.098 7.26 11.24 14.22
12/29/2022 2:00:00 AM -0.02 31.964 0.098 7.26 11.58 14.23
12/29/2022 2:15:00 AM -0.02 31.964 0.099 7.26 11.32 14.21
12/29/2022 2:30:00 AM -0.02 31.964 0.099 7.26 11.1 14.22
12/29/2022 2:45:00 AM -0.02 31.964 0.099 7.25 11.86 14.22
12/29/2022 3:00:00 AM -0.02 31.964 0.099 7.25 11.13 14.23
12/29/2022 3:15:00 AM -0.02 31.964 0.099 7.26 11.31 14.22
12/29/2022 3:30:00 AM -0.02 31.964 0.099 7.26 11.05 14.23
12/29/2022 3:45:00 AM -0.02 31.964 0.099 7.26 10.77 14.23
12/29/2022 4:00:00 AM -0.02 31.964 0.099 7.26 10.45 14.22
12/29/2022 4:15:00 AM -0.02 31.964 0.099 7.26 10.39 14.22
12/29/2022 4:30:00 AM -0.02 31.964 0.099 7.25 10.66 14.23
12/29/2022 4:45:00 AM -0.02 31.964 0.099 7.26 10.24 14.23
12/29/2022 5:00:00 AM -0.02 31.964 0.099 7.25 10.79 14.23
12/29/2022 5:15:00 AM -0.02 31.964 0.099 7.26 9.86 14.22
12/29/2022 5:30:00 AM -0.02 31.964 0.099 7.26 10.13 14.23
12/29/2022 5:45:00 AM -0.03 31.946 0.099 7.25 10.52 14.23
12/29/2022 6:00:00 AM -0.02 31.964 0.099 7.25 9.92 14.23
12/29/2022 6:15:00 AM -0.03 31.946 0.099 7.25 10.84 14.23
12/29/2022 6:30:00 AM -0.03 31.946 0.099 7.26 10.79 14.23
12/29/2022 6:45:00 AM -0.03 31.946 0.099 7.25 10.21 14.23
12/29/2022 7:00:00 AM -0.03 31.946 0.099 7.25 10.79 14.23
12/29/2022 7:15:00 AM -0.03 31.946 0.099 7.25 10.33 14.23
12/29/2022 7:30:00 AM -0.03 31.946 0.099 7.25 10.19 14.23
12/29/2022 7:45:00 AM -0.02 31.964 0.099 7.25 10.04 14.23
12/29/2022 8:00:00 AM -0.02 31.964 0.099 7.25 10.34 14.24
12/29/2022 8:15:00 AM -0.02 31.964 0.099 7.25 10.77 14.25
12/29/2022 8:30:00 AM -0.02 31.964 0.099 7.25 10.28 14.27
12/29/2022 8:45:00 AM -0.02 31.964 0.099 7.26 10.22 14.27
12/29/2022 9:00:00 AM -0.01 31.982 0.099 7.26 10.21 14.28
12/29/2022 9:15:00 AM -0.01 31.982 0.099 7.26 10.5 14.3
12/29/2022 9:30:00 AM -0.01 31.982 0.099 7.26 10.47 14.3
12/29/2022 9:45:00 AM -0.01 31.982 0.099 7.26 11.25 14.31
12/29/2022 10:00:00 AM 0 32 0.099 7.26 10.75 14.31
12/29/2022 10:15:00 AM 0 32 0.099 7.27 11.17 14.31
12/29/2022 10:30:00 AM 0.01 32.018 0.099 7.27 10.85 14.31
12/29/2022 10:45:00 AM 0.01 32.018 0.099 7.27 10.93 14.31
12/29/2022 11:00:00 AM 0.01 32.018 0.098 7.27 11.29 14.31
12/29/2022 11:15:00 AM 0.01 32.018 0.098 7.27 10.67 14.31
12/29/2022 11:30:00 AM 0.02 32.036 0.098 7.27 10.94 14.31
12/29/2022 11:45:00 AM 0.02 32.036 0.098 7.28 11.72 14.3
12/29/2022 12:00:00 PM 0.02 32.036 0.098 7.28 11.91 14.3
12/29/2022 12:15:00 PM 0.03 32.054 0.098 7.28 11.73 14.29
12/29/2022 12:30:00 PM 0.04 32.072 0.098 7.28 12.13 14.28
12/29/2022 12:45:00 PM 0.04 32.072 0.098 7.28 11.58 14.28
12/29/2022 1:00:00 PM 0.04 32.072 0.098 7.28 10.43 14.28
12/29/2022 1:15:00 PM 0.04 32.072 0.098 7.29 10.83 14.27
12/29/2022 1:30:00 PM 0.05 32.09 0.098 7.28 11.77 14.28
12/29/2022 1:45:00 PM 0.04 32.072 0.098 7.29 11.45 14.27
12/29/2022 2:00:00 PM 0.04 32.072 0.098 7.29 11.68 14.27
12/29/2022 2:15:00 PM 0.04 32.072 0.098 7.29 12.06 14.26
12/29/2022 2:30:00 PM 0.04 32.072 0.098 7.29 12.09 14.26
12/29/2022 2:45:00 PM 0.03 32.054 0.098 7.29 11.88 14.27
12/29/2022 3:00:00 PM 0.02 32.036 0.098 7.29 12.92 14.25
12/29/2022 3:15:00 PM 0.02 32.036 0.098 7.28 12.32 14.25
12/29/2022 3:30:00 PM 0.02 32.036 0.098 7.28 11.98 14.25
12/29/2022 3:45:00 PM 0.01 32.018 0.098 7.28 11.39 14.24
12/29/2022 4:00:00 PM 0.01 32.018 0.098 7.28 12.39 14.22
12/29/2022 4:15:00 PM 0 32 0.099 7.28 11.9 14.21
12/29/2022 4:30:00 PM 0 32 0.099 7.28 12.75 14.2
12/29/2022 4:45:00 PM -0.01 31.982 0.099 7.28 12.6 14.2
12/29/2022 5:00:00 PM -0.01 31.982 0.099 7.27 12.55 14.18
12/29/2022 5:15:00 PM -0.01 31.982 0.099 7.27 11.75 14.18
12/29/2022 5:30:00 PM -0.01 31.982 0.099 7.26 13.26 14.17
12/29/2022 5:45:00 PM -0.01 31.982 0.099 7.26 12.3 14.17
12/29/2022 6:00:00 PM -0.01 31.982 0.099 7.26 13.25 14.17
12/29/2022 6:15:00 PM -0.01 31.982 0.099 7.26 12.47 14.17
12/29/2022 6:30:00 PM -0.01 31.982 0.099 7.26 12.06 14.17
12/29/2022 6:45:00 PM -0.01 31.982 0.099 7.26 12.5 14.17
12/29/2022 7:00:00 PM -0.01 31.982 0.099 7.26 12.01 14.16
12/29/2022 7:15:00 PM -0.01 31.982 0.099 7.26 11.97 14.17
12/29/2022 7:30:00 PM -0.01 31.982 0.099 7.26 12.45 14.16
12/29/2022 7:45:00 PM -0.01 31.982 0.099 7.26 11.23 14.16
12/29/2022 8:00:00 PM -0.01 31.982 0.099 7.25 12.21 14.17
12/29/2022 8:15:00 PM -0.02 31.964 0.099 7.25 11.81 14.17
12/29/2022 8:30:00 PM -0.02 31.964 0.099 7.26 12.28 14.17
12/29/2022 8:45:00 PM -0.01 31.982 0.099 7.25 12.43 14.17
12/29/2022 9:00:00 PM -0.01 31.982 0.099 7.25 11.92 14.18
12/29/2022 9:15:00 PM -0.01 31.982 0.099 7.25 12.18 14.18
12/29/2022 9:30:00 PM -0.01 31.982 0.099 7.25 11.74 14.16
12/29/2022 9:45:00 PM -0.01 31.982 0.099 7.25 12.19 14.19
12/29/2022 10:00:00 PM -0.01 31.982 0.099 7.26 12.6 14.18
12/29/2022 10:15:00 PM -0.01 31.982 0.099 7.25 12.7 14.19
12/29/2022 10:30:00 PM -0.01 31.982 0.099 7.25 12.76 14.18
12/29/2022 10:45:00 PM -0.01 31.982 0.099 7.25 11.58 14.19
12/29/2022 11:00:00 PM -0.01 31.982 0.099 7.26 12.1 14.18
12/29/2022 11:15:00 PM -0.01 31.982 0.099 7.25 12.63 14.19
12/29/2022 11:30:00 PM -0.01 31.982 0.099 7.25 12.73 14.18
12/29/2022 11:45:00 PM -0.01 31.982 0.099 7.25 12.29 14.19
12/30/2022 12:00:00 AM -0.01 31.982 0.099 7.25 12.83 14.19
12/30/2022 12:15:00 AM -0.01 31.982 0.099 7.26 12.71 14.18
12/30/2022 12:30:00 AM -0.01 31.982 0.099 7.26 12.49 14.19
12/30/2022 12:45:00 AM -0.01 31.982 0.099 7.25 13.02 14.19
12/30/2022 1:00:00 AM -0.01 31.982 0.099 7.25 12.76 14.18
12/30/2022 1:15:00 AM -0.01 31.982 0.099 7.25 12.66 14.19
12/30/2022 1:30:00 AM -0.01 31.982 0.099 7.25 12.64 14.18
12/30/2022 1:45:00 AM -0.01 31.982 0.099 7.25 12.62 14.18
12/30/2022 2:00:00 AM -0.02 31.964 0.099 7.25 12.16 14.18
12/30/2022 2:15:00 AM -0.02 31.964 0.099 7.24 12.59 14.19
12/30/2022 2:30:00 AM -0.02 31.964 0.099 7.25 12.85 14.18
12/30/2022 2:45:00 AM -0.02 31.964 0.099 7.25 12.26 14.18
12/30/2022 3:00:00 AM -0.02 31.964 0.099 7.25 12.27 14.18
12/30/2022 3:15:00 AM -0.02 31.964 0.099 7.25 12.25 14.18
12/30/2022 3:30:00 AM -0.02 31.964 0.1 7.25 12.5 14.17
12/30/2022 3:45:00 AM -0.02 31.964 0.1 7.25 12.77 14.18
12/30/2022 4:00:00 AM -0.02 31.964 0.1 7.25 12 14.18
12/30/2022 4:15:00 AM -0.01 31.982 0.1 7.25 12.36 14.17
12/30/2022 4:30:00 AM -0.01 31.982 0.1 7.26 12.82 14.17
12/30/2022 4:45:00 AM -0.01 31.982 0.1 7.26 12.74 14.17
12/30/2022 5:00:00 AM -0.01 31.982 0.1 7.26 13.01 14.17
12/30/2022 5:15:00 AM -0.01 31.982 0.1 7.26 12.59 14.17
12/30/2022 5:30:00 AM -0.01 31.982 0.1 7.25 12.65 14.17
12/30/2022 5:45:00 AM -0.02 31.964 0.1 7.26 12.57 14.16
12/30/2022 6:00:00 AM -0.02 31.964 0.1 7.25 13.01 14.17
12/30/2022 6:15:00 AM -0.01 31.982 0.1 7.26 12.48 14.16
12/30/2022 6:30:00 AM -0.01 31.982 0.1 7.26 13.02 14.16
12/30/2022 6:45:00 AM -0.01 31.982 0.1 7.26 13 14.16
12/30/2022 7:00:00 AM -0.01 31.982 0.099 7.25 13.3 14.17
12/30/2022 7:15:00 AM -0.01 31.982 0.099 7.26 13.23 14.16
12/30/2022 7:30:00 AM -0.01 31.982 0.099 7.26 13.4 14.15
12/30/2022 7:45:00 AM -0.01 31.982 0.099 7.26 13.6 14.17
12/30/2022 8:00:00 AM -0.01 31.982 0.099 7.25 13.23 14.16
12/30/2022 8:15:00 AM 0 32 0.099 7.26 12.77 14.18
12/30/2022 8:30:00 AM 0 32 0.099 7.26 13.77 14.2
12/30/2022 8:45:00 AM 0 32 0.099 7.26 13.74 14.2
12/30/2022 9:00:00 AM 0.01 32.018 0.099 7.26 13.9 14.22
12/30/2022 9:15:00 AM 0.01 32.018 0.099 7.26 14.44 14.23
12/30/2022 9:30:00 AM 0.01 32.018 0.099 7.27 15.61 14.24
12/30/2022 9:45:00 AM 0.01 32.018 0.099 7.27 14.18 14.26
12/30/2022 10:00:00 AM 0.02 32.036 0.099 7.27 14.97 14.27
12/30/2022 10:15:00 AM 0.01 32.018 0.099 7.27 15.31 14.27
12/30/2022 10:30:00 AM 0.02 32.036 0.099 7.27 14.52 14.29
12/30/2022 10:45:00 AM 0.02 32.036 0.099 7.28 14.57 14.28
12/30/2022 11:00:00 AM 0.03 32.054 0.099 7.28 14.97 14.29
12/30/2022 11:15:00 AM 0.02 32.036 0.099 7.28 15.96 14.29
12/30/2022 11:30:00 AM 0.02 32.036 0.099 7.28 14.91 14.3
12/30/2022 11:45:00 AM 0.02 32.036 0.099 7.28 15.49 14.28
12/30/2022 12:00:00 PM 0.02 32.036 0.099 7.28 15.92 14.29
12/30/2022 12:15:00 PM 0.04 32.072 0.098 7.29 15.85 14.3
12/30/2022 12:30:00 PM 0.03 32.054 0.098 7.29 17.1 14.29
12/30/2022 12:45:00 PM 0.05 32.09 0.098 7.29 17.6 14.29
12/30/2022 1:00:00 PM 0.04 32.072 0.098 7.29 17.07 14.29
12/30/2022 1:15:00 PM 0.03 32.054 0.098 7.3 18.58 14.28
12/30/2022 1:30:00 PM 0.03 32.054 0.098 7.3 17.93 14.28
12/30/2022 1:45:00 PM 0.03 32.054 0.098 7.3 18.92 14.27
12/30/2022 2:00:00 PM 0.02 32.036 0.098 7.3 20.3 14.26
12/30/2022 2:15:00 PM 0.02 32.036 0.098 7.3 20.53 14.26
12/30/2022 2:30:00 PM 0.03 32.054 0.098 7.3 21.27 14.24
12/30/2022 2:45:00 PM 0.02 32.036 0.098 7.3 21.16 14.25
12/30/2022 3:00:00 PM 0.02 32.036 0.098 7.3 22.89 14.24
12/30/2022 3:15:00 PM 0.02 32.036 0.097 7.3 25.65 14.24
12/30/2022 3:30:00 PM 0 32 0.097 7.3 26.42 14.21
12/30/2022 3:45:00 PM 0.01 32.018 0.097 7.3 28.11 14.22
12/30/2022 4:00:00 PM -0.01 31.982 0.097 7.3 24.13 14.2
12/30/2022 4:15:00 PM -0.01 31.982 0.097 7.29 26.35 14.19
12/30/2022 4:30:00 PM -0.02 31.964 0.097 7.29 25.53 14.18
12/30/2022 4:45:00 PM -0.02 31.964 0.096 7.28 26.79 14.17
12/30/2022 5:00:00 PM -0.02 31.964 0.096 7.28 25.9 14.16
12/30/2022 5:15:00 PM -0.02 31.964 0.096 7.28 25.43 14.16
12/30/2022 5:30:00 PM -0.02 31.964 0.096 7.27 24.44 14.14
12/30/2022 5:45:00 PM -0.03 31.946 0.096 7.26 23.04 14.15
12/30/2022 6:00:00 PM -0.03 31.946 0.096 7.26 22.9 14.15
12/30/2022 6:15:00 PM -0.03 31.946 0.096 7.26 23.26 14.14
12/30/2022 6:30:00 PM -0.03 31.946 0.097 7.26 24.97 14.14
12/30/2022 6:45:00 PM -0.03 31.946 0.097 7.25 23.08 14.15
12/30/2022 7:00:00 PM -0.04 31.928 0.097 7.25 24.54 14.14
12/30/2022 7:15:00 PM -0.04 31.928 0.098 7.25 24.06 14.14
12/30/2022 7:30:00 PM -0.04 31.928 0.098 7.25 23.61 14.14
12/30/2022 7:45:00 PM -0.04 31.928 0.098 7.25 25.01 14.15
12/30/2022 8:00:00 PM -0.04 31.928 0.098 7.24 24.5 14.15
12/30/2022 8:15:00 PM -0.04 31.928 0.098 7.25 24.61 14.15
12/30/2022 8:30:00 PM -0.04 31.928 0.098 7.26 23.53 14.15
12/30/2022 8:45:00 PM -0.04 31.928 0.098 7.25 27.02 14.16
12/30/2022 9:00:00 PM -0.04 31.928 0.098 7.26 27.48 14.16
12/30/2022 9:15:00 PM -0.04 31.928 0.097 7.26 30.32 14.16
12/30/2022 9:30:00 PM -0.04 31.928 0.097 7.26 30.49 14.16
12/30/2022 9:45:00 PM -0.04 31.928 0.097 7.26 33.74 14.15
12/30/2022 10:00:00 PM -0.04 31.928 0.097 7.26 34.82 14.15
12/30/2022 10:15:00 PM -0.04 31.928 0.096 7.25 38.66 14.15
12/30/2022 10:30:00 PM -0.04 31.928 0.096 7.25 35.51 14.15
12/30/2022 10:45:00 PM -0.04 31.928 0.095 7.25 39.15 14.14
12/30/2022 11:00:00 PM -0.04 31.928 0.094 7.26 36.44 14.14
12/30/2022 11:15:00 PM -0.04 31.928 0.093 7.25 37.73 14.14
12/30/2022 11:30:00 PM -0.04 31.928 0.092 7.25 41.36 14.14
12/30/2022 11:45:00 PM -0.04 31.928 0.091 7.24 40.81 14.14
12/31/2022 12:00:00 AM -0.04 31.928 0.09 7.24 41.31 14.15
12/31/2022 12:15:00 AM -0.04 31.928 0.09 7.24 42.91 14.15
12/31/2022 12:30:00 AM -0.04 31.928 0.089 7.23 40.26 14.15
12/31/2022 12:45:00 AM -0.03 31.946 0.088 7.23 40.74 14.15
12/31/2022 1:00:00 AM -0.03 31.946 0.088 7.23 42.48 14.15
12/31/2022 1:15:00 AM -0.03 31.946 0.087 7.22 41.37 14.15
12/31/2022 1:30:00 AM -0.03 31.946 0.087 7.22 41.45 14.16
12/31/2022 1:45:00 AM -0.03 31.946 0.086 7.21 42.74 14.16
12/31/2022 2:00:00 AM -0.03 31.946 0.086 7.21 43.94 14.15
12/31/2022 2:15:00 AM -0.03 31.946 0.086 7.21 39.29 14.15
12/31/2022 2:30:00 AM -0.03 31.946 0.086 7.21 38.86 14.15
12/31/2022 2:45:00 AM -0.03 31.946 0.085 7.2 39.8 14.15
12/31/2022 3:00:00 AM -0.03 31.946 0.085 7.21 40.57 14.14
12/31/2022 3:15:00 AM -0.03 31.946 0.085 7.2 38.45 14.14
12/31/2022 3:30:00 AM -0.03 31.946 0.085 7.2 38.33 14.14
12/31/2022 3:45:00 AM -0.03 31.946 0.085 7.19 36.66 14.14
12/31/2022 4:00:00 AM -0.03 31.946 0.085 7.2 38.14 14.14
12/31/2022 4:15:00 AM -0.03 31.946 0.085 7.19 37.4 14.14
12/31/2022 4:30:00 AM -0.02 31.964 0.085 7.2 34.28 14.14
12/31/2022 4:45:00 AM -0.02 31.964 0.085 7.19 36.71 14.13
12/31/2022 5:00:00 AM -0.02 31.964 0.085 7.19 33.51 14.13
12/31/2022 5:15:00 AM -0.02 31.964 0.085 7.2 33.33 14.12
12/31/2022 5:30:00 AM -0.02 31.964 0.085 7.2 35.29 14.12
12/31/2022 5:45:00 AM -0.02 31.964 0.085 7.19 33.79 14.12
12/31/2022 6:00:00 AM -0.02 31.964 0.085 7.19 33.73 14.12
12/31/2022 6:15:00 AM -0.02 31.964 0.085 7.19 32.62 14.12
12/31/2022 6:30:00 AM -0.02 31.964 0.085 7.2 33.61 14.11
12/31/2022 6:45:00 AM -0.02 31.964 0.085 7.18 32.75 14.11
12/31/2022 7:00:00 AM -0.02 31.964 0.085 7.19 31.75 14.11
12/31/2022 7:15:00 AM -0.02 31.964 0.085 7.19 29.7 14.1
12/31/2022 7:30:00 AM -0.02 31.964 0.085 7.19 29.73 14.1
12/31/2022 7:45:00 AM -0.01 31.982 0.085 7.19 28.96 14.1
12/31/2022 8:00:00 AM -0.02 31.964 0.085 7.2 28.78 14.1
12/31/2022 8:15:00 AM -0.02 31.964 0.085 7.19 29.92 14.1
12/31/2022 8:30:00 AM -0.01 31.982 0.085 7.19 27.72 14.1
12/31/2022 8:45:00 AM -0.01 31.982 0.085 7.19 28.48 14.1
12/31/2022 9:00:00 AM -0.01 31.982 0.085 7.19 27.82 14.1
12/31/2022 9:15:00 AM -0.01 31.982 0.085 7.2 27.14 14.1
12/31/2022 9:30:00 AM 0 32 0.085 7.19 26.81 14.1
12/31/2022 9:45:00 AM 0 32 0.085 7.2 26.42 14.11
12/31/2022 10:00:00 AM 0 32 0.085 7.19 25.96 14.12
12/31/2022 10:15:00 AM 0.01 32.018 0.085 7.2 26.04 14.12
12/31/2022 10:30:00 AM 0.02 32.036 0.085 7.19 26.57 14.13
12/31/2022 10:45:00 AM 0.02 32.036 0.085 7.2 25.82 14.13
12/31/2022 11:00:00 AM 0.01 32.018 0.085 7.2 25.41 14.13
12/31/2022 11:15:00 AM 0.02 32.036 0.085 7.2 27.31 14.12
12/31/2022 11:30:00 AM 0.02 32.036 0.085 7.21 26.09 14.11
12/31/2022 11:45:00 AM 0.02 32.036 0.085 7.21 25.32 14.11
12/31/2022 12:00:00 PM 0.03 32.054 0.085 7.21 26.69 14.11
12/31/2022 12:15:00 PM 0.02 32.036 0.085 7.21 26.42 14.1
12/31/2022 12:30:00 PM 0.03 32.054 0.085 7.21 24.5 14.1
12/31/2022 12:45:00 PM 0.03 32.054 0.085 7.22 23.6 14.09
12/31/2022 1:00:00 PM 0.04 32.072 0.085 7.21 24.53 14.09
12/31/2022 1:15:00 PM 0.03 32.054 0.085 7.22 24.8 14.09
12/31/2022 1:30:00 PM 0.05 32.09 0.085 7.22 25.15 14.09
12/31/2022 1:45:00 PM 0.05 32.09 0.085 7.22 25.09 14.09
12/31/2022 2:00:00 PM 0.05 32.09 0.085 7.22 25.99 14.08
12/31/2022 2:15:00 PM 0.06 32.108 0.085 7.22 25.06 14.07
12/31/2022 2:30:00 PM 0.06 32.108 0.085 7.23 25.08 14.06
12/31/2022 2:45:00 PM 0.06 32.108 0.085 7.23 24.86 14.05
12/31/2022 3:00:00 PM 0.06 32.108 0.085 7.22 25.13 14.04
12/31/2022 3:15:00 PM 0.07 32.126 0.085 7.22 24.64 14.04
12/31/2022 3:30:00 PM 0.06 32.108 0.085 7.23 26.11 14.02
12/31/2022 3:45:00 PM 0.07 32.126 0.084 7.22 25.72 14.02
12/31/2022 4:00:00 PM 0.06 32.108 0.084 7.22 26.87 14.01
12/31/2022 4:15:00 PM 0.06 32.108 0.084 7.21 26.83 14.01
12/31/2022 4:30:00 PM 0.06 32.108 0.084 7.21 27.07 14
12/31/2022 4:45:00 PM 0.07 32.126 0.084 7.22 26.78 13.99
12/31/2022 5:00:00 PM 0.07 32.126 0.084 7.21 27.02 13.98
12/31/2022 5:15:00 PM 0.08 32.144 0.083 7.21 27.84 13.98
12/31/2022 5:30:00 PM 0.08 32.144 0.083 7.2 29.12 13.98
12/31/2022 5:45:00 PM 0.09 32.162 0.083 7.2 28.15 13.98
12/31/2022 6:00:00 PM 0.09 32.162 0.083 7.2 29.45 13.97
12/31/2022 6:15:00 PM 0.09 32.162 0.083 7.21 29.39 13.97
12/31/2022 6:30:00 PM 0.1 32.18 0.082 7.2 30.93 13.97
12/31/2022 6:45:00 PM 0.1 32.18 0.082 7.21 32.25 13.96
12/31/2022 7:00:00 PM 0.11 32.198 0.082 7.19 33.16 13.96
12/31/2022 7:15:00 PM 0.11 32.198 0.082 7.2 33.53 13.95
12/31/2022 7:30:00 PM 0.13 32.234 0.081 7.2 34.6 13.94
12/31/2022 7:45:00 PM 0.14 32.252 0.081 7.2 34.45 13.94
12/31/2022 8:00:00 PM 0.14 32.252 0.081 7.19 35.38 13.94
12/31/2022 8:15:00 PM 0.14 32.252 0.08 7.19 43.59 13.93
12/31/2022 8:30:00 PM 0.17 32.306 0.08 7.19 37.01 13.93
12/31/2022 8:45:00 PM 0.17 32.306 0.08 7.19 38.86 13.92
12/31/2022 9:00:00 PM 0.18 32.324 0.079 7.19 40.21 13.92
12/31/2022 9:15:00 PM 0.18 32.324 0.079 7.19 39.58 13.91
12/31/2022 9:30:00 PM 0.19 32.342 0.079 7.18 41.32 13.9
12/31/2022 9:45:00 PM 0.2 32.36 0.078 7.17 41.23 13.9
12/31/2022 10:00:00 PM 0.22 32.396 0.078 7.17 41.73 13.9
12/31/2022 10:15:00 PM 0.23 32.414 0.078 7.17 41.59 13.89
12/31/2022 10:30:00 PM 0.24 32.432 0.078 7.17 40.94 13.88
12/31/2022 10:45:00 PM 0.24 32.432 0.078 7.17 42.22 13.88
12/31/2022 11:00:00 PM 0.25 32.45 0.077 7.17 43.2 13.87
12/31/2022 11:15:00 PM 0.27 32.486 0.077 7.16 42.28 13.86
12/31/2022 11:30:00 PM 0.29 32.522 0.077 7.16 42.99 13.85
12/31/2022 11:45:00 PM 0.31 32.558 0.077 7.15 42.31 13.85
1/1/2023 12:00:00 AM 0.34 32.612 0.077 7.14 41.46 13.84
1/1/2023 12:15:00 AM 0.36 32.648 0.077 7.15 42.17 13.83
1/1/2023 12:30:00 AM 0.38 32.684 0.077 7.16 41.52 13.81
1/1/2023 12:45:00 AM 0.4 32.72 0.077 7.15 39.85 13.81
1/1/2023 1:00:00 AM 0.4 32.72 0.076 7.14 39.57 13.81
1/1/2023 1:15:00 AM 0.44 32.792 0.076 7.15 39.56 13.79
1/1/2023 1:30:00 AM 0.47 32.846 0.076 7.14 38.95 13.79
1/1/2023 1:45:00 AM 0.5 32.9 0.076 7.15 37.77 13.78
1/1/2023 2:00:00 AM 0.53 32.954 0.076 7.14 37.83 13.77
1/1/2023 2:15:00 AM 0.55 32.99 0.076 7.15 35.76 13.76
1/1/2023 2:30:00 AM 0.58 33.044 0.076 7.14 36.37 13.75
1/1/2023 2:45:00 AM 0.6 33.08 0.076 7.14 35.06 13.75
1/1/2023 3:00:00 AM 0.62 33.116 0.076 7.13 36.84 13.74
1/1/2023 3:15:00 AM 0.65 33.17 0.076 7.14 35.82 13.74
1/1/2023 3:30:00 AM 0.68 33.224 0.076 7.14 34.82 13.73
1/1/2023 3:45:00 AM 0.71 33.278 0.076 7.15 34.62 13.72
1/1/2023 4:00:00 AM 0.74 33.332 0.076 7.14 34.95 13.72
1/1/2023 4:15:00 AM 0.76 33.368 0.076 7.15 35.53 13.71
1/1/2023 4:30:00 AM 0.79 33.422 0.076 7.14 34.09 13.7
1/1/2023 4:45:00 AM 0.83 33.494 0.076 7.15 35.11 13.7
1/1/2023 5:00:00 AM 0.85 33.53 0.076 7.14 33.58 13.69
1/1/2023 5:15:00 AM 0.88 33.584 0.076 7.15 34.05 13.69
1/1/2023 5:30:00 AM 0.9 33.62 0.076 7.15 34.48 13.69
1/1/2023 5:45:00 AM 0.92 33.656 0.076 7.17 34.15 13.68
1/1/2023 6:00:00 AM 0.95 33.71 0.076 7.16 31.07 13.68
1/1/2023 6:15:00 AM 0.98 33.764 0.076 7.17 31.93 13.67
1/1/2023 6:30:00 AM 1.01 33.818 0.076 7.16 32.99 13.67
1/1/2023 6:45:00 AM 1.04 33.872 0.076 7.16 32.02 13.67
1/1/2023 7:00:00 AM 1.06 33.908 0.076 7.16 30.72 13.66
1/1/2023 7:15:00 AM 1.09 33.962 0.077 7.16 31.28 13.66
1/1/2023 7:30:00 AM 1.11 33.998 0.077 7.17 30.57 13.66
1/1/2023 7:45:00 AM 1.13 34.034 0.077 7.17 31.53 13.65
1/1/2023 8:00:00 AM 1.15 34.07 0.077 7.18 30.33 13.65
1/1/2023 8:15:00 AM 1.17 34.106 0.077 7.17 30.96 13.65
1/1/2023 8:30:00 AM 1.18 34.124 0.077 7.18 30.1 13.66
1/1/2023 8:45:00 AM 1.21 34.178 0.077 7.17 28.87 13.66
1/1/2023 9:00:00 AM 1.23 34.214 0.077 7.18 29.34 13.66
1/1/2023 9:15:00 AM 1.25 34.25 0.077 7.18 28.79 13.66
1/1/2023 9:30:00 AM 1.28 34.304 0.077 7.19 29.72 13.66
1/1/2023 9:45:00 AM 1.32 34.376 0.077 7.19 27.57 13.67
1/1/2023 10:00:00 AM 1.36 34.448 0.077 7.19 26.43 13.67
1/1/2023 10:15:00 AM 1.38 34.484 0.077 7.19 26.95 13.66
1/1/2023 10:30:00 AM 1.41 34.538 0.077 7.2 27.75 13.67
1/1/2023 10:45:00 AM 1.46 34.628 0.077 7.21 26.75 13.68
1/1/2023 11:00:00 AM 1.53 34.754 0.077 7.21 26.24 13.67
1/1/2023 11:15:00 AM 1.58 34.844 0.077 7.21 26.5 13.66
1/1/2023 11:30:00 AM 1.63 34.934 0.077 7.23 25.97 13.65
1/1/2023 11:45:00 AM 1.67 35.006 0.077 7.23 25.21 13.63
1/1/2023 12:00:00 PM 1.72 35.096 0.077 7.23 24.74 13.63
1/1/2023 12:15:00 PM 1.73 35.114 0.077 7.23 24.14 13.62
1/1/2023 12:30:00 PM 1.77 35.186 0.077 7.23 24.87 13.62
1/1/2023 12:45:00 PM 1.84 35.312 0.077 7.24 24.51 13.61
1/1/2023 1:00:00 PM 1.94 35.492 0.077 7.24 24.2 13.6
1/1/2023 1:15:00 PM 1.99 35.582 0.077 7.25 24.31 13.59
1/1/2023 1:30:00 PM 2.01 35.618 0.077 7.25 24.81 13.58
1/1/2023 1:45:00 PM 2.02 35.636 0.077 7.25 24.52 13.57
1/1/2023 2:00:00 PM 2.02 35.636 0.077 7.25 24.07 13.55
1/1/2023 2:15:00 PM 2.05 35.69 0.077 7.26 23.81 13.55
1/1/2023 2:30:00 PM 2.08 35.744 0.077 7.26 23.43 13.54
1/1/2023 2:45:00 PM 2.11 35.798 0.077 7.26 23.87 13.53
1/1/2023 3:00:00 PM 2.08 35.744 0.077 7.26 23.82 13.52
1/1/2023 3:15:00 PM 2.08 35.744 0.077 7.25 23.17 13.5
1/1/2023 3:30:00 PM 2.1 35.78 0.077 7.26 22.42 13.5
1/1/2023 3:45:00 PM 2.14 35.852 0.077 7.25 22.7 13.49
1/1/2023 4:00:00 PM 2.16 35.888 0.077 7.26 22.85 13.46
1/1/2023 4:15:00 PM 2.18 35.924 0.078 7.24 21.68 13.43
1/1/2023 4:30:00 PM 2.21 35.978 0.078 7.25 21.94 13.42
1/1/2023 4:45:00 PM 2.25 36.05 0.078 7.25 21.77 13.4
1/1/2023 5:00:00 PM 2.27 36.086 0.078 7.24 21.61 13.39
1/1/2023 5:15:00 PM 2.28 36.104 0.078 7.24 21.52 13.38
1/1/2023 5:30:00 PM 2.27 36.086 0.078 7.24 20.83 13.38
1/1/2023 5:45:00 PM 2.26 36.068 0.078 7.25 21.72 13.37
1/1/2023 6:00:00 PM 2.27 36.086 0.078 7.24 21.39 13.37
1/1/2023 6:15:00 PM 2.29 36.122 0.078 7.25 20.75 13.36
1/1/2023 6:30:00 PM 2.3 36.14 0.078 7.24 20.24 13.36
1/1/2023 6:45:00 PM 2.31 36.158 0.078 7.23 20.86 13.35
1/1/2023 7:00:00 PM 2.32 36.176 0.078 7.23 20.88 13.35
1/1/2023 7:15:00 PM 2.34 36.212 0.078 7.23 19.44 13.34
1/1/2023 7:30:00 PM 2.36 36.248 0.078 7.23 20.75 13.33
1/1/2023 7:45:00 PM 2.38 36.284 0.078 7.24 21.02 13.32
1/1/2023 8:00:00 PM 2.4 36.32 0.078 7.24 21.36 13.32
1/1/2023 8:15:00 PM 2.42 36.356 0.078 7.24 20.85 13.31
1/1/2023 8:30:00 PM 2.44 36.392 0.078 7.23 20.74 13.3
1/1/2023 8:45:00 PM 2.45 36.41 0.078 7.24 20.95 13.29
1/1/2023 9:00:00 PM 2.45 36.41 0.078 7.23 21.1 13.29
1/1/2023 9:15:00 PM 2.46 36.428 0.078 7.23 21.25 13.28
1/1/2023 9:30:00 PM 2.46 36.428 0.078 7.24 21.28 13.28
1/1/2023 9:45:00 PM 2.47 36.446 0.078 7.22 21.44 13.27
1/1/2023 10:00:00 PM 2.47 36.446 0.078 7.23 20.99 13.26
1/1/2023 10:15:00 PM 2.48 36.464 0.078 7.23 20.53 13.25
1/1/2023 10:30:00 PM 2.49 36.482 0.078 7.22 22.31 13.25
1/1/2023 10:45:00 PM 2.49 36.482 0.078 7.22 21.12 13.25
1/1/2023 11:00:00 PM 2.49 36.482 0.078 7.22 22.14 13.25
1/1/2023 11:15:00 PM 2.48 36.464 0.078 7.22 20.87 13.25
1/1/2023 11:30:00 PM 2.48 36.464 0.078 7.22 21.25 13.24
1/1/2023 11:45:00 PM 2.47 36.446 0.078 7.22 21.96 13.25
1/2/2023 12:00:00 AM 2.47 36.446 0.078 7.23 20.92 13.25
1/2/2023 12:15:00 AM 2.46 36.428 0.078 7.22 21.66 13.25
1/2/2023 12:30:00 AM 2.44 36.392 0.078 7.22 22.12 13.26
1/2/2023 12:45:00 AM 2.42 36.356 0.078 7.22 21.71 13.26
1/2/2023 1:00:00 AM 2.4 36.32 0.078 7.22 21.09 13.27
1/2/2023 1:15:00 AM 2.38 36.284 0.078 7.22 21.72 13.28
1/2/2023 1:30:00 AM 2.35 36.23 0.078 7.22 21.57 13.28
1/2/2023 1:45:00 AM 2.33 36.194 0.078 7.22 20.92 13.29
1/2/2023 2:00:00 AM 2.31 36.158 0.078 7.22 22.12 13.31
1/2/2023 2:15:00 AM 2.29 36.122 0.079 7.22 21.69 13.31
1/2/2023 2:30:00 AM 2.26 36.068 0.079 7.21 22.24 13.31
1/2/2023 2:45:00 AM 2.24 36.032 0.079 7.21 22.11 13.32
1/2/2023 3:00:00 AM 2.22 35.996 0.079 7.22 22.11 13.33
1/2/2023 3:15:00 AM 2.2 35.96 0.079 7.21 21.23 13.34
1/2/2023 3:30:00 AM 2.19 35.942 0.079 7.21 21.87 13.34
1/2/2023 3:45:00 AM 2.18 35.924 0.079 7.21 20.8 13.35
1/2/2023 4:00:00 AM 2.16 35.888 0.079 7.22 21.57 13.35
1/2/2023 4:15:00 AM 2.15 35.87 0.079 7.22 22.09 13.36
1/2/2023 4:30:00 AM 2.14 35.852 0.079 7.22 20.96 13.36
1/2/2023 4:45:00 AM 2.13 35.834 0.079 7.22 21.35 13.37
1/2/2023 5:00:00 AM 2.11 35.798 0.079 7.22 22.16 13.38
1/2/2023 5:15:00 AM 2.09 35.762 0.079 7.21 20.82 13.39
1/2/2023 5:30:00 AM 2.07 35.726 0.079 7.21 21.21 13.39
1/2/2023 5:45:00 AM 2.07 35.726 0.079 7.21 21.05 13.4
1/2/2023 6:00:00 AM 2.07 35.726 0.079 7.21 20.59 13.4
1/2/2023 6:15:00 AM 2.06 35.708 0.079 7.22 20.85 13.41
1/2/2023 6:30:00 AM 2.05 35.69 0.079 7.22 20.27 13.41
1/2/2023 6:45:00 AM 2.05 35.69 0.08 7.22 19.83 13.42
1/2/2023 7:00:00 AM 2.04 35.672 0.08 7.22 20.22 13.42
1/2/2023 7:15:00 AM 2.03 35.654 0.08 7.21 20.64 13.43
1/2/2023 7:30:00 AM 2.02 35.636 0.08 7.22 20.27 13.43
1/2/2023 7:45:00 AM 2.01 35.618 0.08 7.21 20.61 13.44
1/2/2023 8:00:00 AM 2.01 35.618 0.08 7.22 19.74 13.45
1/2/2023 8:15:00 AM 2 35.6 0.08 7.22 20.15 13.47
1/2/2023 8:30:00 AM 2.01 35.618 0.08 7.22 20.37 13.48
1/2/2023 8:45:00 AM 2.01 35.618 0.08 7.23 19.5 13.51
1/2/2023 9:00:00 AM 2.01 35.618 0.08 7.23 20.01 13.51
1/2/2023 9:15:00 AM 2.02 35.636 0.08 7.23 19.89 13.53
1/2/2023 9:30:00 AM 2.03 35.654 0.08 7.23 19.08 13.53
1/2/2023 9:45:00 AM 2.05 35.69 0.08 7.24 19.59 13.54
1/2/2023 10:00:00 AM 2.1 35.78 0.08 7.24 20.1 13.56
1/2/2023 10:15:00 AM 2.15 35.87 0.08 7.25 18.87 13.55
1/2/2023 10:30:00 AM 2.2 35.96 0.081 7.25 20.17 13.55
1/2/2023 10:45:00 AM 2.25 36.05 0.081 7.25 19.26 13.54
1/2/2023 11:00:00 AM 2.32 36.176 0.081 7.26 19.07 13.53
1/2/2023 11:15:00 AM 2.38 36.284 0.081 7.27 19.18 13.52
1/2/2023 11:30:00 AM 2.45 36.41 0.081 7.27 18.27 13.51
1/2/2023 11:45:00 AM 2.5 36.5 0.081 7.27 18.74 13.5
1/2/2023 12:00:00 PM 2.5 36.5 0.081 7.28 19.24 13.48
1/2/2023 12:15:00 PM 2.55 36.59 0.081 7.28 19.14 13.47
1/2/2023 12:30:00 PM 2.59 36.662 0.081 7.28 19.54 13.46
1/2/2023 12:45:00 PM 2.63 36.734 0.081 7.29 19.96 13.45
1/2/2023 1:00:00 PM 2.65 36.77 0.081 7.29 19.56 13.44
1/2/2023 1:15:00 PM 2.67 36.806 0.081 7.29 19.65 13.44
1/2/2023 1:30:00 PM 2.73 36.914 0.081 7.29 19.36 13.42
1/2/2023 1:45:00 PM 2.74 36.932 0.081 7.29 19.27 13.42
1/2/2023 2:00:00 PM 2.76 36.968 0.081 7.29 19.89 13.41
1/2/2023 2:15:00 PM 2.78 37.004 0.081 7.29 19.8 13.39
1/2/2023 2:30:00 PM 2.83 37.094 0.081 7.3 20.41 13.4
1/2/2023 2:45:00 PM 2.86 37.148 0.081 7.3 20.6 13.37
1/2/2023 3:00:00 PM 2.87 37.166 0.081 7.29 20.3 13.35
1/2/2023 3:15:00 PM 2.89 37.202 0.081 7.3 20.53 13.33
1/2/2023 3:30:00 PM 2.9 37.22 0.081 7.3 19.52 13.31
1/2/2023 3:45:00 PM 2.92 37.256 0.081 7.29 19.27 13.29
1/2/2023 4:00:00 PM 2.93 37.274 0.081 7.29 18.95 13.27
1/2/2023 4:15:00 PM 2.93 37.274 0.081 7.3 19.28 13.25
1/2/2023 4:30:00 PM 2.94 37.292 0.081 7.29 18.53 13.23
1/2/2023 4:45:00 PM 2.96 37.328 0.081 7.28 18.8 13.21
1/2/2023 5:00:00 PM 2.96 37.328 0.081 7.28 18.6 13.2
1/2/2023 5:15:00 PM 2.97 37.346 0.081 7.28 18.48 13.19
1/2/2023 5:30:00 PM 2.98 37.364 0.081 7.27 18.5 13.18
1/2/2023 5:45:00 PM 2.98 37.364 0.081 7.28 18.92 13.18
1/2/2023 6:00:00 PM 2.98 37.364 0.081 7.27 18.29 13.18
1/2/2023 6:15:00 PM 2.98 37.364 0.081 7.26 18.4 13.17
1/2/2023 6:30:00 PM 2.99 37.382 0.081 7.27 18.55 13.17
1/2/2023 6:45:00 PM 2.99 37.382 0.081 7.26 18.71 13.16
1/2/2023 7:00:00 PM 3 37.4 0.081 7.26 18.62 13.16
1/2/2023 7:15:00 PM 3.01 37.418 0.082 7.25 17.93 13.15
1/2/2023 7:30:00 PM 3.02 37.436 0.082 7.26 19.01 13.13
1/2/2023 7:45:00 PM 3.04 37.472 0.082 7.26 18.34 13.14
1/2/2023 8:00:00 PM 3.05 37.49 0.082 7.25 18.65 13.13
1/2/2023 8:15:00 PM 3.05 37.49 0.082 7.24 18.53 13.13
1/2/2023 8:30:00 PM 3.06 37.508 0.082 7.26 18.59 13.12
1/2/2023 8:45:00 PM 3.07 37.526 0.082 7.25 19.46 13.12
1/2/2023 9:00:00 PM 3.08 37.544 0.082 7.24 18.75 13.11
1/2/2023 9:15:00 PM 3.1 37.58 0.082 7.25 18.49 13.1
1/2/2023 9:30:00 PM 3.11 37.598 0.081 7.25 19.68 13.09
1/2/2023 9:45:00 PM 3.12 37.616 0.082 7.24 19.15 13.08
1/2/2023 10:00:00 PM 3.14 37.652 0.081 7.24 19.09 13.08
1/2/2023 10:15:00 PM 3.16 37.688 0.081 7.24 18.84 13.06
1/2/2023 10:30:00 PM 3.18 37.724 0.081 7.24 19.25 13.04
1/2/2023 10:45:00 PM 3.2 37.76 0.081 7.24 19.29 13.04
1/2/2023 11:00:00 PM 3.22 37.796 0.082 7.24 19.48 13.02
1/2/2023 11:15:00 PM 3.24 37.832 0.082 7.23 19.43 13.01
1/2/2023 11:30:00 PM 3.26 37.868 0.082 7.23 19.33 12.99
1/2/2023 11:45:00 PM 3.27 37.886 0.082 7.23 20.63 12.98
1/3/2023 12:00:00 AM 3.28 37.904 0.082 7.23 19.16 12.98
1/3/2023 12:15:00 AM 3.3 37.94 0.082 7.23 20.25 12.97
1/3/2023 12:30:00 AM 3.31 37.958 0.082 7.22 20.34 12.96
1/3/2023 12:45:00 AM 3.33 37.994 0.082 7.23 19.75 12.95
1/3/2023 1:00:00 AM 3.34 38.012 0.082 7.23 20.49 12.94
1/3/2023 1:15:00 AM 3.34 38.012 0.082 7.22 18.88 12.93
1/3/2023 1:30:00 AM 3.35 38.03 0.082 7.22 20.32 12.93
1/3/2023 1:45:00 AM 3.36 38.048 0.082 7.22 20.37 12.93
1/3/2023 2:00:00 AM 3.36 38.048 0.082 7.22 20.59 12.93
1/3/2023 2:15:00 AM 3.36 38.048 0.082 7.22 20.2 12.93
1/3/2023 2:30:00 AM 3.36 38.048 0.082 7.22 20.5 12.92
1/3/2023 2:45:00 AM 3.36 38.048 0.082 7.22 20.55 12.92
1/3/2023 3:00:00 AM 3.35 38.03 0.082 7.22 20.76 12.94
1/3/2023 3:15:00 AM 3.35 38.03 0.082 7.22 20.47 12.93
1/3/2023 3:30:00 AM 3.35 38.03 0.082 7.22 20.59 12.93
1/3/2023 3:45:00 AM 3.35 38.03 0.082 7.21 20.76 12.93
1/3/2023 4:00:00 AM 3.34 38.012 0.082 7.22 20.89 12.93
1/3/2023 4:15:00 AM 3.34 38.012 0.082 7.21 21.28 12.93
1/3/2023 4:30:00 AM 3.34 38.012 0.082 7.22 21.1 12.93
1/3/2023 4:45:00 AM 3.34 38.012 0.082 7.21 20.67 12.92
1/3/2023 5:00:00 AM 3.34 38.012 0.082 7.2 20.2 12.92
1/3/2023 5:15:00 AM 3.33 37.994 0.082 7.21 20.57 12.92
1/3/2023 5:30:00 AM 3.33 37.994 0.082 7.2 19.9 12.91
1/3/2023 5:45:00 AM 3.32 37.976 0.082 7.2 19.81 12.91
1/3/2023 6:00:00 AM 3.32 37.976 0.082 7.2 20.66 12.91
1/3/2023 6:15:00 AM 3.32 37.976 0.082 7.21 20.09 12.91
1/3/2023 6:30:00 AM 3.31 37.958 0.082 7.21 20.52 12.92
1/3/2023 6:45:00 AM 3.3 37.94 0.082 7.2 20.88 12.91
1/3/2023 7:00:00 AM 3.29 37.922 0.082 7.21 20.81 12.91
1/3/2023 7:15:00 AM 3.29 37.922 0.082 7.2 20.87 12.91
1/3/2023 7:30:00 AM 3.28 37.904 0.082 7.2 20.61 12.91
1/3/2023 7:45:00 AM 3.28 37.904 0.082 7.2 20.54 12.91
1/3/2023 8:00:00 AM 3.28 37.904 0.082 7.21 20.76 12.92
1/3/2023 8:15:00 AM 3.28 37.904 0.082 7.21 20.18 12.91
1/3/2023 8:30:00 AM 3.28 37.904 0.082 7.2 19.46 12.92
1/3/2023 8:45:00 AM 3.28 37.904 0.082 7.21 19.86 12.93
1/3/2023 9:00:00 AM 3.29 37.922 0.082 7.2 20.71 12.93
1/3/2023 9:15:00 AM 3.29 37.922 0.082 7.21 22.56 12.93
1/3/2023 9:30:00 AM 3.29 37.922 0.082 7.21 23.36 12.93
1/3/2023 9:45:00 AM 3.3 37.94 0.082 7.21 26.56 12.95
1/3/2023 10:00:00 AM 3.3 37.94 0.083 7.21 28.21 12.95
1/3/2023 10:15:00 AM 3.31 37.958 0.083 7.21 28.21 12.95
1/3/2023 10:30:00 AM 3.32 37.976 0.083 7.21 32.9 12.95
1/3/2023 10:45:00 AM 3.32 37.976 0.083 7.21 42.92 12.95
1/3/2023 11:00:00 AM 3.32 37.976 0.083 7.22 48.77 12.94
1/3/2023 11:15:00 AM 3.32 37.976 0.083 7.21 54.88 12.93
1/3/2023 11:30:00 AM 3.32 37.976 0.083 7.22 57.12 12.92
1/3/2023 11:45:00 AM 3.35 38.03 0.084 7.57 72.23 12.87
1/3/2023 12:00:00 PM 3.35 38.03 0.083 7.46 47.23 12.87
1/3/2023 12:15:00 PM 3.36 38.048 0.083 7.41 65.46 12.87
1/3/2023 12:30:00 PM 3.38 38.084 0.083 7.37 80.06 12.87
1/3/2023 12:45:00 PM 3.39 38.102 0.083 7.35 85.89 12.87
1/3/2023 1:00:00 PM 3.39 38.102 0.083 7.33 79.03 12.86
1/3/2023 1:15:00 PM 3.41 38.138 0.083 7.32 71.23 12.86
1/3/2023 1:30:00 PM 3.44 38.192 0.083 7.31 55.47 12.86
1/3/2023 1:45:00 PM 3.47 38.246 0.083 7.3 55.91 12.85
1/3/2023 2:00:00 PM 3.5 38.3 0.083 7.3 42.41 12.84
1/3/2023 2:15:00 PM 3.54 38.372 0.084 7.29 38.11 12.83
1/3/2023 2:30:00 PM 3.55 38.39 0.084 7.29 36.4 12.81
1/3/2023 2:45:00 PM 3.57 38.426 0.084 7.28 34.83 12.79
1/3/2023 3:00:00 PM 3.58 38.444 0.084 7.26 34.33 12.78
1/3/2023 3:15:00 PM 3.56 38.408 0.084 7.25 35.08 12.77
1/3/2023 3:30:00 PM 3.57 38.426 0.084 7.24 33.28 12.76
1/3/2023 3:45:00 PM 3.59 38.462 0.084 7.23 35.36 12.75
1/3/2023 4:00:00 PM 3.62 38.516 0.085 7.22 38.44 12.73
1/3/2023 4:15:00 PM 3.67 38.606 0.084 7.22 41.28 12.71
1/3/2023 4:30:00 PM 3.72 38.696 0.084 7.22 43.75 12.7
1/3/2023 4:45:00 PM 3.76 38.768 0.083 7.22 49.55 12.69
1/3/2023 5:00:00 PM 3.78 38.804 0.083 7.22 56.13 12.68
1/3/2023 5:15:00 PM 3.78 38.804 0.082 7.23 65.39 12.68
1/3/2023 5:30:00 PM 3.78 38.804 0.082 7.22 68.94 12.68
1/3/2023 5:45:00 PM 3.77 38.786 0.082 7.21 76.16 12.68
1/3/2023 6:00:00 PM 3.78 38.804 0.082 7.21 71.84 12.67
1/3/2023 6:15:00 PM 3.79 38.822 0.081 7.21 84.42 12.67
1/3/2023 6:30:00 PM 3.81 38.858 0.081 7.21 85.71 12.66
1/3/2023 6:45:00 PM 3.83 38.894 0.08 7.21 88.57 12.65
1/3/2023 7:00:00 PM 3.85 38.93 0.08 7.2 93.14 12.64
1/3/2023 7:15:00 PM 3.87 38.966 0.08 7.2 97.43 12.63
1/3/2023 7:30:00 PM 3.89 39.002 0.079 7.2 99.14 12.62
1/3/2023 7:45:00 PM 3.92 39.056 0.079 7.2 102.18 12.61
1/3/2023 8:00:00 PM 3.94 39.092 0.078 7.2 100.2 12.6
1/3/2023 8:15:00 PM 3.97 39.146 0.078 7.2 100.51 12.59
1/3/2023 8:30:00 PM 3.99 39.182 0.077 7.2 98.1 12.58
1/3/2023 8:45:00 PM 4.02 39.236 0.077 7.2 92.36 12.57
1/3/2023 9:00:00 PM 4.04 39.272 0.077 7.19 84.31 12.56
1/3/2023 9:15:00 PM 4.06 39.308 0.077 7.2 86.83 12.55
1/3/2023 9:30:00 PM 4.09 39.362 0.077 7.19 75.11 12.54
1/3/2023 9:45:00 PM 4.1 39.38 0.077 7.19 80.89 12.53
1/3/2023 10:00:00 PM 4.12 39.416 0.077 7.2 75.65 12.52
1/3/2023 10:15:00 PM 4.13 39.434 0.077 7.19 71.29 12.52
1/3/2023 10:30:00 PM 4.13 39.434 0.078 7.19 67.91 12.52
1/3/2023 10:45:00 PM 4.13 39.434 0.078 7.2 64.61 12.52
1/3/2023 11:00:00 PM 4.14 39.452 0.078 7.2 64.47 12.51
1/3/2023 11:15:00 PM 4.14 39.452 0.078 7.2 53.35 12.51
1/3/2023 11:30:00 PM 4.14 39.452 0.078 7.2 57.71 12.51
1/3/2023 11:45:00 PM 4.15 39.47 0.078 7.2 55.12 12.51
1/4/2023 12:00:00 AM 4.15 39.47 0.078 7.2 54.13 12.51
1/4/2023 12:15:00 AM 4.16 39.488 0.078 7.2 56.92 12.51
1/4/2023 12:30:00 AM 4.17 39.506 0.078 7.2 47.92 12.5
1/4/2023 12:45:00 AM 4.18 39.524 0.078 7.2 48.08 12.5
1/4/2023 1:00:00 AM 4.19 39.542 0.078 7.2 49.19 12.49
1/4/2023 1:15:00 AM 4.19 39.542 0.078 7.21 48.14 12.49
1/4/2023 1:30:00 AM 4.2 39.56 0.078 7.2 42.92 12.49
1/4/2023 1:45:00 AM 4.21 39.578 0.078 7.2 41.93 12.49
1/4/2023 2:00:00 AM 4.21 39.578 0.078 7.2 42.23 12.49
1/4/2023 2:15:00 AM 4.22 39.596 0.078 7.2 50.02 12.49
1/4/2023 2:30:00 AM 4.22 39.596 0.079 7.21 34.91 12.49
1/4/2023 2:45:00 AM 4.22 39.596 0.079 7.21 38.27 12.48
1/4/2023 3:00:00 AM 4.22 39.596 0.079 7.21 36.87 12.49
1/4/2023 3:15:00 AM 4.23 39.614 0.079 7.21 36.05 12.48
1/4/2023 3:30:00 AM 4.23 39.614 0.079 7.22 46.99 12.48
1/4/2023 3:45:00 AM 4.24 39.632 0.079 7.22 36.78 12.48
1/4/2023 4:00:00 AM 4.24 39.632 0.079 7.22 35.47 12.48
1/4/2023 4:15:00 AM 4.25 39.65 0.079 7.22 35.97 12.48
1/4/2023 4:30:00 AM 4.25 39.65 0.079 7.22 31.92 12.47
1/4/2023 4:45:00 AM 4.26 39.668 0.08 7.22 32.16 12.47
1/4/2023 5:00:00 AM 4.25 39.65 0.08 7.22 30.39 12.48
1/4/2023 5:15:00 AM 4.25 39.65 0.08 7.23 29.64 12.47
1/4/2023 5:30:00 AM 4.24 39.632 0.08 7.23 26.43 12.47
1/4/2023 5:45:00 AM 4.24 39.632 0.08 7.23 25.05 12.48
1/4/2023 6:00:00 AM 4.27 39.686 0.08 7.24 28 12.47
1/4/2023 6:15:00 AM 4.27 39.686 0.08 7.24 29.23 12.47
1/4/2023 6:30:00 AM 4.27 39.686 0.08 7.25 29.52 12.47
1/4/2023 6:45:00 AM 4.27 39.686 0.08 7.25 29.02 12.47
1/4/2023 7:00:00 AM 4.26 39.668 0.08 7.24 28.19 12.48
1/4/2023 7:15:00 AM 4.28 39.704 0.08 7.24 27.2 12.48
1/4/2023 7:30:00 AM 4.29 39.722 0.08 7.24 26.97 12.48
1/4/2023 7:45:00 AM 4.29 39.722 0.08 7.24 27.19 12.48
1/4/2023 8:00:00 AM 4.31 39.758 0.081 7.24 24.52 12.48
1/4/2023 8:15:00 AM 4.33 39.794 0.081 7.24 21.28 12.48
1/4/2023 8:30:00 AM 4.35 39.83 0.081 7.24 29.85 12.49
1/4/2023 8:45:00 AM 4.36 39.848 0.081 7.25 27.72 12.5
1/4/2023 9:00:00 AM 4.38 39.884 0.081 7.25 26.41 12.51
1/4/2023 9:15:00 AM 4.4 39.92 0.081 7.26 25.32 12.53
1/4/2023 9:30:00 AM 4.42 39.956 0.081 7.26 25.95 12.53
1/4/2023 9:45:00 AM 4.44 39.992 0.081 7.26 25.37 12.53
1/4/2023 10:00:00 AM 4.48 40.064 0.081 7.27 24.8 12.54
1/4/2023 10:15:00 AM 4.51 40.118 0.081 7.27 23.48 12.53
1/4/2023 10:30:00 AM 4.54 40.172 0.081 7.27 39.56 12.53
1/4/2023 10:45:00 AM 4.57 40.226 0.081 7.27 26.6 12.53
1/4/2023 11:00:00 AM 4.61 40.298 0.081 7.28 24.92 12.53
1/4/2023 11:15:00 AM 4.66 40.388 0.081 7.29 28.2 12.53
1/4/2023 11:30:00 AM 4.7 40.46 0.081 7.3 27.28 12.53
1/4/2023 11:45:00 AM 4.75 40.55 0.081 7.3 29.39 12.52
1/4/2023 12:00:00 PM 4.78 40.604 0.081 7.31 27.21 12.51
1/4/2023 12:15:00 PM 4.81 40.658 0.081 7.31 24.71 12.5
1/4/2023 12:30:00 PM 4.83 40.694 0.081 7.31 25.56 12.48
1/4/2023 12:45:00 PM 4.83 40.694 0.081 7.31 22.34 12.46
1/4/2023 1:00:00 PM 4.85 40.73 0.081 7.31 35.8 12.43
1/4/2023 1:15:00 PM 4.88 40.784 0.081 7.31 35.23 12.42
1/4/2023 1:30:00 PM 4.91 40.838 0.081 7.31 28.91 12.4
1/4/2023 1:45:00 PM 4.94 40.892 0.081 7.31 28 12.39
1/4/2023 2:00:00 PM 4.97 40.946 0.081 7.32 21.78 12.4
1/4/2023 2:15:00 PM 5 41 0.081 7.32 26.75 12.39
1/4/2023 2:30:00 PM 5.03 41.054 0.081 7.32 22.61 12.39
1/4/2023 2:45:00 PM 5.05 41.09 0.081 7.32 24.96 12.37
1/4/2023 3:00:00 PM 5.07 41.126 0.081 7.32 31.02 12.35
1/4/2023 3:15:00 PM 5.09 41.162 0.081 7.32 24.59 12.34
1/4/2023 3:30:00 PM 5.11 41.198 0.081 7.32 27.07 12.32
1/4/2023 3:45:00 PM 5.13 41.234 0.081 7.31 22.23 12.29
1/4/2023 4:00:00 PM 5.14 41.252 0.081 7.31 24.67 12.27
1/4/2023 4:15:00 PM 5.15 41.27 0.081 7.3 25.17 12.25
1/4/2023 4:30:00 PM 5.16 41.288 0.081 7.3 25.97 12.24
1/4/2023 4:45:00 PM 5.17 41.306 0.081 7.3 20.93 12.23
1/4/2023 5:00:00 PM 5.18 41.324 0.081 7.3 21.01 12.22
1/4/2023 5:15:00 PM 5.2 41.36 0.081 7.3 18.77 12.21
1/4/2023 5:30:00 PM 5.22 41.396 0.081 7.29 19 12.19
1/4/2023 5:45:00 PM 5.24 41.432 0.082 7.29 19.95 12.19
1/4/2023 6:00:00 PM 5.26 41.468 0.082 7.29 19.55 12.18
1/4/2023 6:15:00 PM 5.28 41.504 0.082 7.29 22.36 12.17
1/4/2023 6:30:00 PM 5.3 41.54 0.082 7.29 21.47 12.17
1/4/2023 6:45:00 PM 5.32 41.576 0.082 7.3 19.79 12.16
1/4/2023 7:00:00 PM 5.35 41.63 0.082 7.3 19.94 12.15
1/4/2023 7:15:00 PM 5.36 41.648 0.082 7.3 21.29 12.14
1/4/2023 7:30:00 PM 5.37 41.666 0.082 7.3 18.93 12.14
1/4/2023 7:45:00 PM 5.39 41.702 0.082 7.3 20.27 12.13
1/4/2023 8:00:00 PM 5.41 41.738 0.082 7.3 19.7 12.12
1/4/2023 8:15:00 PM 5.43 41.774 0.082 7.3 20.87 12.11
1/4/2023 8:30:00 PM 5.45 41.81 0.082 7.3 20.52 12.11
1/4/2023 8:45:00 PM 5.47 41.846 0.082 7.3 18.86 12.1
1/4/2023 9:00:00 PM 5.49 41.882 0.082 7.3 17.69 12.09
1/4/2023 9:15:00 PM 5.51 41.918 0.082 7.3 17.5 12.08
1/4/2023 9:30:00 PM 5.54 41.972 0.082 7.3 15.33 12.07
1/4/2023 9:45:00 PM 5.56 42.008 0.082 7.31 17.85 12.06
1/4/2023 10:00:00 PM 5.59 42.062 0.082 7.31 17.32 12.05
1/4/2023 10:15:00 PM 5.61 42.098 0.082 7.31 17.63 12.04
1/4/2023 10:30:00 PM 5.63 42.134 0.082 7.31 20.1 12.03
1/4/2023 10:45:00 PM 5.64 42.152 0.082 7.31 19.74 12.02
1/4/2023 11:00:00 PM 5.63 42.134 0.082 7.31 21.25 12.02
1/4/2023 11:15:00 PM 5.64 42.152 0.082 7.31 19.23 12.02
1/4/2023 11:30:00 PM 5.65 42.17 0.082 7.31 19.22 12.01
1/4/2023 11:45:00 PM 5.66 42.188 0.082 7.31 16.81 12.01
1/5/2023 12:00:00 AM 5.67 42.206 0.082 7.31 15.6 12
1/5/2023 12:15:00 AM 5.67 42.206 0.082 7.31 17.83 12
1/5/2023 12:30:00 AM 5.67 42.206 0.082 7.31 17.47 12
1/5/2023 12:45:00 AM 5.66 42.188 0.082 7.31 17.91 12
1/5/2023 1:00:00 AM 5.65 42.17 0.082 7.31 16.96 12
1/5/2023 1:15:00 AM 5.64 42.152 0.082 7.31 16.17 12
1/5/2023 1:30:00 AM 5.65 42.17 0.082 7.31 17.79 12
1/5/2023 1:45:00 AM 5.64 42.152 0.082 7.31 15.1 12
1/5/2023 2:00:00 AM 5.63 42.134 0.082 7.31 18.24 12
1/5/2023 2:15:00 AM 5.62 42.116 0.082 7.31 16.42 12.01
1/5/2023 2:30:00 AM 5.61 42.098 0.082 7.31 16.37 12.01
1/5/2023 2:45:00 AM 5.59 42.062 0.082 7.31 16.67 12.01
1/5/2023 3:00:00 AM 5.58 42.044 0.082 7.31 14.97 12.02
1/5/2023 3:15:00 AM 5.57 42.026 0.082 7.31 15.76 12.02
1/5/2023 3:30:00 AM 5.55 41.99 0.083 7.31 18.05 12.03
1/5/2023 3:45:00 AM 5.54 41.972 0.083 7.31 15.91 12.03
1/5/2023 4:00:00 AM 5.53 41.954 0.083 7.31 15.69 12.03
1/5/2023 4:15:00 AM 5.53 41.954 0.083 7.31 17.28 12.04
1/5/2023 4:30:00 AM 5.51 41.918 0.083 7.31 15.2 12.04
1/5/2023 4:45:00 AM 5.49 41.882 0.083 7.31 14.54 12.05
1/5/2023 5:00:00 AM 5.47 41.846 0.083 7.32 15.06 12.05
1/5/2023 5:15:00 AM 5.45 41.81 0.083 7.32 14.72 12.06
1/5/2023 5:30:00 AM 5.43 41.774 0.083 7.32 14.47 12.07
1/5/2023 5:45:00 AM 5.41 41.738 0.083 7.32 13.44 12.07
1/5/2023 6:00:00 AM 5.39 41.702 0.083 7.32 14.1 12.08
1/5/2023 6:15:00 AM 5.38 41.684 0.083 7.32 13.83 12.08
1/5/2023 6:30:00 AM 5.36 41.648 0.083 7.32 14.2 12.09
1/5/2023 6:45:00 AM 5.34 41.612 0.083 7.32 14.78 12.09
1/5/2023 7:00:00 AM 5.32 41.576 0.083 7.32 13.79 12.1
1/5/2023 7:15:00 AM 5.31 41.558 0.083 7.32 14.26 12.1
1/5/2023 7:30:00 AM 5.28 41.504 0.084 7.32 13.2 12.11
1/5/2023 7:45:00 AM 5.25 41.45 0.084 7.32 13.69 12.12
1/5/2023 8:00:00 AM 5.23 41.414 0.084 7.32 12.78 12.13
1/5/2023 8:15:00 AM 5.2 41.36 0.084 7.32 13.4 12.15
1/5/2023 8:30:00 AM 5.18 41.324 0.084 7.33 14.16 12.18
1/5/2023 8:45:00 AM 5.18 41.324 0.084 7.33 14.74 12.21
1/5/2023 9:00:00 AM 5.18 41.324 0.084 7.34 13.63 12.24
1/5/2023 9:15:00 AM 5.19 41.342 0.084 7.35 12.72 12.28
1/5/2023 9:30:00 AM 5.22 41.396 0.084 7.36 13.18 12.31
1/5/2023 9:45:00 AM 5.26 41.468 0.084 7.37 12.87 12.34
1/5/2023 10:00:00 AM 5.26 41.468 0.084 7.37 12.36 12.33
1/5/2023 10:15:00 AM 5.3 41.54 0.084 7.37 12.34 12.33
1/5/2023 10:30:00 AM 5.34 41.612 0.084 7.38 13.93 12.34
1/5/2023 10:45:00 AM 5.39 41.702 0.084 7.39 13.67 12.35
1/5/2023 11:00:00 AM 5.43 41.774 0.084 7.39 13.08 12.35
1/5/2023 11:15:00 AM 5.46 41.828 0.084 7.4 13.05 12.35
1/5/2023 11:30:00 AM 5.48 41.864 0.084 7.4 12.66 12.35
1/5/2023 11:45:00 AM 5.51 41.918 0.084 7.41 14 12.34
1/5/2023 12:00:00 PM 5.53 41.954 0.084 7.41 12.68 12.34
1/5/2023 12:15:00 PM 5.56 42.008 0.084 7.41 13.19 12.34
1/5/2023 12:30:00 PM 5.57 42.026 0.084 7.42 12.02 12.34
1/5/2023 12:45:00 PM 5.58 42.044 0.084 7.42 12.14 12.34
1/5/2023 1:00:00 PM 5.59 42.062 0.084 7.42 11.48 12.33
1/5/2023 1:15:00 PM 5.58 42.044 0.084 7.42 11.95 12.32
1/5/2023 1:30:00 PM 5.59 42.062 0.084 7.42 11.51 12.32
1/5/2023 1:45:00 PM 5.59 42.062 0.084 7.42 12.89 12.31
1/5/2023 2:00:00 PM 5.58 42.044 0.084 7.43 12.9 12.3
1/5/2023 2:15:00 PM 5.58 42.044 0.084 7.42 13.57 12.3
1/5/2023 2:30:00 PM 5.58 42.044 0.084 7.42 12.46 12.3
1/5/2023 2:45:00 PM 5.55 41.99 0.084 7.42 12.53 12.28
1/5/2023 3:00:00 PM 5.54 41.972 0.084 7.42 11.72 12.28
1/5/2023 3:15:00 PM 5.54 41.972 0.084 7.42 11.21 12.28
1/5/2023 3:30:00 PM 5.53 41.954 0.084 7.42 11.66 12.26
1/5/2023 3:45:00 PM 5.52 41.936 0.084 7.41 11.98 12.25
1/5/2023 4:00:00 PM 5.5 41.9 0.084 7.41 11.14 12.23
1/5/2023 4:15:00 PM 5.49 41.882 0.084 7.4 11.34 12.21
1/5/2023 4:30:00 PM 5.47 41.846 0.084 7.39 11.95 12.2
1/5/2023 4:45:00 PM 5.47 41.846 0.084 7.39 11.56 12.18
1/5/2023 5:00:00 PM 5.46 41.828 0.084 7.39 11.22 12.17
1/5/2023 5:15:00 PM 5.45 41.81 0.085 7.38 11.76 12.16
1/5/2023 5:30:00 PM 5.45 41.81 0.084 7.38 11.94 12.16
1/5/2023 5:45:00 PM 5.43 41.774 0.085 7.37 11.61 12.16
1/5/2023 6:00:00 PM 5.42 41.756 0.085 7.37 11.29 12.16
1/5/2023 6:15:00 PM 5.4 41.72 0.085 7.37 11.65 12.16
1/5/2023 6:30:00 PM 5.37 41.666 0.085 7.36 11.27 12.17
1/5/2023 6:45:00 PM 5.33 41.594 0.085 7.36 11.27 12.17
1/5/2023 7:00:00 PM 5.31 41.558 0.085 7.37 10.84 12.18
1/5/2023 7:15:00 PM 5.28 41.504 0.085 7.36 10.97 12.19
1/5/2023 7:30:00 PM 5.26 41.468 0.085 7.36 11.44 12.19
1/5/2023 7:45:00 PM 5.23 41.414 0.085 7.36 9.92 12.2
1/5/2023 8:00:00 PM 5.21 41.378 0.085 7.36 11.41 12.21
1/5/2023 8:15:00 PM 5.19 41.342 0.085 7.36 11.4 12.21
1/5/2023 8:30:00 PM 5.18 41.324 0.085 7.36 11.27 12.22
1/5/2023 8:45:00 PM 5.17 41.306 0.085 7.36 11.45 12.22
1/5/2023 9:00:00 PM 5.15 41.27 0.085 7.36 11.05 12.22
1/5/2023 9:15:00 PM 5.13 41.234 0.085 7.36 9.99 12.23
1/5/2023 9:30:00 PM 5.11 41.198 0.085 7.36 10.67 12.23
1/5/2023 9:45:00 PM 5.09 41.162 0.085 7.36 10.62 12.24
1/5/2023 10:00:00 PM 5.07 41.126 0.085 7.36 9.76 12.24
1/5/2023 10:15:00 PM 5.05 41.09 0.085 7.35 9.94 12.25
1/5/2023 10:30:00 PM 5.03 41.054 0.085 7.35 10.8 12.25
1/5/2023 10:45:00 PM 5 41 0.085 7.35 10.5 12.25
1/5/2023 11:00:00 PM 4.97 40.946 0.085 7.35 10.16 12.26
1/5/2023 11:15:00 PM 4.94 40.892 0.085 7.35 11.13 12.27
1/5/2023 11:30:00 PM 4.92 40.856 0.085 7.35 10.28 12.27
1/5/2023 11:45:00 PM 4.9 40.82 0.085 7.34 10.73 12.27
1/6/2023 12:00:00 AM 4.89 40.802 0.085 7.35 10.59 12.27
1/6/2023 12:15:00 AM 4.88 40.784 0.085 7.34 10.71 12.27
1/6/2023 12:30:00 AM 4.87 40.766 0.085 7.34 10.42 12.28
1/6/2023 12:45:00 AM 4.85 40.73 0.085 7.34 10.62 12.28
1/6/2023 1:00:00 AM 4.85 40.73 0.085 7.34 10.41 12.27
1/6/2023 1:15:00 AM 4.84 40.712 0.085 7.34 10.77 12.27
1/6/2023 1:30:00 AM 4.83 40.694 0.085 7.34 10.73 12.27
1/6/2023 1:45:00 AM 4.81 40.658 0.085 7.34 10.32 12.27
1/6/2023 2:00:00 AM 4.8 40.64 0.085 7.33 9.91 12.27
1/6/2023 2:15:00 AM 4.79 40.622 0.085 7.34 9.75 12.28
1/6/2023 2:30:00 AM 4.78 40.604 0.085 7.34 10.73 12.28
1/6/2023 2:45:00 AM 4.77 40.586 0.085 7.34 10.37 12.28
1/6/2023 3:00:00 AM 4.76 40.568 0.085 7.34 10.07 12.28
1/6/2023 3:15:00 AM 4.75 40.55 0.085 7.34 9.68 12.29
1/6/2023 3:30:00 AM 4.73 40.514 0.085 7.33 10.47 12.29
1/6/2023 3:45:00 AM 4.72 40.496 0.085 7.33 10.46 12.29
1/6/2023 4:00:00 AM 4.7 40.46 0.085 7.33 10.03 12.3
1/6/2023 4:15:00 AM 4.69 40.442 0.085 7.33 9.85 12.3
1/6/2023 4:30:00 AM 4.68 40.424 0.085 7.33 10.13 12.3
1/6/2023 4:45:00 AM 4.66 40.388 0.085 7.33 10.45 12.31
1/6/2023 5:00:00 AM 4.64 40.352 0.086 7.33 10.27 12.31
1/6/2023 5:15:00 AM 4.62 40.316 0.086 7.33 10.45 12.32
1/6/2023 5:30:00 AM 4.6 40.28 0.086 7.33 10.66 12.32
1/6/2023 5:45:00 AM 4.57 40.226 0.086 7.33 10.46 12.33
1/6/2023 6:00:00 AM 4.55 40.19 0.086 7.33 10.5 12.34
1/6/2023 6:15:00 AM 4.52 40.136 0.086 7.33 9.54 12.35
1/6/2023 6:30:00 AM 4.5 40.1 0.086 7.33 9.9 12.36
1/6/2023 6:45:00 AM 4.48 40.064 0.086 7.33 9.63 12.37
1/6/2023 7:00:00 AM 4.46 40.028 0.086 7.33 10.01 12.38
1/6/2023 7:15:00 AM 4.43 39.974 0.086 7.33 9.97 12.39
1/6/2023 7:30:00 AM 4.41 39.938 0.086 7.33 10.52 12.4
1/6/2023 7:45:00 AM 4.39 39.902 0.086 7.33 9.57 12.41
1/6/2023 8:00:00 AM 4.38 39.884 0.086 7.33 10.79 12.43
1/6/2023 8:15:00 AM 4.37 39.866 0.086 7.33 10.45 12.45
1/6/2023 8:30:00 AM 4.36 39.848 0.086 7.34 10.68 12.47
1/6/2023 8:45:00 AM 4.36 39.848 0.086 7.34 8.97 12.49
1/6/2023 9:00:00 AM 4.35 39.83 0.086 7.34 9.35 12.52
1/6/2023 9:15:00 AM 4.35 39.83 0.086 7.35 9.61 12.54
1/6/2023 9:30:00 AM 4.36 39.848 0.086 7.35 9.73 12.57
1/6/2023 9:45:00 AM 4.37 39.866 0.086 7.36 9.46 12.59
1/6/2023 10:00:00 AM 4.37 39.866 0.086 7.37 10.23 12.59
1/6/2023 10:15:00 AM 4.36 39.848 0.086 7.37 10.29 12.6
1/6/2023 10:30:00 AM 4.37 39.866 0.086 7.38 13.16 12.63
1/6/2023 10:45:00 AM 4.38 39.884 0.086 7.39 10.77 12.65
1/6/2023 11:00:00 AM 4.4 39.92 0.086 7.4 9.89 12.68
1/6/2023 11:15:00 AM 4.4 39.92 0.086 7.41 10.66 12.68
1/6/2023 11:30:00 AM 4.43 39.974 0.087 7.41 9.76 12.7
1/6/2023 11:45:00 AM 4.43 39.974 0.087 7.42 10.14 12.7
1/6/2023 12:00:00 PM 4.41 39.938 0.087 7.42 9.39 12.68
1/6/2023 12:15:00 PM 4.43 39.974 0.087 7.42 9.52 12.71
1/6/2023 12:30:00 PM 4.45 40.01 0.087 7.43 9.89 12.72
1/6/2023 12:45:00 PM 4.46 40.028 0.087 7.44 10.3 12.73
1/6/2023 1:00:00 PM 4.44 39.992 0.087 7.43 9.85 12.69
1/6/2023 1:15:00 PM 4.4 39.92 0.087 7.43 10.36 12.68
1/6/2023 1:30:00 PM 4.39 39.902 0.087 7.43 10.52 12.69
1/6/2023 1:45:00 PM 4.38 39.884 0.087 7.43 10.88 12.71
1/6/2023 2:00:00 PM 4.38 39.884 0.087 7.44 11.62 12.73
1/6/2023 2:15:00 PM 4.38 39.884 0.087 7.44 10.43 12.74
1/6/2023 2:30:00 PM 4.38 39.884 0.087 7.45 10.3 12.75
1/6/2023 2:45:00 PM 4.37 39.866 0.087 7.45 9.8 12.75
1/6/2023 3:00:00 PM 4.35 39.83 0.087 7.45 9.6 12.74
1/6/2023 3:15:00 PM 4.32 39.776 0.087 7.44 9.49 12.72
1/6/2023 3:30:00 PM 4.28 39.704 0.087 7.44 9.53 12.7
1/6/2023 3:45:00 PM 4.25 39.65 0.087 7.43 9.79 12.68
1/6/2023 4:00:00 PM 4.24 39.632 0.087 7.42 9.71 12.67
1/6/2023 4:15:00 PM 4.24 39.632 0.087 7.42 9.25 12.65
1/6/2023 4:30:00 PM 4.23 39.614 0.087 7.41 9.28 12.63
1/6/2023 4:45:00 PM 4.21 39.578 0.087 7.4 9.29 12.61
1/6/2023 5:00:00 PM 4.19 39.542 0.087 7.4 9.01 12.61
1/6/2023 5:15:00 PM 4.18 39.524 0.087 7.39 9.42 12.6
1/6/2023 5:30:00 PM 4.17 39.506 0.087 7.39 8.91 12.6
1/6/2023 5:45:00 PM 4.16 39.488 0.087 7.39 8.08 12.6
1/6/2023 6:00:00 PM 4.15 39.47 0.088 7.39 8.25 12.6
1/6/2023 6:15:00 PM 4.14 39.452 0.088 7.38 9.32 12.6
1/6/2023 6:30:00 PM 4.13 39.434 0.087 7.38 8.86 12.61
1/6/2023 6:45:00 PM 4.13 39.434 0.087 7.38 8.17 12.61
1/6/2023 7:00:00 PM 4.12 39.416 0.087 7.38 8.68 12.62
1/6/2023 7:15:00 PM 4.12 39.416 0.088 7.38 8.28 12.62
1/6/2023 7:30:00 PM 4.12 39.416 0.087 7.38 8.3 12.62
1/6/2023 7:45:00 PM 4.12 39.416 0.087 7.38 8.37 12.63
1/6/2023 8:00:00 PM 4.11 39.398 0.087 7.38 8.31 12.63
1/6/2023 8:15:00 PM 4.1 39.38 0.087 7.38 8.23 12.63
1/6/2023 8:30:00 PM 4.1 39.38 0.087 7.38 8.17 12.63
1/6/2023 8:45:00 PM 4.09 39.362 0.087 7.38 8.55 12.64
1/6/2023 9:00:00 PM 4.08 39.344 0.087 7.38 8.51 12.64
1/6/2023 9:15:00 PM 4.07 39.326 0.088 7.38 8.74 12.64
1/6/2023 9:30:00 PM 4.06 39.308 0.088 7.38 8.92 12.65
1/6/2023 9:45:00 PM 4.05 39.29 0.088 7.38 8.87 12.65
1/6/2023 10:00:00 PM 4.04 39.272 0.087 7.38 8.86 12.65
1/6/2023 10:15:00 PM 4.03 39.254 0.088 7.38 8.79 12.65
1/6/2023 10:30:00 PM 4.02 39.236 0.088 7.38 8.66 12.66
1/6/2023 10:45:00 PM 4.01 39.218 0.088 7.38 8.46 12.66
1/6/2023 11:00:00 PM 3.99 39.182 0.088 7.38 8.91 12.67
1/6/2023 11:15:00 PM 3.98 39.164 0.088 7.38 9.24 12.67
1/6/2023 11:30:00 PM 3.97 39.146 0.088 7.38 7.88 12.67
1/6/2023 11:45:00 PM 3.96 39.128 0.088 7.38 8.63 12.68
1/7/2023 12:00:00 AM 3.94 39.092 0.088 7.38 8.39 12.68
1/7/2023 12:15:00 AM 3.93 39.074 0.088 7.38 9.15 12.68
1/7/2023 12:30:00 AM 3.92 39.056 0.088 7.38 8.6 12.68
1/7/2023 12:45:00 AM 3.91 39.038 0.088 7.38 8.75 12.68
1/7/2023 1:00:00 AM 3.9 39.02 0.088 7.38 9.11 12.68
1/7/2023 1:15:00 AM 3.88 38.984 0.088 7.38 9.09 12.68
1/7/2023 1:30:00 AM 3.87 38.966 0.088 7.38 8.77 12.68
1/7/2023 1:45:00 AM 3.86 38.948 0.088 7.38 8.79 12.68
1/7/2023 2:00:00 AM 3.85 38.93 0.088 7.38 8.61 12.69
1/7/2023 2:15:00 AM 3.84 38.912 0.088 7.37 9.16 12.68
1/7/2023 2:30:00 AM 3.83 38.894 0.088 7.37 9.26 12.69
1/7/2023 2:45:00 AM 3.82 38.876 0.088 7.37 8.4 12.69
1/7/2023 3:00:00 AM 3.81 38.858 0.088 7.37 8.6 12.69
1/7/2023 3:15:00 AM 3.79 38.822 0.088 7.37 9.16 12.7
1/7/2023 3:30:00 AM 3.78 38.804 0.088 7.37 9.02 12.7
1/7/2023 3:45:00 AM 3.77 38.786 0.088 7.37 7.99 12.7
1/7/2023 4:00:00 AM 3.76 38.768 0.088 7.37 8.55 12.71
1/7/2023 4:15:00 AM 3.74 38.732 0.088 7.37 9.23 12.71
1/7/2023 4:30:00 AM 3.73 38.714 0.088 7.37 9.02 12.71
1/7/2023 4:45:00 AM 3.72 38.696 0.088 7.37 9.01 12.71
1/7/2023 5:00:00 AM 3.7 38.66 0.088 7.37 9.08 12.72
1/7/2023 5:15:00 AM 3.69 38.642 0.088 7.37 8.62 12.72
1/7/2023 5:30:00 AM 3.68 38.624 0.088 7.36 8.54 12.73
1/7/2023 5:45:00 AM 3.67 38.606 0.088 7.36 9.22 12.73
1/7/2023 6:00:00 AM 3.66 38.588 0.088 7.36 9.67 12.74
1/7/2023 6:15:00 AM 3.64 38.552 0.088 7.36 8.64 12.74
1/7/2023 6:30:00 AM 3.63 38.534 0.088 7.36 8.57 12.75
1/7/2023 6:45:00 AM 3.62 38.516 0.088 7.36 8.54 12.76
1/7/2023 7:00:00 AM 3.6 38.48 0.088 7.36 8.37 12.76
1/7/2023 7:15:00 AM 3.59 38.462 0.088 7.36 8.2 12.76
1/7/2023 7:30:00 AM 3.58 38.444 0.088 7.36 8.81 12.77
1/7/2023 7:45:00 AM 3.57 38.426 0.088 7.36 8.31 12.78
1/7/2023 8:00:00 AM 3.55 38.39 0.088 7.36 8.96 12.79
1/7/2023 8:15:00 AM 3.54 38.372 0.088 7.36 8.7 12.8
1/7/2023 8:30:00 AM 3.54 38.372 0.088 7.37 8.92 12.82
1/7/2023 8:45:00 AM 3.54 38.372 0.088 7.37 8.6 12.84
1/7/2023 9:00:00 AM 3.53 38.354 0.088 7.37 8.52 12.87
1/7/2023 9:15:00 AM 3.54 38.372 0.088 7.38 8.6 12.9
1/7/2023 9:30:00 AM 3.56 38.408 0.088 7.39 8.36 12.95
1/7/2023 9:45:00 AM 3.57 38.426 0.088 7.4 9.07 12.97
1/7/2023 10:00:00 AM 3.58 38.444 0.088 7.41 8.64 12.97
1/7/2023 10:15:00 AM 3.58 38.444 0.088 7.41 8.25 12.97
1/7/2023 10:30:00 AM 3.58 38.444 0.088 7.41 8.38 12.99
1/7/2023 10:45:00 AM 3.59 38.462 0.088 7.42 8.82 13.01
1/7/2023 11:00:00 AM 3.62 38.516 0.088 7.43 8.3 13.04
1/7/2023 11:15:00 AM 3.66 38.588 0.088 7.44 8.14 13.06
1/7/2023 11:30:00 AM 3.69 38.642 0.088 7.45 9.02 13.07
1/7/2023 11:45:00 AM 3.7 38.66 0.088 7.45 8.66 13.07
1/7/2023 12:00:00 PM 3.69 38.642 0.088 7.45 8.53 13.05
1/7/2023 12:15:00 PM 3.67 38.606 0.088 7.45 8.7 13.02
1/7/2023 12:30:00 PM 3.66 38.588 0.088 7.45 8.46 13.01
1/7/2023 12:45:00 PM 3.67 38.606 0.088 7.45 7.44 13.02
1/7/2023 1:00:00 PM 3.7 38.66 0.088 7.45 8.05 13.04
1/7/2023 1:15:00 PM 3.72 38.696 0.088 7.46 8.2 13.05
1/7/2023 1:30:00 PM 3.7 38.66 0.089 7.46 8.17 13.02
1/7/2023 1:45:00 PM 3.68 38.624 0.089 7.45 8.2 13.02
1/7/2023 2:00:00 PM 3.7 38.66 0.089 7.46 8.22 13.05
1/7/2023 2:15:00 PM 3.71 38.678 0.089 7.46 7.97 13.05
1/7/2023 2:30:00 PM 3.72 38.696 0.089 7.47 7.5 13.06
1/7/2023 2:45:00 PM 3.72 38.696 0.089 7.47 8.2 13.05
1/7/2023 3:00:00 PM 3.71 38.678 0.089 7.47 7.78 13.04
1/7/2023 3:15:00 PM 3.7 38.66 0.089 7.47 7.48 13.02
1/7/2023 3:30:00 PM 3.67 38.606 0.089 7.46 8.14 12.98
1/7/2023 3:45:00 PM 3.65 38.57 0.089 7.45 7.9 12.95
1/7/2023 4:00:00 PM 3.64 38.552 0.089 7.44 8.02 12.93
1/7/2023 4:15:00 PM 3.63 38.534 0.089 7.44 8.13 12.93
1/7/2023 4:30:00 PM 3.62 38.516 0.089 7.43 7.95 12.92
1/7/2023 4:45:00 PM 3.6 38.48 0.089 7.43 7.95 12.91
1/7/2023 5:00:00 PM 3.58 38.444 0.089 7.42 7.61 12.89
1/7/2023 5:15:00 PM 3.56 38.408 0.089 7.41 7.78 12.88
1/7/2023 5:30:00 PM 3.55 38.39 0.089 7.41 6.9 12.87
1/7/2023 5:45:00 PM 3.54 38.372 0.089 7.4 7.08 12.87
1/7/2023 6:00:00 PM 3.53 38.354 0.089 7.4 8.15 12.87
1/7/2023 6:15:00 PM 3.52 38.336 0.089 7.4 7.88 12.88
1/7/2023 6:30:00 PM 3.52 38.336 0.089 7.4 7.4 12.88
1/7/2023 6:45:00 PM 3.52 38.336 0.089 7.4 7.56 12.88
1/7/2023 7:00:00 PM 3.51 38.318 0.089 7.4 7.64 12.89
1/7/2023 7:15:00 PM 3.51 38.318 0.089 7.4 7.48 12.89
1/7/2023 7:30:00 PM 3.51 38.318 0.089 7.4 7.97 12.89
1/7/2023 7:45:00 PM 3.51 38.318 0.089 7.4 8.1 12.89
1/7/2023 8:00:00 PM 3.5 38.3 0.089 7.4 7.83 12.9
1/7/2023 8:15:00 PM 3.5 38.3 0.089 7.4 7.53 12.9
1/7/2023 8:30:00 PM 3.5 38.3 0.089 7.4 7.82 12.9
1/7/2023 8:45:00 PM 3.5 38.3 0.089 7.4 7.74 12.9
1/7/2023 9:00:00 PM 3.48 38.264 0.089 7.4 7.73 12.91
1/7/2023 9:15:00 PM 3.47 38.246 0.089 7.4 7.68 12.91
1/7/2023 9:30:00 PM 3.46 38.228 0.089 7.4 7.62 12.91
1/7/2023 9:45:00 PM 3.46 38.228 0.089 7.4 7.61 12.91
1/7/2023 10:00:00 PM 3.45 38.21 0.089 7.4 7.16 12.92
1/7/2023 10:15:00 PM 3.44 38.192 0.089 7.4 7.7 12.92
1/7/2023 10:30:00 PM 3.43 38.174 0.089 7.4 7.28 12.92
1/7/2023 10:45:00 PM 3.42 38.156 0.089 7.4 7.54 12.92
1/7/2023 11:00:00 PM 3.42 38.156 0.089 7.4 7.44 12.93
1/7/2023 11:15:00 PM 3.41 38.138 0.089 7.4 7.53 12.93
1/7/2023 11:30:00 PM 3.4 38.12 0.089 7.4 7.29 12.93
1/7/2023 11:45:00 PM 3.39 38.102 0.09 7.4 7.79 12.94
1/8/2023 12:00:00 AM 3.36 38.048 0.09 7.4 7.55 12.94
1/8/2023 12:15:00 AM 3.35 38.03 0.09 7.4 7.93 12.94
1/8/2023 12:30:00 AM 3.34 38.012 0.09 7.39 7.89 12.95
1/8/2023 12:45:00 AM 3.33 37.994 0.09 7.4 7.66 12.95
1/8/2023 1:00:00 AM 3.32 37.976 0.09 7.4 7.42 12.95
1/8/2023 1:15:00 AM 3.31 37.958 0.09 7.4 7.65 12.96
1/8/2023 1:30:00 AM 3.3 37.94 0.09 7.4 7.21 12.96
1/8/2023 1:45:00 AM 3.29 37.922 0.09 7.39 7.31 12.96
1/8/2023 2:00:00 AM 3.28 37.904 0.09 7.4 7.72 12.96
1/8/2023 2:15:00 AM 3.27 37.886 0.09 7.39 7.55 12.96
1/8/2023 2:30:00 AM 3.26 37.868 0.09 7.39 7.43 12.97
1/8/2023 2:45:00 AM 3.25 37.85 0.09 7.39 7.85 12.97
1/8/2023 3:00:00 AM 3.23 37.814 0.09 7.39 7.35 12.98
1/8/2023 3:15:00 AM 3.22 37.796 0.09 7.39 7.48 12.98
1/8/2023 3:30:00 AM 3.2 37.76 0.09 7.39 7.49 12.98
1/8/2023 3:45:00 AM 3.18 37.724 0.09 7.39 7.57 12.99
1/8/2023 4:00:00 AM 3.17 37.706 0.09 7.39 8.24 12.99
1/8/2023 4:15:00 AM 3.16 37.688 0.09 7.39 7.82 12.99
1/8/2023 4:30:00 AM 3.15 37.67 0.09 7.39 8 13
1/8/2023 4:45:00 AM 3.13 37.634 0.09 7.39 7.71 13
1/8/2023 5:00:00 AM 3.11 37.598 0.09 7.39 7.57 13.01
1/8/2023 5:15:00 AM 3.1 37.58 0.09 7.39 7.64 13.01
1/8/2023 5:30:00 AM 3.09 37.562 0.09 7.39 7.66 13.01
1/8/2023 5:45:00 AM 3.07 37.526 0.09 7.39 7.56 13.02
1/8/2023 6:00:00 AM 3.05 37.49 0.09 7.39 7.68 13.02
1/8/2023 6:15:00 AM 3.02 37.436 0.09 7.39 7.64 13.03
1/8/2023 6:30:00 AM 3 37.4 0.09 7.39 8.15 13.04
1/8/2023 6:45:00 AM 2.98 37.364 0.09 7.39 8.15 13.04
1/8/2023 7:00:00 AM 2.97 37.346 0.09 7.39 7.23 13.05
1/8/2023 7:15:00 AM 2.96 37.328 0.09 7.39 7.57 13.05
1/8/2023 7:30:00 AM 2.94 37.292 0.09 7.39 7.33 13.06
1/8/2023 7:45:00 AM 2.93 37.274 0.09 7.39 6.95 13.08
1/8/2023 8:00:00 AM 2.91 37.238 0.09 7.39 7.72 13.1
1/8/2023 8:15:00 AM 2.89 37.202 0.09 7.4 7.76 13.14
1/8/2023 8:30:00 AM 2.88 37.184 0.09 7.41 7.55 13.18
1/8/2023 8:45:00 AM 2.87 37.166 0.09 7.41 7.41 13.23
1/8/2023 9:00:00 AM 2.87 37.166 0.09 7.43 7.68 13.26
1/8/2023 9:15:00 AM 2.88 37.184 0.09 7.43 7.41 13.3
1/8/2023 9:30:00 AM 2.9 37.22 0.09 7.44 7.18 13.33
1/8/2023 9:45:00 AM 2.92 37.256 0.09 7.45 7.24 13.37
1/8/2023 10:00:00 AM 2.93 37.274 0.09 7.46 7.24 13.38
1/8/2023 10:15:00 AM 2.95 37.31 0.09 7.47 7.32 13.4
1/8/2023 10:30:00 AM 2.98 37.364 0.09 7.48 7.61 13.4
1/8/2023 10:45:00 AM 3.01 37.418 0.09 7.48 7.67 13.41
1/8/2023 11:00:00 AM 3.05 37.49 0.09 7.49 7.31 13.41
1/8/2023 11:15:00 AM 3.06 37.508 0.09 7.49 7.02 13.4
1/8/2023 11:30:00 AM 3.09 37.562 0.09 7.49 7.35 13.39
1/8/2023 11:45:00 AM 3.12 37.616 0.09 7.5 7.77 13.39
1/8/2023 12:00:00 PM 3.17 37.706 0.09 7.5 6.51 13.37
1/8/2023 12:15:00 PM 3.19 37.742 0.09 7.5 7.41 13.37
1/8/2023 12:30:00 PM 3.22 37.796 0.09 7.5 7.8 13.36
1/8/2023 12:45:00 PM 3.22 37.796 0.091 7.5 7.18 13.35
1/8/2023 1:00:00 PM 3.21 37.778 0.091 7.5 6.85 13.34
1/8/2023 1:15:00 PM 3.21 37.778 0.091 7.5 7.06 13.33
1/8/2023 1:30:00 PM 3.22 37.796 0.091 7.5 7.77 13.32
1/8/2023 1:45:00 PM 3.22 37.796 0.091 7.5 7.37 13.31
1/8/2023 2:00:00 PM 3.21 37.778 0.091 7.5 6.39 13.3
1/8/2023 2:15:00 PM 3.2 37.76 0.091 7.5 7.45 13.29
1/8/2023 2:30:00 PM 3.18 37.724 0.091 7.5 7.37 13.28
1/8/2023 2:45:00 PM 3.17 37.706 0.091 7.5 7.6 13.27
1/8/2023 3:00:00 PM 3.13 37.634 0.091 7.5 7.24 13.25
1/8/2023 3:15:00 PM 3.12 37.616 0.091 7.49 7.36 13.24
1/8/2023 3:30:00 PM 3.11 37.598 0.091 7.49 6.12 13.24
1/8/2023 3:45:00 PM 3.08 37.544 0.091 7.49 7.07 13.22
1/8/2023 4:00:00 PM 3.06 37.508 0.091 7.48 6.7 13.21
1/8/2023 4:15:00 PM 3.04 37.472 0.091 7.48 6.61 13.19
1/8/2023 4:30:00 PM 3.03 37.454 0.091 7.47 7.02 13.16
1/8/2023 4:45:00 PM 3 37.4 0.091 7.46 6.95 13.14
1/8/2023 5:00:00 PM 2.98 37.364 0.091 7.45 7.17 13.11
1/8/2023 5:15:00 PM 2.95 37.31 0.091 7.44 7.06 13.09
1/8/2023 5:30:00 PM 2.92 37.256 0.091 7.44 7.08 13.08
1/8/2023 5:45:00 PM 2.9 37.22 0.092 7.43 7.25 13.08
1/8/2023 6:00:00 PM 2.88 37.184 0.092 7.43 7.44 13.08
1/8/2023 6:15:00 PM 2.86 37.148 0.092 7.42 7.41 13.07
1/8/2023 6:30:00 PM 2.84 37.112 0.092 7.42 7.68 13.08
1/8/2023 6:45:00 PM 2.82 37.076 0.092 7.42 7.01 13.08
1/8/2023 7:00:00 PM 2.8 37.04 0.092 7.42 7.42 13.08
1/8/2023 7:15:00 PM 2.78 37.004 0.092 7.42 7.36 13.09
1/8/2023 7:30:00 PM 2.76 36.968 0.092 7.42 7.48 13.09
1/8/2023 7:45:00 PM 2.75 36.95 0.092 7.41 6.66 13.1
1/8/2023 8:00:00 PM 2.73 36.914 0.092 7.41 7.32 13.1
1/8/2023 8:15:00 PM 2.7 36.86 0.092 7.41 7.36 13.1
1/8/2023 8:30:00 PM 2.68 36.824 0.092 7.41 7.2 13.11
1/8/2023 8:45:00 PM 2.65 36.77 0.092 7.41 7.27 13.11
1/8/2023 9:00:00 PM 2.62 36.716 0.092 7.41 7.09 13.12
1/8/2023 9:15:00 PM 2.61 36.698 0.092 7.41 7.13 13.13
1/8/2023 9:30:00 PM 2.6 36.68 0.092 7.41 6.92 13.13
1/8/2023 9:45:00 PM 2.58 36.644 0.092 7.41 7.1 13.13
1/8/2023 10:00:00 PM 2.56 36.608 0.092 7.41 7.03 13.14
1/8/2023 10:15:00 PM 2.55 36.59 0.092 7.41 7.44 13.14
1/8/2023 10:30:00 PM 2.53 36.554 0.092 7.41 7.01 13.14
1/8/2023 10:45:00 PM 2.49 36.482 0.092 7.41 6.89 13.15
1/8/2023 11:00:00 PM 2.45 36.41 0.092 7.41 6.93 13.16
1/8/2023 11:15:00 PM 2.42 36.356 0.092 7.41 6.8 13.17
1/8/2023 11:30:00 PM 2.4 36.32 0.092 7.41 7.29 13.17
1/8/2023 11:45:00 PM 2.39 36.302 0.092 7.41 6.72 13.18
1/9/2023 12:00:00 AM 2.37 36.266 0.092 7.4 6.72 13.18
1/9/2023 12:15:00 AM 2.35 36.23 0.092 7.4 7.21 13.19
1/9/2023 12:30:00 AM 2.32 36.176 0.092 7.4 6.81 13.2
1/9/2023 12:45:00 AM 2.3 36.14 0.092 7.4 6.8 13.2
1/9/2023 1:00:00 AM 2.28 36.104 0.092 7.4 6.83 13.21
1/9/2023 1:15:00 AM 2.27 36.086 0.092 7.4 7.28 13.21
1/9/2023 1:30:00 AM 2.25 36.05 0.092 7.4 6.86 13.22
1/9/2023 1:45:00 AM 2.23 36.014 0.092 7.4 7.04 13.22
1/9/2023 2:00:00 AM 2.21 35.978 0.092 7.4 7.26 13.23
1/9/2023 2:15:00 AM 2.2 35.96 0.092 7.4 7.11 13.23
1/9/2023 2:30:00 AM 2.18 35.924 0.092 7.4 7.3 13.24
1/9/2023 2:45:00 AM 2.16 35.888 0.092 7.4 7.02 13.24
1/9/2023 3:00:00 AM 2.15 35.87 0.092 7.4 6.94 13.24
1/9/2023 3:15:00 AM 2.12 35.816 0.092 7.4 7.14 13.25
1/9/2023 3:30:00 AM 2.11 35.798 0.092 7.4 6.94 13.25
1/9/2023 3:45:00 AM 2.1 35.78 0.092 7.39 6.47 13.25
1/9/2023 4:00:00 AM 2.08 35.744 0.092 7.39 7.18 13.25
1/9/2023 4:15:00 AM 2.07 35.726 0.092 7.39 6.96 13.25
1/9/2023 4:30:00 AM 2.06 35.708 0.092 7.39 6.85 13.25
1/9/2023 4:45:00 AM 2.04 35.672 0.092 7.39 6.46 13.26
1/9/2023 5:00:00 AM 2 35.6 0.092 7.39 7.2 13.26
1/9/2023 5:15:00 AM 1.97 35.546 0.092 7.39 7.05 13.27
1/9/2023 5:30:00 AM 1.93 35.474 0.092 7.39 7.08 13.28
1/9/2023 5:45:00 AM 1.9 35.42 0.092 7.39 6.96 13.29
1/9/2023 6:00:00 AM 1.87 35.366 0.093 7.39 6.94 13.3
1/9/2023 6:15:00 AM 1.84 35.312 0.093 7.39 7.44 13.31
1/9/2023 6:30:00 AM 1.81 35.258 0.093 7.38 7.43 13.32
1/9/2023 6:45:00 AM 1.78 35.204 0.093 7.39 7.07 13.33
1/9/2023 7:00:00 AM 1.75 35.15 0.093 7.39 7.01 13.34
1/9/2023 7:15:00 AM 1.73 35.114 0.093 7.38 7.22 13.34
1/9/2023 7:30:00 AM 1.73 35.114 0.093 7.38 6.92 13.35
1/9/2023 7:45:00 AM 1.73 35.114 0.093 7.39 7.29 13.37
1/9/2023 8:00:00 AM 1.74 35.132 0.093 7.39 7.38 13.38
1/9/2023 8:15:00 AM 1.75 35.15 0.093 7.39 7.13 13.41
1/9/2023 8:30:00 AM 1.77 35.186 0.093 7.4 6.57 13.44
1/9/2023 8:45:00 AM 1.78 35.204 0.093 7.41 6.62 13.47
1/9/2023 9:00:00 AM 1.8 35.24 0.093 7.41 6.75 13.5
1/9/2023 9:15:00 AM 1.82 35.276 0.093 7.42 6.46 13.52
1/9/2023 9:30:00 AM 1.85 35.33 0.093 7.43 6.98 13.54
1/9/2023 9:45:00 AM 1.87 35.366 0.093 7.44 6.29 13.55
1/9/2023 10:00:00 AM 1.88 35.384 0.093 7.44 6.96 13.56
1/9/2023 10:15:00 AM 1.9 35.42 0.093 7.45 7.06 13.58
1/9/2023 10:30:00 AM 1.93 35.474 0.093 7.46 7.3 13.6
1/9/2023 10:45:00 AM 1.96 35.528 0.093 7.47 7.08 13.62
1/9/2023 11:00:00 AM 2.02 35.636 0.093 7.48 7.08 13.64
1/9/2023 11:15:00 AM 2.07 35.726 0.093 7.49 7.13 13.65
1/9/2023 11:30:00 AM 2.07 35.726 0.093 7.5 6.82 13.65
1/9/2023 11:45:00 AM 2.07 35.726 0.093 7.5 7.13 13.65
1/9/2023 12:00:00 PM 2.19 35.942 0.093 7.51 6.97 13.64
1/9/2023 12:15:00 PM 2.28 36.104 0.093 7.51 6.51 13.62
1/9/2023 12:30:00 PM 2.32 36.176 0.093 7.51 6.45 13.61
1/9/2023 12:45:00 PM 2.34 36.212 0.093 7.51 6.88 13.59
1/9/2023 1:00:00 PM 2.34 36.212 0.093 7.51 6.28 13.58
1/9/2023 1:15:00 PM 2.34 36.212 0.093 7.52 6.53 13.58
1/9/2023 1:30:00 PM 2.33 36.194 0.093 7.52 6.83 13.57
1/9/2023 1:45:00 PM 2.32 36.176 0.093 7.52 6.41 13.56
1/9/2023 2:00:00 PM 2.31 36.158 0.093 7.52 6.3 13.55
1/9/2023 2:15:00 PM 2.29 36.122 0.093 7.52 6.93 13.55
1/9/2023 2:30:00 PM 2.28 36.104 0.093 7.51 6.83 13.54
1/9/2023 2:45:00 PM 2.27 36.086 0.093 7.51 6.46 13.52
1/9/2023 3:00:00 PM 2.27 36.086 0.093 7.51 6.79 13.5
1/9/2023 3:15:00 PM 2.26 36.068 0.093 7.51 6.75 13.49
1/9/2023 3:30:00 PM 2.25 36.05 0.093 7.51 6.89 13.48
1/9/2023 3:45:00 PM 2.24 36.032 0.094 7.5 6.67 13.46
1/9/2023 4:00:00 PM 2.22 35.996 0.094 7.5 6.74 13.44
1/9/2023 4:15:00 PM 2.2 35.96 0.094 7.49 6.27 13.41
1/9/2023 4:30:00 PM 2.17 35.906 0.094 7.48 6.42 13.39
1/9/2023 4:45:00 PM 2.15 35.87 0.094 7.47 6.67 13.36
1/9/2023 5:00:00 PM 2.11 35.798 0.094 7.46 6.23 13.34
1/9/2023 5:15:00 PM 2.08 35.744 0.094 7.45 6.33 13.33
1/9/2023 5:30:00 PM 2.05 35.69 0.094 7.45 5.85 13.32
1/9/2023 5:45:00 PM 2.02 35.636 0.094 7.44 6.56 13.32
1/9/2023 6:00:00 PM 1.99 35.582 0.094 7.44 6.06 13.32
1/9/2023 6:15:00 PM 1.97 35.546 0.094 7.43 6.5 13.32
1/9/2023 6:30:00 PM 1.95 35.51 0.094 7.43 6.31 13.33
1/9/2023 6:45:00 PM 1.94 35.492 0.094 7.43 6.1 13.33
1/9/2023 7:00:00 PM 1.93 35.474 0.094 7.43 6.22 13.33
1/9/2023 7:15:00 PM 1.92 35.456 0.094 7.43 6.23 13.33
1/9/2023 7:30:00 PM 1.92 35.456 0.094 7.43 6.17 13.33
1/9/2023 7:45:00 PM 1.91 35.438 0.094 7.42 6.56 13.33
1/9/2023 8:00:00 PM 1.91 35.438 0.094 7.42 6.43 13.33
1/9/2023 8:15:00 PM 1.91 35.438 0.094 7.42 6.53 13.33
1/9/2023 8:30:00 PM 1.91 35.438 0.094 7.43 6.48 13.33
1/9/2023 8:45:00 PM 1.9 35.42 0.094 7.42 6.34 13.33
1/9/2023 9:00:00 PM 1.9 35.42 0.094 7.42 6.28 13.34
1/9/2023 9:15:00 PM 1.9 35.42 0.094 7.42 6.53 13.34
1/9/2023 9:30:00 PM 1.9 35.42 0.094 7.42 6.05 13.34
1/9/2023 9:45:00 PM 1.91 35.438 0.094 7.42 5.93 13.34
1/9/2023 10:00:00 PM 1.91 35.438 0.094 7.42 6.41 13.34
1/9/2023 10:15:00 PM 1.92 35.456 0.094 7.42 5.96 13.35
1/9/2023 10:30:00 PM 1.93 35.474 0.094 7.42 6.3 13.34
1/9/2023 10:45:00 PM 1.94 35.492 0.094 7.42 6.3 13.34
1/9/2023 11:00:00 PM 1.95 35.51 0.094 7.42 6.08 13.34
1/9/2023 11:15:00 PM 1.96 35.528 0.094 7.42 6.19 13.33
1/9/2023 11:30:00 PM 1.97 35.546 0.094 7.42 6.22 13.33
1/9/2023 11:45:00 PM 1.98 35.564 0.094 7.42 6.34 13.33
1/10/2023 12:00:00 AM 1.99 35.582 0.094 7.42 6.48 13.32
1/10/2023 12:15:00 AM 1.99 35.582 0.094 7.42 6.47 13.32
1/10/2023 12:30:00 AM 2 35.6 0.094 7.42 6.4 13.32
1/10/2023 12:45:00 AM 2 35.6 0.094 7.42 5.76 13.32
1/10/2023 1:00:00 AM 2 35.6 0.094 7.42 5.79 13.32
1/10/2023 1:15:00 AM 1.99 35.582 0.094 7.42 6.32 13.32
1/10/2023 1:30:00 AM 1.99 35.582 0.094 7.42 6.53 13.32
1/10/2023 1:45:00 AM 1.98 35.564 0.094 7.42 5.99 13.32
1/10/2023 2:00:00 AM 1.98 35.564 0.094 7.42 6.18 13.33
1/10/2023 2:15:00 AM 1.97 35.546 0.094 7.42 6.77 13.33
1/10/2023 2:30:00 AM 1.96 35.528 0.094 7.42 6.79 13.34
1/10/2023 2:45:00 AM 1.95 35.51 0.094 7.42 6.56 13.34
1/10/2023 3:00:00 AM 1.94 35.492 0.094 7.42 6.97 13.34
1/10/2023 3:15:00 AM 1.93 35.474 0.094 7.42 6.36 13.35
1/10/2023 3:30:00 AM 1.92 35.456 0.094 7.42 6.53 13.35
1/10/2023 3:45:00 AM 1.91 35.438 0.094 7.42 6.23 13.35
1/10/2023 4:00:00 AM 1.91 35.438 0.094 7.42 6.3 13.36
1/10/2023 4:15:00 AM 1.9 35.42 0.094 7.42 6.43 13.36
1/10/2023 4:30:00 AM 1.89 35.402 0.094 7.42 6.61 13.36
1/10/2023 4:45:00 AM 1.89 35.402 0.095 7.42 6.97 13.36
1/10/2023 5:00:00 AM 1.89 35.402 0.095 7.42 7 13.36
1/10/2023 5:15:00 AM 1.88 35.384 0.095 7.42 7.33 13.36
1/10/2023 5:30:00 AM 1.88 35.384 0.095 7.42 7.15 13.35
1/10/2023 5:45:00 AM 1.88 35.384 0.095 7.42 7.32 13.36
1/10/2023 6:00:00 AM 1.88 35.384 0.095 7.42 7.06 13.36
1/10/2023 6:15:00 AM 1.88 35.384 0.095 7.42 7.15 13.36
1/10/2023 6:30:00 AM 1.88 35.384 0.095 7.41 6.64 13.35
1/10/2023 6:45:00 AM 1.89 35.402 0.095 7.41 7.23 13.35
1/10/2023 7:00:00 AM 1.89 35.402 0.095 7.41 6.94 13.35
1/10/2023 7:15:00 AM 1.89 35.402 0.095 7.41 6.77 13.35
1/10/2023 7:30:00 AM 1.89 35.402 0.095 7.41 6.95 13.35
1/10/2023 7:45:00 AM 1.9 35.42 0.095 7.41 6.9 13.35
1/10/2023 8:00:00 AM 1.91 35.438 0.095 7.41 7.35 13.36
1/10/2023 8:15:00 AM 1.91 35.438 0.095 7.42 7.08 13.37
1/10/2023 8:30:00 AM 1.92 35.456 0.095 7.42 7.42 13.38
1/10/2023 8:45:00 AM 1.93 35.474 0.095 7.43 7.26 13.4
1/10/2023 9:00:00 AM 1.95 35.51 0.095 7.43 6.9 13.42
1/10/2023 9:15:00 AM 1.97 35.546 0.095 7.44 7.04 13.45
1/10/2023 9:30:00 AM 1.99 35.582 0.095 7.44 6.81 13.47
1/10/2023 9:45:00 AM 2.01 35.618 0.095 7.45 6.82 13.48
1/10/2023 10:00:00 AM 2.03 35.654 0.095 7.45 6.62 13.49
1/10/2023 10:15:00 AM 2.05 35.69 0.095 7.46 6.07 13.52
1/10/2023 10:30:00 AM 2.06 35.708 0.095 7.47 6.16 13.51
1/10/2023 10:45:00 AM 2.09 35.762 0.095 7.48 6.7 13.53
1/10/2023 11:00:00 AM 2.11 35.798 0.095 7.48 6.53 13.54
1/10/2023 11:15:00 AM 2.13 35.834 0.095 7.49 6.27 13.54
1/10/2023 11:30:00 AM 2.14 35.852 0.095 7.49 6.38 13.53
1/10/2023 11:45:00 AM 2.15 35.87 0.095 7.49 6.08 13.52
1/10/2023 12:00:00 PM 2.16 35.888 0.095 7.49 6.26 13.5
1/10/2023 12:15:00 PM 2.17 35.906 0.095 7.49 6.39 13.49
1/10/2023 12:30:00 PM 2.18 35.924 0.095 7.49 6.1 13.5
1/10/2023 12:45:00 PM 2.19 35.942 0.095 7.49 5.99 13.5
1/10/2023 1:00:00 PM 2.2 35.96 0.095 7.5 6.62 13.51
1/10/2023 1:15:00 PM 2.21 35.978 0.095 7.5 5.47 13.51
1/10/2023 1:30:00 PM 2.22 35.996 0.095 7.51 6.1 13.52
1/10/2023 1:45:00 PM 2.25 36.05 0.095 7.51 5.94 13.54
1/10/2023 2:00:00 PM 2.26 36.068 0.095 7.51 6.48 13.54
1/10/2023 2:15:00 PM 2.27 36.086 0.095 7.52 6.34 13.55
1/10/2023 2:30:00 PM 2.28 36.104 0.095 7.52 5.65 13.54
1/10/2023 2:45:00 PM 2.28 36.104 0.095 7.52 6.4 13.53
1/10/2023 3:00:00 PM 2.28 36.104 0.095 7.52 6.62 13.51
1/10/2023 3:15:00 PM 2.27 36.086 0.095 7.52 6.45 13.48
1/10/2023 3:30:00 PM 2.26 36.068 0.095 7.51 6.47 13.45
1/10/2023 3:45:00 PM 2.26 36.068 0.095 7.5 6.58 13.42
1/10/2023 4:00:00 PM 2.25 36.05 0.095 7.5 6.51 13.4
1/10/2023 4:15:00 PM 2.25 36.05 0.095 7.49 6 13.38
1/10/2023 4:30:00 PM 2.24 36.032 0.095 7.48 6.09 13.35
1/10/2023 4:45:00 PM 2.24 36.032 0.095 7.47 6.19 13.33
1/10/2023 5:00:00 PM 2.23 36.014 0.095 7.46 6.03 13.31
1/10/2023 5:15:00 PM 2.23 36.014 0.095 7.46 6.04 13.29
1/10/2023 5:30:00 PM 2.22 35.996 0.095 7.45 5.96 13.28
1/10/2023 5:45:00 PM 2.22 35.996 0.095 7.45 5.75 13.28
1/10/2023 6:00:00 PM 2.22 35.996 0.096 7.44 6.2 13.27
1/10/2023 6:15:00 PM 2.22 35.996 0.096 7.44 6.17 13.27
1/10/2023 6:30:00 PM 2.21 35.978 0.096 7.44 6.01 13.27
1/10/2023 6:45:00 PM 2.21 35.978 0.096 7.44 5.67 13.27
1/10/2023 7:00:00 PM 2.21 35.978 0.096 7.44 6.13 13.27
1/10/2023 7:15:00 PM 2.21 35.978 0.096 7.44 5.67 13.26
1/10/2023 7:30:00 PM 2.2 35.96 0.096 7.43 6.29 13.27
1/10/2023 7:45:00 PM 2.2 35.96 0.096 7.43 6.09 13.27
1/10/2023 8:00:00 PM 2.2 35.96 0.096 7.43 6.12 13.27
1/10/2023 8:15:00 PM 2.21 35.978 0.096 7.43 6.43 13.27
1/10/2023 8:30:00 PM 2.21 35.978 0.096 7.43 5.58 13.27
1/10/2023 8:45:00 PM 2.21 35.978 0.096 7.43 6.14 13.26
1/10/2023 9:00:00 PM 2.21 35.978 0.096 7.43 5.52 13.27
1/10/2023 9:15:00 PM 2.22 35.996 0.096 7.43 5.9 13.27
1/10/2023 9:30:00 PM 2.22 35.996 0.096 7.43 6.05 13.27
1/10/2023 9:45:00 PM 2.22 35.996 0.096 7.43 5.84 13.27
1/10/2023 10:00:00 PM 2.22 35.996 0.096 7.43 6.19 13.27
1/10/2023 10:15:00 PM 2.22 35.996 0.096 7.43 6.04 13.27
1/10/2023 10:30:00 PM 2.23 36.014 0.096 7.43 5.75 13.27
1/10/2023 10:45:00 PM 2.23 36.014 0.096 7.43 6.16 13.27
1/10/2023 11:00:00 PM 2.23 36.014 0.096 7.43 6.14 13.27
1/10/2023 11:15:00 PM 2.23 36.014 0.096 7.43 6.19 13.27
1/10/2023 11:30:00 PM 2.23 36.014 0.096 7.43 7.22 13.27
1/10/2023 11:45:00 PM 2.23 36.014 0.096 7.43 7.06 13.27
1/11/2023 12:00:00 AM 2.23 36.014 0.096 7.43 6.09 13.27
1/11/2023 12:15:00 AM 2.23 36.014 0.096 7.42 7.07 13.27
1/11/2023 12:30:00 AM 2.23 36.014 0.096 7.43 6.34 13.27
1/11/2023 12:45:00 AM 2.23 36.014 0.096 7.42 6.3 13.26
1/11/2023 1:00:00 AM 2.23 36.014 0.096 7.42 6.16 13.26
1/11/2023 1:15:00 AM 2.23 36.014 0.096 7.43 5.8 13.27
1/11/2023 1:30:00 AM 2.23 36.014 0.096 7.43 5.92 13.26
1/11/2023 1:45:00 AM 2.23 36.014 0.096 7.43 6.1 13.27
1/11/2023 2:00:00 AM 2.23 36.014 0.096 7.43 6.88 13.27
1/11/2023 2:15:00 AM 2.23 36.014 0.096 7.42 6.6 13.27
1/11/2023 2:30:00 AM 2.23 36.014 0.096 7.43 6.38 13.27
1/11/2023 2:45:00 AM 2.22 35.996 0.096 7.43 6.13 13.27
1/11/2023 3:00:00 AM 2.22 35.996 0.096 7.43 6.55 13.27
1/11/2023 3:15:00 AM 2.22 35.996 0.096 7.42 5.98 13.28
1/11/2023 3:30:00 AM 2.22 35.996 0.096 7.42 6.16 13.28
1/11/2023 3:45:00 AM 2.22 35.996 0.096 7.42 6.16 13.28
1/11/2023 4:00:00 AM 2.21 35.978 0.096 7.42 6.29 13.28
1/11/2023 4:15:00 AM 2.21 35.978 0.096 7.42 6.45 13.28
1/11/2023 4:30:00 AM 2.21 35.978 0.096 7.42 5.62 13.28
1/11/2023 4:45:00 AM 2.2 35.96 0.096 7.43 6.6 13.27
1/11/2023 5:00:00 AM 2.19 35.942 0.096 7.42 6.3 13.27
1/11/2023 5:15:00 AM 2.19 35.942 0.096 7.42 6.11 13.28
1/11/2023 5:30:00 AM 2.18 35.924 0.096 7.42 6.27 13.27
1/11/2023 5:45:00 AM 2.17 35.906 0.096 7.42 6.14 13.28
1/11/2023 6:00:00 AM 2.15 35.87 0.096 7.42 6.32 13.28
1/11/2023 6:15:00 AM 2.11 35.798 0.096 7.42 5.5 13.29
1/11/2023 6:30:00 AM 2.08 35.744 0.096 7.42 5.92 13.3
1/11/2023 6:45:00 AM 2.05 35.69 0.096 7.42 6.24 13.31
1/11/2023 7:00:00 AM 2.02 35.636 0.096 7.42 6.36 13.31
1/11/2023 7:15:00 AM 1.99 35.582 0.096 7.42 6.37 13.33
1/11/2023 7:30:00 AM 1.97 35.546 0.096 7.42 5.76 13.34
1/11/2023 7:45:00 AM 1.95 35.51 0.096 7.42 5.85 13.37
1/11/2023 8:00:00 AM 1.93 35.474 0.096 7.42 6.53 13.4
1/11/2023 8:15:00 AM 1.92 35.456 0.096 7.43 6.07 13.45
1/11/2023 8:30:00 AM 1.92 35.456 0.096 7.44 6.37 13.5
1/11/2023 8:45:00 AM 1.94 35.492 0.096 7.45 6.21 13.56
1/11/2023 9:00:00 AM 1.97 35.546 0.096 7.46 6.35 13.59
1/11/2023 9:15:00 AM 2.01 35.618 0.096 7.48 6.18 13.63
1/11/2023 9:30:00 AM 2.05 35.69 0.096 7.49 5.99 13.66
1/11/2023 9:45:00 AM 2.09 35.762 0.096 7.5 6.41 13.68
1/11/2023 10:00:00 AM 2.13 35.834 0.096 7.51 6.29 13.7
1/11/2023 10:15:00 AM 2.18 35.924 0.096 7.52 6.43 13.72
1/11/2023 10:30:00 AM 2.23 36.014 0.096 7.53 6.05 13.73
1/11/2023 10:45:00 AM 2.3 36.14 0.096 7.54 6.08 13.73
1/11/2023 11:00:00 AM 2.37 36.266 0.096 7.55 6.12 13.72
1/11/2023 11:15:00 AM 2.45 36.41 0.096 7.56 5.94 13.71
1/11/2023 11:30:00 AM 2.5 36.5 0.096 7.57 5.9 13.71
1/11/2023 11:45:00 AM 2.54 36.572 0.096 7.57 5.43 13.7
1/11/2023 12:00:00 PM 2.61 36.698 0.096 7.58 5.81 13.68
1/11/2023 12:15:00 PM 2.69 36.842 0.096 7.59 6.15 13.67
1/11/2023 12:30:00 PM 2.73 36.914 0.096 7.59 5.97 13.66
1/11/2023 12:45:00 PM 2.76 36.968 0.096 7.6 6.39 13.65
1/11/2023 1:00:00 PM 2.79 37.022 0.096 7.6 6.44 13.63
1/11/2023 1:15:00 PM 2.8 37.04 0.096 7.6 6.15 13.62
1/11/2023 1:30:00 PM 2.8 37.04 0.096 7.6 6.02 13.61
1/11/2023 1:45:00 PM 2.81 37.058 0.096 7.61 6.37 13.6
1/11/2023 2:00:00 PM 2.82 37.076 0.096 7.61 6.18 13.59
1/11/2023 2:15:00 PM 2.84 37.112 0.096 7.61 6.19 13.58
1/11/2023 2:30:00 PM 2.86 37.148 0.096 7.61 6.15 13.57
1/11/2023 2:45:00 PM 2.87 37.166 0.096 7.61 6.28 13.57
1/11/2023 3:00:00 PM 2.87 37.166 0.096 7.61 6.03 13.56
1/11/2023 3:15:00 PM 2.86 37.148 0.096 7.61 6.25 13.54
1/11/2023 3:30:00 PM 2.84 37.112 0.096 7.61 6.17 13.52
1/11/2023 3:45:00 PM 2.83 37.094 0.096 7.6 6.31 13.5
1/11/2023 4:00:00 PM 2.81 37.058 0.097 7.59 5.89 13.46
1/11/2023 4:15:00 PM 2.78 37.004 0.097 7.57 6.18 13.4
1/11/2023 4:30:00 PM 2.76 36.968 0.097 7.56 5.94 13.35
1/11/2023 4:45:00 PM 2.74 36.932 0.097 7.54 5.75 13.3
1/11/2023 5:00:00 PM 2.71 36.878 0.097 7.52 6.21 13.25
1/11/2023 5:15:00 PM 2.69 36.842 0.097 7.51 6.14 13.22
1/11/2023 5:30:00 PM 2.67 36.806 0.097 7.5 5.6 13.2
1/11/2023 5:45:00 PM 2.66 36.788 0.097 7.49 5.81 13.18
1/11/2023 6:00:00 PM 2.64 36.752 0.097 7.48 6.07 13.17
1/11/2023 6:15:00 PM 2.63 36.734 0.097 7.48 5.91 13.17
1/11/2023 6:30:00 PM 2.61 36.698 0.097 7.47 5.55 13.16
1/11/2023 6:45:00 PM 2.59 36.662 0.097 7.47 6.15 13.17
1/11/2023 7:00:00 PM 2.56 36.608 0.097 7.46 5.81 13.17
1/11/2023 7:15:00 PM 2.54 36.572 0.097 7.46 5.52 13.17
1/11/2023 7:30:00 PM 2.53 36.554 0.097 7.46 6.1 13.18
1/11/2023 7:45:00 PM 2.52 36.536 0.097 7.46 5.77 13.18
1/11/2023 8:00:00 PM 2.52 36.536 0.097 7.45 5.83 13.18
1/11/2023 8:15:00 PM 2.51 36.518 0.097 7.45 5.59 13.18
1/11/2023 8:30:00 PM 2.49 36.482 0.097 7.45 5.7 13.19
1/11/2023 8:45:00 PM 2.47 36.446 0.097 7.45 5.61 13.19
1/11/2023 9:00:00 PM 2.47 36.446 0.097 7.45 5.77 13.19
1/11/2023 9:15:00 PM 2.47 36.446 0.097 7.44 5.63 13.19
1/11/2023 9:30:00 PM 2.47 36.446 0.097 7.45 5.73 13.2
1/11/2023 9:45:00 PM 2.49 36.482 0.097 7.44 5.85 13.19
1/11/2023 10:00:00 PM 2.5 36.5 0.097 7.44 6.48 13.19
1/11/2023 10:15:00 PM 2.51 36.518 0.097 7.45 6.08 13.19
1/11/2023 10:30:00 PM 2.52 36.536 0.097 7.44 5.82 13.18
1/11/2023 10:45:00 PM 2.53 36.554 0.097 7.45 5.33 13.18
1/11/2023 11:00:00 PM 2.55 36.59 0.097 7.45 6.24 13.18
1/11/2023 11:15:00 PM 2.55 36.59 0.097 7.45 5.61 13.18
1/11/2023 11:30:00 PM 2.57 36.626 0.097 7.45 5.52 13.17
1/11/2023 11:45:00 PM 2.58 36.644 0.097 7.45 5.98 13.17
1/12/2023 12:00:00 AM 2.59 36.662 0.097 7.45 5.56 13.16
1/12/2023 12:15:00 AM 2.6 36.68 0.097 7.45 5.85 13.15
1/12/2023 12:30:00 AM 2.61 36.698 0.097 7.45 5.24 13.15
1/12/2023 12:45:00 AM 2.61 36.698 0.097 7.45 5.65 13.14
1/12/2023 1:00:00 AM 2.62 36.716 0.097 7.45 5.95 13.14
1/12/2023 1:15:00 AM 2.62 36.716 0.097 7.45 5.98 13.13
1/12/2023 1:30:00 AM 2.63 36.734 0.097 7.45 5.69 13.13
1/12/2023 1:45:00 AM 2.63 36.734 0.097 7.45 6.23 13.13
1/12/2023 2:00:00 AM 2.63 36.734 0.097 7.45 5.49 13.12
1/12/2023 2:15:00 AM 2.64 36.752 0.097 7.45 6.19 13.12
1/12/2023 2:30:00 AM 2.64 36.752 0.097 7.45 5.09 13.12
1/12/2023 2:45:00 AM 2.64 36.752 0.097 7.45 5.55 13.11
1/12/2023 3:00:00 AM 2.64 36.752 0.097 7.45 5.85 13.11
1/12/2023 3:15:00 AM 2.64 36.752 0.097 7.45 5.96 13.11
1/12/2023 3:30:00 AM 2.64 36.752 0.097 7.45 5.83 13.11
1/12/2023 3:45:00 AM 2.64 36.752 0.097 7.45 5.18 13.11
1/12/2023 4:00:00 AM 2.64 36.752 0.097 7.45 6.06 13.11
1/12/2023 4:15:00 AM 2.63 36.734 0.097 7.45 6.02 13.1
1/12/2023 4:30:00 AM 2.63 36.734 0.097 7.45 6.48 13.1
1/12/2023 4:45:00 AM 2.62 36.716 0.097 7.45 5.73 13.1
1/12/2023 5:00:00 AM 2.61 36.698 0.097 7.45 6.1 13.1
1/12/2023 5:15:00 AM 2.6 36.68 0.097 7.44 6.23 13.1
1/12/2023 5:30:00 AM 2.6 36.68 0.097 7.44 6.24 13.1
1/12/2023 5:45:00 AM 2.6 36.68 0.097 7.44 5.31 13.1
1/12/2023 6:00:00 AM 2.6 36.68 0.098 7.44 5.94 13.1
1/12/2023 6:15:00 AM 2.61 36.698 0.098 7.44 5.61 13.1
1/12/2023 6:30:00 AM 2.61 36.698 0.098 7.44 6.59 13.1
1/12/2023 6:45:00 AM 2.61 36.698 0.098 7.44 6.23 13.1
1/12/2023 7:00:00 AM 2.61 36.698 0.098 7.44 6.49 13.09
1/12/2023 7:15:00 AM 2.62 36.716 0.098 7.43 6.09 13.09
1/12/2023 7:30:00 AM 2.62 36.716 0.098 7.43 6.18 13.09
1/12/2023 7:45:00 AM 2.63 36.734 0.098 7.43 6.65 13.09
1/12/2023 8:00:00 AM 2.63 36.734 0.098 7.44 6.27 13.09
1/12/2023 8:15:00 AM 2.64 36.752 0.098 7.44 6.07 13.11
1/12/2023 8:30:00 AM 2.66 36.788 0.098 7.44 6.12 13.12
1/12/2023 8:45:00 AM 2.67 36.806 0.098 7.45 5.85 13.14
1/12/2023 9:00:00 AM 2.69 36.842 0.098 7.45 6.21 13.16
1/12/2023 9:15:00 AM 2.71 36.878 0.098 7.46 6.54 13.2
1/12/2023 9:30:00 AM 2.73 36.914 0.098 7.47 11.84 13.22
1/12/2023 9:45:00 AM 2.76 36.968 0.098 7.48 8.77 13.28
1/12/2023 10:00:00 AM 2.78 37.004 0.098 7.49 7.73 13.3
1/12/2023 10:15:00 AM 2.81 37.058 0.098 7.51 7.55 13.31
1/12/2023 10:30:00 AM 2.82 37.076 0.098 7.5 6.04 13.29
1/12/2023 10:45:00 AM 2.84 37.112 0.098 7.51 5.65 13.28
1/12/2023 11:00:00 AM 2.86 37.148 0.098 7.51 5.72 13.29
1/12/2023 11:15:00 AM 2.88 37.184 0.098 7.52 5.62 13.28
1/12/2023 11:30:00 AM 2.9 37.22 0.098 7.52 5.44 13.28
1/12/2023 11:45:00 AM 2.94 37.292 0.098 7.53 5.97 13.29
1/12/2023 12:00:00 PM 2.97 37.346 0.098 7.54 5.34 13.31
1/12/2023 12:15:00 PM 2.99 37.382 0.098 7.55 4.96 13.3
1/12/2023 12:30:00 PM 3.03 37.454 0.098 7.55 5.27 13.31
1/12/2023 12:45:00 PM 3.05 37.49 0.098 7.56 5.83 13.3
1/12/2023 1:00:00 PM 3.08 37.544 0.098 7.56 5.38 13.29
1/12/2023 1:15:00 PM 3.1 37.58 0.098 7.56 5.84 13.27
1/12/2023 1:30:00 PM 3.12 37.616 0.098 7.56 5.69 13.24
1/12/2023 1:45:00 PM 3.12 37.616 0.098 7.56 5.15 13.2
1/12/2023 2:00:00 PM 3.13 37.634 0.098 7.55 5.59 13.15
1/12/2023 2:15:00 PM 3.14 37.652 0.098 7.54 5.49 13.13
1/12/2023 2:30:00 PM 3.17 37.706 0.098 7.55 5.28 13.16
1/12/2023 2:45:00 PM 3.18 37.724 0.098 7.54 5.62 13.12
1/12/2023 3:00:00 PM 3.19 37.742 0.098 7.54 5.42 13.11
1/12/2023 3:15:00 PM 3.21 37.778 0.098 7.54 5.71 13.1
1/12/2023 3:30:00 PM 3.21 37.778 0.099 7.54 5.32 13.06
1/12/2023 3:45:00 PM 3.21 37.778 0.099 7.53 5.22 13.05
1/12/2023 4:00:00 PM 3.21 37.778 0.099 7.52 5.94 13
1/12/2023 4:15:00 PM 3.21 37.778 0.099 7.51 5.15 12.96
1/12/2023 4:30:00 PM 3.22 37.796 0.098 7.5 5.62 12.92
1/12/2023 4:45:00 PM 3.23 37.814 0.098 7.49 6.85 12.89
1/12/2023 5:00:00 PM 3.24 37.832 0.098 7.49 12.36 12.86
1/12/2023 5:15:00 PM 3.25 37.85 0.098 7.48 10.69 12.84
1/12/2023 5:30:00 PM 3.25 37.85 0.098 7.48 6.13 12.82
1/12/2023 5:45:00 PM 3.26 37.868 0.098 7.47 5.93 12.81
1/12/2023 6:00:00 PM 3.27 37.886 0.098 7.47 6.8 12.8
1/12/2023 6:15:00 PM 3.26 37.868 0.098 7.47 9.33 12.78
1/12/2023 6:30:00 PM 3.27 37.886 0.098 7.46 9.66 12.79
1/12/2023 6:45:00 PM 3.27 37.886 0.098 7.46 9.41 12.77
1/12/2023 7:00:00 PM 3.28 37.904 0.099 7.46 10.06 12.77
1/12/2023 7:15:00 PM 3.29 37.922 0.098 7.46 12.65 12.77
1/12/2023 7:30:00 PM 3.3 37.94 0.098 7.45 20.79 12.76
1/12/2023 7:45:00 PM 3.31 37.958 0.099 7.45 19.85 12.76
1/12/2023 8:00:00 PM 3.32 37.976 0.099 7.45 22.6 12.75
1/12/2023 8:15:00 PM 3.32 37.976 0.099 7.45 18.9 12.75
1/12/2023 8:30:00 PM 3.32 37.976 0.099 7.45 25.12 12.74
1/12/2023 8:45:00 PM 3.33 37.994 0.099 7.45 21.24 12.73
1/12/2023 9:00:00 PM 3.34 38.012 0.098 7.45 23.46 12.73
1/12/2023 9:15:00 PM 3.34 38.012 0.098 7.44 24.09 12.73
1/12/2023 9:30:00 PM 3.35 38.03 0.098 7.44 23.91 12.72
1/12/2023 9:45:00 PM 3.36 38.048 0.098 7.44 20.2 12.72
1/12/2023 10:00:00 PM 3.37 38.066 0.098 7.44 22.61 12.71
1/12/2023 10:15:00 PM 3.39 38.102 0.098 7.44 19.88 12.71
1/12/2023 10:30:00 PM 3.4 38.12 0.098 7.43 17.77 12.7
1/12/2023 10:45:00 PM 3.41 38.138 0.098 7.43 19.41 12.69
1/12/2023 11:00:00 PM 3.42 38.156 0.098 7.43 18.87 12.69
1/12/2023 11:15:00 PM 3.44 38.192 0.098 7.43 18.29 12.68
1/12/2023 11:30:00 PM 3.45 38.21 0.098 7.43 14.4 12.67
1/12/2023 11:45:00 PM 3.47 38.246 0.098 7.43 15.98 12.67
1/13/2023 12:00:00 AM 3.5 38.3 0.098 7.43 13.13 12.66
1/13/2023 12:15:00 AM 3.52 38.336 0.098 7.43 14.21 12.66
1/13/2023 12:30:00 AM 3.54 38.372 0.098 7.42 12.52 12.65
1/13/2023 12:45:00 AM 3.56 38.408 0.098 7.42 12.55 12.64
1/13/2023 1:00:00 AM 3.6 38.48 0.098 7.42 12.38 12.63
1/13/2023 1:15:00 AM 3.63 38.534 0.098 7.42 13.18 12.62
1/13/2023 1:30:00 AM 3.66 38.588 0.098 7.41 12.12 12.6
1/13/2023 1:45:00 AM 3.69 38.642 0.098 7.41 13.18 12.59
1/13/2023 2:00:00 AM 3.71 38.678 0.098 7.41 13.55 12.58
1/13/2023 2:15:00 AM 3.73 38.714 0.098 7.41 15.35 12.56
1/13/2023 2:30:00 AM 3.76 38.768 0.099 7.4 15.07 12.55
1/13/2023 2:45:00 AM 3.79 38.822 0.099 7.4 18.42 12.53
1/13/2023 3:00:00 AM 3.82 38.876 0.099 7.4 20.64 12.51
1/13/2023 3:15:00 AM 3.85 38.93 0.099 7.41 21.65 12.5
1/13/2023 3:30:00 AM 3.87 38.966 0.098 7.41 23.11 12.49
1/13/2023 3:45:00 AM 3.89 39.002 0.098 7.42 26.64 12.49
1/13/2023 4:00:00 AM 3.91 39.038 0.098 7.42 27.94 12.48
1/13/2023 4:15:00 AM 3.92 39.056 0.097 7.42 28.18 12.47
1/13/2023 4:30:00 AM 3.94 39.092 0.097 7.42 24.99 12.47
1/13/2023 4:45:00 AM 3.96 39.128 0.097 7.42 30.32 12.46
1/13/2023 5:00:00 AM 3.97 39.146 0.097 7.42 30.73 12.45
1/13/2023 5:15:00 AM 3.99 39.182 0.097 7.42 33.98 12.45
1/13/2023 5:30:00 AM 4.02 39.236 0.097 7.42 36.69 12.44
1/13/2023 5:45:00 AM 4.04 39.272 0.096 7.42 45.14 12.44
1/13/2023 6:00:00 AM 4.05 39.29 0.096 7.41 46.69 12.43
1/13/2023 6:15:00 AM 4.07 39.326 0.095 7.41 48.31 12.42
1/13/2023 6:30:00 AM 4.1 39.38 0.094 7.41 48.34 12.42
1/13/2023 6:45:00 AM 4.12 39.416 0.094 7.41 47.55 12.41
1/13/2023 7:00:00 AM 4.14 39.452 0.094 7.41 45.55 12.41
1/13/2023 7:15:00 AM 4.15 39.47 0.094 7.42 54.79 12.4
1/13/2023 7:30:00 AM 4.16 39.488 0.093 7.41 53.4 12.4
1/13/2023 7:45:00 AM 4.16 39.488 0.093 7.41 56.31 12.41
1/13/2023 8:00:00 AM 4.16 39.488 0.092 7.4 54.55 12.4
1/13/2023 8:15:00 AM 4.16 39.488 0.092 7.4 52.48 12.41
1/13/2023 8:30:00 AM 4.16 39.488 0.092 7.4 52.33 12.42
1/13/2023 8:45:00 AM 4.16 39.488 0.091 7.4 55.33 12.42
1/13/2023 9:00:00 AM 4.14 39.452 0.09 7.39 53.17 12.43
1/13/2023 9:15:00 AM 4.14 39.452 0.09 7.39 51.32 12.43
1/13/2023 9:30:00 AM 4.15 39.47 0.09 7.38 50.68 12.43
1/13/2023 9:45:00 AM 4.15 39.47 0.089 7.38 50.89 12.44
1/13/2023 10:00:00 AM 4.15 39.47 0.089 7.38 50.02 12.44
1/13/2023 10:15:00 AM 4.1 39.38 0.089 7.38 50.11 12.44
1/13/2023 10:30:00 AM 4.08 39.344 0.089 7.38 49.5 12.46
1/13/2023 10:45:00 AM 4.09 39.362 0.089 7.38 50.45 12.47
1/13/2023 11:00:00 AM 4.11 39.398 0.09 7.38 51.52 12.48
1/13/2023 11:15:00 AM 4.13 39.434 0.09 7.39 53.56 12.48
1/13/2023 11:30:00 AM 4.16 39.488 0.09 7.39 53.1 12.49
1/13/2023 11:45:00 AM 4.19 39.542 0.089 7.39 52.44 12.5
1/13/2023 12:00:00 PM 4.21 39.578 0.089 7.4 53.31 12.5
1/13/2023 12:15:00 PM 4.2 39.56 0.089 7.4 51.87 12.49
1/13/2023 12:30:00 PM 4.19 39.542 0.089 7.4 51.37 12.49
1/13/2023 12:45:00 PM 4.19 39.542 0.088 7.39 49.35 12.49
1/13/2023 1:00:00 PM 4.18 39.524 0.088 7.4 48.14 12.49
1/13/2023 1:15:00 PM 4.17 39.506 0.088 7.4 49.72 12.49
1/13/2023 1:30:00 PM 4.17 39.506 0.087 7.4 44.87 12.5
1/13/2023 1:45:00 PM 4.16 39.488 0.087 7.4 47.34 12.5
1/13/2023 2:00:00 PM 4.15 39.47 0.087 7.39 44.93 12.51
1/13/2023 2:15:00 PM 4.14 39.452 0.087 7.39 45.8 12.51
1/13/2023 2:30:00 PM 4.13 39.434 0.086 7.39 46.38 12.52
1/13/2023 2:45:00 PM 4.11 39.398 0.086 7.39 44.78 12.52
1/13/2023 3:00:00 PM 4.1 39.38 0.086 7.39 41.33 12.52
1/13/2023 3:15:00 PM 4.08 39.344 0.086 7.39 41.59 12.53
1/13/2023 3:30:00 PM 4.05 39.29 0.086 7.39 40.08 12.54
1/13/2023 3:45:00 PM 4.03 39.254 0.086 7.39 39.24 12.54
1/13/2023 4:00:00 PM 4 39.2 0.086 7.39 35.62 12.55
1/13/2023 4:15:00 PM 3.98 39.164 0.086 7.39 37.3 12.56
1/13/2023 4:30:00 PM 3.95 39.11 0.086 7.39 34.58 12.58
1/13/2023 4:45:00 PM 3.91 39.038 0.086 7.39 33.65 12.58
1/13/2023 5:00:00 PM 3.89 39.002 0.085 7.38 32.85 12.59
1/13/2023 5:15:00 PM 3.85 38.93 0.085 7.38 32.56 12.6
1/13/2023 5:30:00 PM 3.82 38.876 0.085 7.38 30.61 12.62
1/13/2023 5:45:00 PM 3.77 38.786 0.085 7.38 31.16 12.63
1/13/2023 6:00:00 PM 3.74 38.732 0.085 7.38 31.52 12.64
1/13/2023 6:15:00 PM 3.7 38.66 0.085 7.38 29.25 12.66
1/13/2023 6:30:00 PM 3.67 38.606 0.085 7.38 28.1 12.67
1/13/2023 6:45:00 PM 3.64 38.552 0.085 7.38 27.63 12.68
1/13/2023 7:00:00 PM 3.61 38.498 0.085 7.38 28.69 12.69
1/13/2023 7:15:00 PM 3.58 38.444 0.085 7.37 27.84 12.71
1/13/2023 7:30:00 PM 3.54 38.372 0.085 7.38 27.2 12.72
1/13/2023 7:45:00 PM 3.51 38.318 0.085 7.37 23.23 12.73
1/13/2023 8:00:00 PM 3.47 38.246 0.085 7.37 23.69 12.75
1/13/2023 8:15:00 PM 3.44 38.192 0.085 7.38 25.34 12.75
1/13/2023 8:30:00 PM 3.4 38.12 0.085 7.37 22.1 12.77
1/13/2023 8:45:00 PM 3.37 38.066 0.085 7.37 24.43 12.78
1/13/2023 9:00:00 PM 3.34 38.012 0.085 7.38 22.59 12.79
1/13/2023 9:15:00 PM 3.31 37.958 0.085 7.37 22.6 12.8
1/13/2023 9:30:00 PM 3.27 37.886 0.085 7.37 20.2 12.82
1/13/2023 9:45:00 PM 3.23 37.814 0.085 7.37 20.91 12.83
1/13/2023 10:00:00 PM 3.2 37.76 0.085 7.37 19.59 12.84
1/13/2023 10:15:00 PM 3.17 37.706 0.085 7.37 17.08 12.85
1/13/2023 10:30:00 PM 3.14 37.652 0.085 7.37 20.13 12.86
1/13/2023 10:45:00 PM 3.11 37.598 0.086 7.37 19.38 12.87
1/13/2023 11:00:00 PM 3.07 37.526 0.086 7.37 18.91 12.88
1/13/2023 11:15:00 PM 3.02 37.436 0.086 7.37 18.7 12.89
1/13/2023 11:30:00 PM 2.98 37.364 0.086 7.37 17.69 12.9
1/13/2023 11:45:00 PM 2.94 37.292 0.086 7.37 17.73 12.92
1/14/2023 12:00:00 AM 2.89 37.202 0.086 7.37 17.11 12.93
1/14/2023 12:15:00 AM 2.86 37.148 0.086 7.37 16.86 12.94
1/14/2023 12:30:00 AM 2.83 37.094 0.086 7.37 16.76 12.96
1/14/2023 12:45:00 AM 2.78 37.004 0.086 7.37 16.51 12.97
1/14/2023 1:00:00 AM 2.75 36.95 0.086 7.37 16.02 12.98
1/14/2023 1:15:00 AM 2.7 36.86 0.087 7.37 16.99 12.99
1/14/2023 1:30:00 AM 2.66 36.788 0.087 7.37 15.96 13
1/14/2023 1:45:00 AM 2.63 36.734 0.087 7.37 16.77 13.02
1/14/2023 2:00:00 AM 2.59 36.662 0.087 7.37 15.65 13.03
1/14/2023 2:15:00 AM 2.56 36.608 0.087 7.37 15.13 13.05
1/14/2023 2:30:00 AM 2.51 36.518 0.087 7.37 14.51 13.06
1/14/2023 2:45:00 AM 2.48 36.464 0.087 7.37 14.88 13.07
1/14/2023 3:00:00 AM 2.44 36.392 0.087 7.37 14.57 13.09
1/14/2023 3:15:00 AM 2.42 36.356 0.087 7.37 12.84 13.1
1/14/2023 3:30:00 AM 2.38 36.284 0.087 7.37 13.58 13.11
1/14/2023 3:45:00 AM 2.35 36.23 0.088 7.37 14.35 13.12
1/14/2023 4:00:00 AM 2.31 36.158 0.088 7.37 14.21 13.14
1/14/2023 4:15:00 AM 2.28 36.104 0.088 7.37 14.04 13.15
1/14/2023 4:30:00 AM 2.24 36.032 0.088 7.37 12.99 13.16
1/14/2023 4:45:00 AM 2.2 35.96 0.088 7.37 13.94 13.18
1/14/2023 5:00:00 AM 2.17 35.906 0.088 7.37 13.2 13.19
1/14/2023 5:15:00 AM 2.13 35.834 0.088 7.37 13.86 13.2
1/14/2023 5:30:00 AM 2.09 35.762 0.088 7.37 13.69 13.22
1/14/2023 5:45:00 AM 2.05 35.69 0.088 7.37 12.67 13.24
1/14/2023 6:00:00 AM 2.01 35.618 0.088 7.37 12.77 13.25
1/14/2023 6:15:00 AM 1.98 35.564 0.088 7.37 11.96 13.27
1/14/2023 6:30:00 AM 1.94 35.492 0.088 7.37 12.79 13.29
1/14/2023 6:45:00 AM 1.9 35.42 0.088 7.37 12.68 13.3
1/14/2023 7:00:00 AM 1.87 35.366 0.089 7.37 12.29 13.32
1/14/2023 7:15:00 AM 1.82 35.276 0.089 7.37 12.64 13.34
1/14/2023 7:30:00 AM 1.78 35.204 0.089 7.37 12.09 13.35
1/14/2023 7:45:00 AM 1.74 35.132 0.089 7.37 12.09 13.37
1/14/2023 8:00:00 AM 1.71 35.078 0.089 7.37 11.9 13.38
1/14/2023 8:15:00 AM 1.68 35.024 0.089 7.37 11.9 13.4
1/14/2023 8:30:00 AM 1.65 34.97 0.089 7.38 11.91 13.43
1/14/2023 8:45:00 AM 1.62 34.916 0.089 7.38 11.26 13.46
1/14/2023 9:00:00 AM 1.59 34.862 0.089 7.38 12.43 13.49
1/14/2023 9:15:00 AM 1.56 34.808 0.089 7.39 11.15 13.52
1/14/2023 9:30:00 AM 1.54 34.772 0.089 7.39 11.26 13.56
1/14/2023 9:45:00 AM 1.51 34.718 0.089 7.4 11.43 13.59
1/14/2023 10:00:00 AM 1.48 34.664 0.089 7.4 11.25 13.62
1/14/2023 10:15:00 AM 1.43 34.574 0.089 7.41 10.75 13.63
1/14/2023 10:30:00 AM 1.37 34.466 0.089 7.41 11.09 13.66
1/14/2023 10:45:00 AM 1.36 34.448 0.09 7.42 10.52 13.68
1/14/2023 11:00:00 AM 1.36 34.448 0.09 7.42 10.58 13.71
1/14/2023 11:15:00 AM 1.36 34.448 0.09 7.43 10.91 13.73
1/14/2023 11:30:00 AM 1.34 34.412 0.09 7.43 11.45 13.75
1/14/2023 11:45:00 AM 1.33 34.394 0.09 7.43 10.76 13.77
1/14/2023 12:00:00 PM 1.33 34.394 0.09 7.44 10.59 13.79
1/14/2023 12:15:00 PM 1.33 34.394 0.09 7.45 11.02 13.82
1/14/2023 12:30:00 PM 1.34 34.412 0.09 7.45 10.4 13.84
1/14/2023 12:45:00 PM 1.34 34.412 0.09 7.46 10.12 13.85
1/14/2023 1:00:00 PM 1.34 34.412 0.09 7.46 10.53 13.87
1/14/2023 1:15:00 PM 1.35 34.43 0.09 7.47 10.9 13.88
1/14/2023 1:30:00 PM 1.34 34.412 0.09 7.47 10.11 13.88
1/14/2023 1:45:00 PM 1.35 34.43 0.09 7.48 10.49 13.89
1/14/2023 2:00:00 PM 1.34 34.412 0.09 7.48 9.82 13.9
1/14/2023 2:15:00 PM 1.33 34.394 0.09 7.48 10.22 13.91
1/14/2023 2:30:00 PM 1.32 34.376 0.091 7.48 9.91 13.92
1/14/2023 2:45:00 PM 1.32 34.376 0.091 7.49 9.98 13.92
1/14/2023 3:00:00 PM 1.3 34.34 0.091 7.49 8.76 13.92
1/14/2023 3:15:00 PM 1.29 34.322 0.091 7.49 9.61 13.92
1/14/2023 3:30:00 PM 1.27 34.286 0.091 7.49 9.91 13.92
1/14/2023 3:45:00 PM 1.23 34.214 0.091 7.48 9.65 13.91
1/14/2023 4:00:00 PM 1.19 34.142 0.091 7.48 9.51 13.89
1/14/2023 4:15:00 PM 1.16 34.088 0.091 7.47 9.64 13.86
1/14/2023 4:30:00 PM 1.11 33.998 0.091 7.46 9.49 13.83
1/14/2023 4:45:00 PM 1.08 33.944 0.091 7.45 9.16 13.8
1/14/2023 5:00:00 PM 1.04 33.872 0.092 7.44 9.48 13.79
1/14/2023 5:15:00 PM 1.01 33.818 0.092 7.43 9.47 13.78
1/14/2023 5:30:00 PM 0.97 33.746 0.092 7.42 9.1 13.78
1/14/2023 5:45:00 PM 0.94 33.692 0.092 7.42 9.65 13.78
1/14/2023 6:00:00 PM 0.91 33.638 0.092 7.42 9.27 13.79
1/14/2023 6:15:00 PM 0.88 33.584 0.092 7.41 9.09 13.8
1/14/2023 6:30:00 PM 0.86 33.548 0.092 7.41 9.45 13.81
1/14/2023 6:45:00 PM 0.84 33.512 0.092 7.41 9.06 13.82
1/14/2023 7:00:00 PM 0.82 33.476 0.092 7.41 9.26 13.83
1/14/2023 7:15:00 PM 0.79 33.422 0.092 7.41 9.27 13.84
1/14/2023 7:30:00 PM 0.78 33.404 0.092 7.41 8.41 13.85
1/14/2023 7:45:00 PM 0.76 33.368 0.092 7.41 8.42 13.86
1/14/2023 8:00:00 PM 0.74 33.332 0.092 7.41 8.58 13.87
1/14/2023 8:15:00 PM 0.72 33.296 0.092 7.41 8.86 13.88
1/14/2023 8:30:00 PM 0.7 33.26 0.092 7.41 8.6 13.89
1/14/2023 8:45:00 PM 0.68 33.224 0.092 7.41 8.75 13.9
1/14/2023 9:00:00 PM 0.65 33.17 0.092 7.41 8.66 13.91
1/14/2023 9:15:00 PM 0.63 33.134 0.092 7.41 8.74 13.92
1/14/2023 9:30:00 PM 0.62 33.116 0.092 7.41 9.2 13.93
1/14/2023 9:45:00 PM 0.59 33.062 0.093 7.4 8.62 13.93
1/14/2023 10:00:00 PM 0.58 33.044 0.093 7.4 8.4 13.94
1/14/2023 10:15:00 PM 0.55 32.99 0.093 7.4 8.57 13.95
1/14/2023 10:30:00 PM 0.54 32.972 0.093 7.4 8.94 13.95
1/14/2023 10:45:00 PM 0.52 32.936 0.093 7.4 8.61 13.96
1/14/2023 11:00:00 PM 0.5 32.9 0.093 7.4 8.58 13.96
1/14/2023 11:15:00 PM 0.49 32.882 0.093 7.4 8.64 13.97
1/14/2023 11:30:00 PM 0.47 32.846 0.093 7.4 8.67 13.97
1/14/2023 11:45:00 PM 0.46 32.828 0.093 7.4 8.42 13.98
1/15/2023 12:00:00 AM 0.45 32.81 0.093 7.4 8.12 13.99
1/15/2023 12:15:00 AM 0.43 32.774 0.093 7.4 8.67 13.99
1/15/2023 12:30:00 AM 0.41 32.738 0.093 7.4 8.82 14
1/15/2023 12:45:00 AM 0.4 32.72 0.093 7.4 8.34 14.01
1/15/2023 1:00:00 AM 0.38 32.684 0.093 7.4 8.06 14.02
1/15/2023 1:15:00 AM 0.36 32.648 0.093 7.4 8.56 14.03
1/15/2023 1:30:00 AM 0.34 32.612 0.093 7.4 8.91 14.04
1/15/2023 1:45:00 AM 0.32 32.576 0.093 7.4 8.5 14.05
1/15/2023 2:00:00 AM 0.3 32.54 0.093 7.39 8.87 14.05
1/15/2023 2:15:00 AM 0.29 32.522 0.093 7.4 8.65 14.06
1/15/2023 2:30:00 AM 0.26 32.468 0.093 7.4 8.75 14.07
1/15/2023 2:45:00 AM 0.25 32.45 0.093 7.39 8.93 14.07
1/15/2023 3:00:00 AM 0.23 32.414 0.094 7.39 7.59 14.08
1/15/2023 3:15:00 AM 0.22 32.396 0.094 7.39 8.58 14.08
1/15/2023 3:30:00 AM 0.21 32.378 0.094 7.4 7.86 14.09
1/15/2023 3:45:00 AM 0.2 32.36 0.094 7.39 9.02 14.09
1/15/2023 4:00:00 AM 0.18 32.324 0.094 7.39 8.58 14.1
1/15/2023 4:15:00 AM 0.18 32.324 0.094 7.39 8.58 14.1
1/15/2023 4:30:00 AM 0.16 32.288 0.094 7.39 8.2 14.11
1/15/2023 4:45:00 AM 0.16 32.288 0.094 7.39 8.62 14.11
1/15/2023 5:00:00 AM 0.15 32.27 0.094 7.39 9.04 14.11
1/15/2023 5:15:00 AM 0.14 32.252 0.094 7.39 8.75 14.12
1/15/2023 5:30:00 AM 0.12 32.216 0.094 7.39 8.55 14.12
1/15/2023 5:45:00 AM 0.09 32.162 0.094 7.39 8.34 14.13
1/15/2023 6:00:00 AM 0.08 32.144 0.094 7.39 8.54 14.13
1/15/2023 6:15:00 AM 0.07 32.126 0.094 7.39 8.61 14.14
1/15/2023 6:30:00 AM 0.05 32.09 0.094 7.39 8.38 14.14
1/15/2023 6:45:00 AM 0.02 32.036 0.094 7.39 8.04 14.15
1/15/2023 7:00:00 AM -0.01 31.982 0.094 7.39 9.18 14.16
1/15/2023 7:15:00 AM -0.03 31.946 0.094 7.39 8.53 14.17
1/15/2023 7:30:00 AM -0.05 31.91 0.094 7.39 9.44 14.18
1/15/2023 7:45:00 AM -0.04 31.928 0.094 7.39 9.24 14.2
1/15/2023 8:00:00 AM -0.03 31.946 0.095 7.4 9.49 14.23
1/15/2023 8:15:00 AM -0.03 31.946 0.094 7.4 8.78 14.27
1/15/2023 8:30:00 AM -0.02 31.964 0.095 7.41 8.79 14.3
1/15/2023 8:45:00 AM -0.02 31.964 0.095 7.42 8.38 14.34
1/15/2023 9:00:00 AM -0.01 31.982 0.095 7.43 8.34 14.38
1/15/2023 9:15:00 AM 0 32 0.095 7.44 8.03 14.42
1/15/2023 9:30:00 AM 0 32 0.095 7.45 7.84 14.44
1/15/2023 9:45:00 AM 0.02 32.036 0.095 7.46 7.72 14.47
1/15/2023 10:00:00 AM 0.03 32.054 0.095 7.46 7.96 14.49
1/15/2023 10:15:00 AM 0.06 32.108 0.095 7.47 7.75 14.51
1/15/2023 10:30:00 AM 0.1 32.18 0.095 7.48 8.24 14.51
1/15/2023 10:45:00 AM 0.18 32.324 0.095 7.49 8.17 14.51
1/15/2023 11:00:00 AM 0.26 32.468 0.095 7.49 7.68 14.51
1/15/2023 11:15:00 AM 0.32 32.576 0.095 7.5 8.3 14.5
1/15/2023 11:30:00 AM 0.42 32.756 0.095 7.5 7.68 14.49
1/15/2023 11:45:00 AM 0.45 32.81 0.095 7.5 7.78 14.48
1/15/2023 12:00:00 PM 0.52 32.936 0.095 7.51 7.92 14.46
1/15/2023 12:15:00 PM 0.5 32.9 0.095 7.51 8.8 14.44
1/15/2023 12:30:00 PM 0.51 32.918 0.095 7.51 7.62 14.43
1/15/2023 12:45:00 PM 0.6 33.08 0.095 7.51 8.37 14.41
1/15/2023 1:00:00 PM 0.63 33.134 0.095 7.52 8.3 14.4
1/15/2023 1:15:00 PM 0.65 33.17 0.095 7.52 8.39 14.38
1/15/2023 1:30:00 PM 0.67 33.206 0.095 7.52 8.13 14.36
1/15/2023 1:45:00 PM 0.67 33.206 0.095 7.52 8.09 14.35
1/15/2023 2:00:00 PM 0.6 33.08 0.096 7.51 7.65 14.33
1/15/2023 2:15:00 PM 0.61 33.098 0.096 7.51 7.95 14.32
1/15/2023 2:30:00 PM 0.58 33.044 0.096 7.51 7.38 14.32
1/15/2023 2:45:00 PM 0.56 33.008 0.096 7.51 7.31 14.32
1/15/2023 3:00:00 PM 0.54 32.972 0.096 7.51 8.01 14.31
1/15/2023 3:15:00 PM 0.51 32.918 0.096 7.51 8.13 14.31
1/15/2023 3:30:00 PM 0.48 32.864 0.096 7.5 7.94 14.29
1/15/2023 3:45:00 PM 0.47 32.846 0.096 7.5 7.6 14.28
1/15/2023 4:00:00 PM 0.46 32.828 0.096 7.49 7.36 14.26
1/15/2023 4:15:00 PM 0.45 32.81 0.096 7.49 7.37 14.24
1/15/2023 4:30:00 PM 0.43 32.774 0.096 7.48 7.4 14.22
1/15/2023 4:45:00 PM 0.41 32.738 0.096 7.48 7.62 14.19
1/15/2023 5:00:00 PM 0.4 32.72 0.096 7.47 7.21 14.17
1/15/2023 5:15:00 PM 0.38 32.684 0.096 7.46 6.9 14.15
1/15/2023 5:30:00 PM 0.36 32.648 0.096 7.45 7.72 14.13
1/15/2023 5:45:00 PM 0.35 32.63 0.096 7.45 8.23 14.11
1/15/2023 6:00:00 PM 0.33 32.594 0.097 7.44 8.39 14.11
1/15/2023 6:15:00 PM 0.32 32.576 0.097 7.44 9.5 14.11
1/15/2023 6:30:00 PM 0.3 32.54 0.097 7.44 9.02 14.11
1/15/2023 6:45:00 PM 0.29 32.522 0.097 7.44 9.31 14.11
1/15/2023 7:00:00 PM 0.29 32.522 0.097 7.43 9.39 14.11
1/15/2023 7:15:00 PM 0.28 32.504 0.097 7.44 8.86 14.11
1/15/2023 7:30:00 PM 0.27 32.486 0.097 7.44 8.66 14.11
1/15/2023 7:45:00 PM 0.28 32.504 0.097 7.43 8.36 14.11
1/15/2023 8:00:00 PM 0.28 32.504 0.097 7.44 8.32 14.11
1/15/2023 8:15:00 PM 0.27 32.486 0.097 7.43 7.51 14.12
1/15/2023 8:30:00 PM 0.27 32.486 0.097 7.43 7.56 14.12
1/15/2023 8:45:00 PM 0.26 32.468 0.097 7.44 7.5 14.12
1/15/2023 9:00:00 PM 0.25 32.45 0.097 7.43 7.27 14.12
1/15/2023 9:15:00 PM 0.23 32.414 0.097 7.43 7.12 14.13
1/15/2023 9:30:00 PM 0.23 32.414 0.097 7.43 7.53 14.13
1/15/2023 9:45:00 PM 0.22 32.396 0.097 7.43 7.33 14.14
1/15/2023 10:00:00 PM 0.19 32.342 0.097 7.43 6.73 14.15
1/15/2023 10:15:00 PM 0.16 32.288 0.097 7.43 7.15 14.15
1/15/2023 10:30:00 PM 0.14 32.252 0.097 7.43 7.16 14.15
1/15/2023 10:45:00 PM 0.12 32.216 0.097 7.43 7.44 14.16
1/15/2023 11:00:00 PM 0.1 32.18 0.097 7.43 7.33 14.17
1/15/2023 11:15:00 PM 0.08 32.144 0.097 7.43 6.91 14.17
1/15/2023 11:30:00 PM 0.07 32.126 0.097 7.43 6.22 14.18
1/15/2023 11:45:00 PM 0.06 32.108 0.097 7.43 7.13 14.18
1/16/2023 12:00:00 AM 0.05 32.09 0.097 7.43 6.99 14.18
1/16/2023 12:15:00 AM 0.04 32.072 0.097 7.43 7.2 14.18
1/16/2023 12:30:00 AM 0.03 32.054 0.097 7.43 7.05 14.18
1/16/2023 12:45:00 AM 0.02 32.036 0.097 7.43 7.06 14.18
1/16/2023 1:00:00 AM 0.01 32.018 0.098 7.43 7.24 14.19
1/16/2023 1:15:00 AM -0.01 31.982 0.098 7.43 6.78 14.19
1/16/2023 1:30:00 AM -0.02 31.964 0.098 7.43 7.05 14.2
1/16/2023 1:45:00 AM -0.03 31.946 0.098 7.43 6.35 14.2
1/16/2023 2:00:00 AM -0.04 31.928 0.098 7.43 7.36 14.2
1/16/2023 2:15:00 AM -0.05 31.91 0.098 7.43 6.83 14.21
1/16/2023 2:30:00 AM -0.05 31.91 0.098 7.43 7.09 14.21
1/16/2023 2:45:00 AM -0.04 31.928 0.098 7.43 7.26 14.22
1/16/2023 3:00:00 AM -0.03 31.946 0.098 7.43 7.36 14.22
1/16/2023 3:15:00 AM -0.03 31.946 0.098 7.43 7.21 14.22
1/16/2023 3:30:00 AM -0.04 31.928 0.098 7.43 7.77 14.22
1/16/2023 3:45:00 AM -0.04 31.928 0.098 7.43 7.68 14.22
1/16/2023 4:00:00 AM -0.04 31.928 0.098 7.43 7.59 14.22
1/16/2023 4:15:00 AM -0.04 31.928 0.098 7.42 6.88 14.22
1/16/2023 4:30:00 AM -0.04 31.928 0.098 7.42 7.48 14.22
1/16/2023 4:45:00 AM -0.04 31.928 0.098 7.42 7.29 14.22
1/16/2023 5:00:00 AM -0.04 31.928 0.098 7.42 7.04 14.22
1/16/2023 5:15:00 AM -0.04 31.928 0.099 7.42 7.04 14.22
1/16/2023 5:30:00 AM -0.04 31.928 0.099 7.42 7.61 14.22
1/16/2023 5:45:00 AM -0.04 31.928 0.099 7.42 7.51 14.22
1/16/2023 6:00:00 AM -0.03 31.946 0.099 7.42 7.46 14.21
1/16/2023 6:15:00 AM -0.03 31.946 0.099 7.42 7.93 14.21
1/16/2023 6:30:00 AM -0.03 31.946 0.099 7.42 7.49 14.21
1/16/2023 6:45:00 AM -0.03 31.946 0.099 7.42 7.58 14.21
1/16/2023 7:00:00 AM -0.03 31.946 0.099 7.42 6.65 14.21
1/16/2023 7:15:00 AM -0.03 31.946 0.099 7.41 7.89 14.2
1/16/2023 7:30:00 AM -0.03 31.946 0.099 7.41 7.18 14.2
1/16/2023 7:45:00 AM -0.02 31.964 0.099